<?xml version="1.0" encoding="UTF-8" standalone="no" ?>
<gpx xmlns="http://www.topografix.com/GPX/1/1" xmlns:xsi="http://www.w3.org/2001/XMLSchema-instance" xsi:schemaLocation="http://www.topografix.com/GPX/1/1 http://www.topografix.com/GPX/1/1/gpx.xsd" version="1.1" creator="VisuGPX - https://www.visugpx.com">
  <metadata>
    <name>cernay_16,2</name>
    <desc><![CDATA[
a faire dans l'autre sens pour pique niquer dans la forêt]]></desc>
  </metadata>
  <trk>
    <name><![CDATA[cernay_16,2]]></name>
    <desc><![CDATA[a faire dans l'autre sens pour pique niquer dans la forêt]]></desc>
    <extensions>
      <line xmlns="http://www.topografix.com/GPX/gpx_style/0/2">
        <width>3</width>
      </line>
    </extensions>
    <trkseg>
      <trkpt lat="49.0199" lon="0.3236">
        <ele>180.9</ele>
        <time>2014-04-03T07:39:56.000Z</time>
      </trkpt>
      <trkpt lat="49.0199" lon="0.32364">
        <ele>179.5</ele>
        <time>2014-04-03T07:40:25.000Z</time>
      </trkpt>
      <trkpt lat="49.01994" lon="0.32376">
        <ele>179.3</ele>
        <time>2014-04-03T07:40:34.000Z</time>
      </trkpt>
      <trkpt lat="49.02004" lon="0.32379">
        <ele>178.8</ele>
        <time>2014-04-03T07:40:45.000Z</time>
      </trkpt>
      <trkpt lat="49.02022" lon="0.32385">
        <ele>178.7</ele>
        <time>2014-04-03T07:41:04.000Z</time>
      </trkpt>
      <trkpt lat="49.0203" lon="0.32392">
        <ele>178.8</ele>
        <time>2014-04-03T07:41:13.000Z</time>
      </trkpt>
      <trkpt lat="49.02038" lon="0.32402">
        <ele>179.1</ele>
        <time>2014-04-03T07:41:21.000Z</time>
      </trkpt>
      <trkpt lat="49.02044" lon="0.32412">
        <ele>179</ele>
        <time>2014-04-03T07:41:28.000Z</time>
      </trkpt>
      <trkpt lat="49.02051" lon="0.32423">
        <ele>178.7</ele>
        <time>2014-04-03T07:41:36.000Z</time>
      </trkpt>
      <trkpt lat="49.02056" lon="0.32436">
        <ele>178.7</ele>
        <time>2014-04-03T07:41:44.000Z</time>
      </trkpt>
      <trkpt lat="49.02062" lon="0.32449">
        <ele>179.1</ele>
        <time>2014-04-03T07:41:52.000Z</time>
      </trkpt>
      <trkpt lat="49.02072" lon="0.32474">
        <ele>178.5</ele>
        <time>2014-04-03T07:42:09.000Z</time>
      </trkpt>
      <trkpt lat="49.02077" lon="0.32488">
        <ele>178.4</ele>
        <time>2014-04-03T07:42:19.000Z</time>
      </trkpt>
      <trkpt lat="49.02082" lon="0.32499">
        <ele>179.1</ele>
        <time>2014-04-03T07:42:53.000Z</time>
      </trkpt>
      <trkpt lat="49.02092" lon="0.32524">
        <ele>178.6</ele>
        <time>2014-04-03T07:43:14.000Z</time>
      </trkpt>
      <trkpt lat="49.02095" lon="0.32539">
        <ele>179</ele>
        <time>2014-04-03T07:43:25.000Z</time>
      </trkpt>
      <trkpt lat="49.02097" lon="0.32553">
        <ele>178.2</ele>
        <time>2014-04-03T07:43:35.000Z</time>
      </trkpt>
      <trkpt lat="49.021" lon="0.32567">
        <ele>178.4</ele>
        <time>2014-04-03T07:43:43.000Z</time>
      </trkpt>
      <trkpt lat="49.02103" lon="0.32581">
        <ele>178.6</ele>
        <time>2014-04-03T07:43:52.000Z</time>
      </trkpt>
      <trkpt lat="49.02107" lon="0.32594">
        <ele>178.4</ele>
        <time>2014-04-03T07:44:01.000Z</time>
      </trkpt>
      <trkpt lat="49.0211" lon="0.32607">
        <ele>178.1</ele>
        <time>2014-04-03T07:44:09.000Z</time>
      </trkpt>
      <trkpt lat="49.02117" lon="0.32635">
        <ele>177.9</ele>
        <time>2014-04-03T07:44:24.000Z</time>
      </trkpt>
      <trkpt lat="49.0212" lon="0.32649">
        <ele>177.2</ele>
        <time>2014-04-03T07:44:32.000Z</time>
      </trkpt>
      <trkpt lat="49.02123" lon="0.32663">
        <ele>177.5</ele>
        <time>2014-04-03T07:44:39.000Z</time>
      </trkpt>
      <trkpt lat="49.02127" lon="0.32676">
        <ele>177.1</ele>
        <time>2014-04-03T07:44:47.000Z</time>
      </trkpt>
      <trkpt lat="49.02129" lon="0.3269">
        <ele>177.4</ele>
        <time>2014-04-03T07:44:56.000Z</time>
      </trkpt>
      <trkpt lat="49.02131" lon="0.32705">
        <ele>177.1</ele>
        <time>2014-04-03T07:45:04.000Z</time>
      </trkpt>
      <trkpt lat="49.02132" lon="0.32719">
        <ele>177.3</ele>
        <time>2014-04-03T07:45:13.000Z</time>
      </trkpt>
      <trkpt lat="49.02137" lon="0.32747">
        <ele>176.2</ele>
        <time>2014-04-03T07:45:30.000Z</time>
      </trkpt>
      <trkpt lat="49.0214" lon="0.32761">
        <ele>175.7</ele>
        <time>2014-04-03T07:45:38.000Z</time>
      </trkpt>
      <trkpt lat="49.02144" lon="0.32774">
        <ele>175.6</ele>
        <time>2014-04-03T07:45:46.000Z</time>
      </trkpt>
      <trkpt lat="49.02148" lon="0.32787">
        <ele>174.3</ele>
        <time>2014-04-03T07:45:54.000Z</time>
      </trkpt>
      <trkpt lat="49.02153" lon="0.32799">
        <ele>174.6</ele>
        <time>2014-04-03T07:46:02.000Z</time>
      </trkpt>
      <trkpt lat="49.02159" lon="0.3281">
        <ele>174.9</ele>
        <time>2014-04-03T07:46:10.000Z</time>
      </trkpt>
      <trkpt lat="49.02165" lon="0.32822">
        <ele>174.8</ele>
        <time>2014-04-03T07:46:19.000Z</time>
      </trkpt>
      <trkpt lat="49.02176" lon="0.32845">
        <ele>173.9</ele>
        <time>2014-04-03T07:46:35.000Z</time>
      </trkpt>
      <trkpt lat="49.02181" lon="0.32856">
        <ele>173.7</ele>
        <time>2014-04-03T07:46:43.000Z</time>
      </trkpt>
      <trkpt lat="49.02188" lon="0.32867">
        <ele>174.3</ele>
        <time>2014-04-03T07:46:51.000Z</time>
      </trkpt>
      <trkpt lat="49.02194" lon="0.32879">
        <ele>173.4</ele>
        <time>2014-04-03T07:46:59.000Z</time>
      </trkpt>
      <trkpt lat="49.02202" lon="0.32888">
        <ele>173.2</ele>
        <time>2014-04-03T07:47:08.000Z</time>
      </trkpt>
      <trkpt lat="49.0221" lon="0.32896">
        <ele>173.1</ele>
        <time>2014-04-03T07:47:16.000Z</time>
      </trkpt>
      <trkpt lat="49.02218" lon="0.32903">
        <ele>173.4</ele>
        <time>2014-04-03T07:47:24.000Z</time>
      </trkpt>
      <trkpt lat="49.02235" lon="0.32918">
        <ele>172.7</ele>
        <time>2014-04-03T07:47:40.000Z</time>
      </trkpt>
      <trkpt lat="49.02243" lon="0.32925">
        <ele>173.5</ele>
        <time>2014-04-03T07:47:48.000Z</time>
      </trkpt>
      <trkpt lat="49.02253" lon="0.32928">
        <ele>173.5</ele>
        <time>2014-04-03T07:47:56.000Z</time>
      </trkpt>
      <trkpt lat="49.02263" lon="0.3293">
        <ele>173.6</ele>
        <time>2014-04-03T07:48:03.000Z</time>
      </trkpt>
      <trkpt lat="49.02272" lon="0.32934">
        <ele>173.7</ele>
        <time>2014-04-03T07:48:11.000Z</time>
      </trkpt>
      <trkpt lat="49.02281" lon="0.32936">
        <ele>173.6</ele>
        <time>2014-04-03T07:48:18.000Z</time>
      </trkpt>
      <trkpt lat="49.0229" lon="0.32938">
        <ele>173.6</ele>
        <time>2014-04-03T07:48:26.000Z</time>
      </trkpt>
      <trkpt lat="49.02308" lon="0.32948">
        <ele>172.8</ele>
        <time>2014-04-03T07:48:43.000Z</time>
      </trkpt>
      <trkpt lat="49.02317" lon="0.32952">
        <ele>172.5</ele>
        <time>2014-04-03T07:48:52.000Z</time>
      </trkpt>
      <trkpt lat="49.02325" lon="0.32958">
        <ele>173.5</ele>
        <time>2014-04-03T07:49:00.000Z</time>
      </trkpt>
      <trkpt lat="49.02333" lon="0.32964">
        <ele>171.6</ele>
        <time>2014-04-03T07:49:08.000Z</time>
      </trkpt>
      <trkpt lat="49.02343" lon="0.32968">
        <ele>172.5</ele>
        <time>2014-04-03T07:49:17.000Z</time>
      </trkpt>
      <trkpt lat="49.02352" lon="0.32973">
        <ele>172.2</ele>
        <time>2014-04-03T07:49:25.000Z</time>
      </trkpt>
      <trkpt lat="49.02361" lon="0.32976">
        <ele>172.2</ele>
        <time>2014-04-03T07:49:33.000Z</time>
      </trkpt>
      <trkpt lat="49.02377" lon="0.3299">
        <ele>173</ele>
        <time>2014-04-03T07:49:49.000Z</time>
      </trkpt>
      <trkpt lat="49.02384" lon="0.32999">
        <ele>172.9</ele>
        <time>2014-04-03T07:49:57.000Z</time>
      </trkpt>
      <trkpt lat="49.02392" lon="0.33006">
        <ele>171.9</ele>
        <time>2014-04-03T07:50:05.000Z</time>
      </trkpt>
      <trkpt lat="49.02401" lon="0.33014">
        <ele>172.7</ele>
        <time>2014-04-03T07:50:14.000Z</time>
      </trkpt>
      <trkpt lat="49.02409" lon="0.33022">
        <ele>172.7</ele>
        <time>2014-04-03T07:50:22.000Z</time>
      </trkpt>
      <trkpt lat="49.02418" lon="0.33029">
        <ele>172.7</ele>
        <time>2014-04-03T07:50:30.000Z</time>
      </trkpt>
      <trkpt lat="49.02426" lon="0.33033">
        <ele>172.4</ele>
        <time>2014-04-03T07:50:37.000Z</time>
      </trkpt>
      <trkpt lat="49.02442" lon="0.33048">
        <ele>173.3</ele>
        <time>2014-04-03T07:50:53.000Z</time>
      </trkpt>
      <trkpt lat="49.0245" lon="0.33054">
        <ele>172.6</ele>
        <time>2014-04-03T07:51:01.000Z</time>
      </trkpt>
      <trkpt lat="49.02459" lon="0.33061">
        <ele>172.8</ele>
        <time>2014-04-03T07:51:09.000Z</time>
      </trkpt>
      <trkpt lat="49.02468" lon="0.33067">
        <ele>171.8</ele>
        <time>2014-04-03T07:51:17.000Z</time>
      </trkpt>
      <trkpt lat="49.02476" lon="0.33075">
        <ele>171.9</ele>
        <time>2014-04-03T07:51:25.000Z</time>
      </trkpt>
      <trkpt lat="49.02484" lon="0.33084">
        <ele>172.1</ele>
        <time>2014-04-03T07:51:33.000Z</time>
      </trkpt>
      <trkpt lat="49.02492" lon="0.33094">
        <ele>172.7</ele>
        <time>2014-04-03T07:51:41.000Z</time>
      </trkpt>
      <trkpt lat="49.02506" lon="0.33115">
        <ele>172.6</ele>
        <time>2014-04-03T07:51:57.000Z</time>
      </trkpt>
      <trkpt lat="49.02513" lon="0.33126">
        <ele>172.4</ele>
        <time>2014-04-03T07:52:05.000Z</time>
      </trkpt>
      <trkpt lat="49.0252" lon="0.33134">
        <ele>172.1</ele>
        <time>2014-04-03T07:52:13.000Z</time>
      </trkpt>
      <trkpt lat="49.02528" lon="0.33144">
        <ele>172.3</ele>
        <time>2014-04-03T07:52:21.000Z</time>
      </trkpt>
      <trkpt lat="49.02535" lon="0.33153">
        <ele>172.7</ele>
        <time>2014-04-03T07:52:29.000Z</time>
      </trkpt>
      <trkpt lat="49.02543" lon="0.33162">
        <ele>173.1</ele>
        <time>2014-04-03T07:52:37.000Z</time>
      </trkpt>
      <trkpt lat="49.02551" lon="0.33172">
        <ele>173.5</ele>
        <time>2014-04-03T07:52:45.000Z</time>
      </trkpt>
      <trkpt lat="49.02566" lon="0.33191">
        <ele>172.8</ele>
        <time>2014-04-03T07:53:02.000Z</time>
      </trkpt>
      <trkpt lat="49.02572" lon="0.33202">
        <ele>172.6</ele>
        <time>2014-04-03T07:53:11.000Z</time>
      </trkpt>
      <trkpt lat="49.02579" lon="0.33212">
        <ele>171.5</ele>
        <time>2014-04-03T07:53:19.000Z</time>
      </trkpt>
      <trkpt lat="49.02587" lon="0.33221">
        <ele>171.9</ele>
        <time>2014-04-03T07:53:28.000Z</time>
      </trkpt>
      <trkpt lat="49.02594" lon="0.33232">
        <ele>172.2</ele>
        <time>2014-04-03T07:53:36.000Z</time>
      </trkpt>
      <trkpt lat="49.02602" lon="0.33242">
        <ele>172.6</ele>
        <time>2014-04-03T07:53:44.000Z</time>
      </trkpt>
      <trkpt lat="49.02608" lon="0.33253">
        <ele>173.4</ele>
        <time>2014-04-03T07:53:52.000Z</time>
      </trkpt>
      <trkpt lat="49.0262" lon="0.33276">
        <ele>173</ele>
        <time>2014-04-03T07:54:09.000Z</time>
      </trkpt>
      <trkpt lat="49.02627" lon="0.33287">
        <ele>172.3</ele>
        <time>2014-04-03T07:54:18.000Z</time>
      </trkpt>
      <trkpt lat="49.02633" lon="0.33299">
        <ele>171.8</ele>
        <time>2014-04-03T07:54:27.000Z</time>
      </trkpt>
      <trkpt lat="49.02639" lon="0.33311">
        <ele>171.5</ele>
        <time>2014-04-03T07:54:37.000Z</time>
      </trkpt>
      <trkpt lat="49.02647" lon="0.33322">
        <ele>172</ele>
        <time>2014-04-03T07:54:45.000Z</time>
      </trkpt>
      <trkpt lat="49.02655" lon="0.33327">
        <ele>171.9</ele>
        <time>2014-04-03T07:54:52.000Z</time>
      </trkpt>
      <trkpt lat="49.02664" lon="0.33327">
        <ele>172.9</ele>
        <time>2014-04-03T07:55:02.000Z</time>
      </trkpt>
      <trkpt lat="49.02682" lon="0.33337">
        <ele>172.5</ele>
        <time>2014-04-03T07:55:18.000Z</time>
      </trkpt>
      <trkpt lat="49.02691" lon="0.33344">
        <ele>172</ele>
        <time>2014-04-03T07:55:25.000Z</time>
      </trkpt>
      <trkpt lat="49.027" lon="0.33349">
        <ele>171.6</ele>
        <time>2014-04-03T07:55:35.000Z</time>
      </trkpt>
      <trkpt lat="49.02708" lon="0.33356">
        <ele>172.2</ele>
        <time>2014-04-03T07:55:43.000Z</time>
      </trkpt>
      <trkpt lat="49.02717" lon="0.33363">
        <ele>171.8</ele>
        <time>2014-04-03T07:55:52.000Z</time>
      </trkpt>
      <trkpt lat="49.02723" lon="0.33372">
        <ele>170.2</ele>
        <time>2014-04-03T07:56:00.000Z</time>
      </trkpt>
      <trkpt lat="49.02728" lon="0.33384">
        <ele>170.4</ele>
        <time>2014-04-03T07:56:08.000Z</time>
      </trkpt>
      <trkpt lat="49.0274" lon="0.33409">
        <ele>171.1</ele>
        <time>2014-04-03T07:56:24.000Z</time>
      </trkpt>
      <trkpt lat="49.02749" lon="0.33416">
        <ele>170.3</ele>
        <time>2014-04-03T07:56:31.000Z</time>
      </trkpt>
      <trkpt lat="49.02758" lon="0.33418">
        <ele>169.9</ele>
        <time>2014-04-03T07:56:38.000Z</time>
      </trkpt>
      <trkpt lat="49.02768" lon="0.3342">
        <ele>169.6</ele>
        <time>2014-04-03T07:56:47.000Z</time>
      </trkpt>
      <trkpt lat="49.02776" lon="0.33424">
        <ele>170.6</ele>
        <time>2014-04-03T07:56:54.000Z</time>
      </trkpt>
      <trkpt lat="49.02786" lon="0.33429">
        <ele>169.6</ele>
        <time>2014-04-03T07:57:03.000Z</time>
      </trkpt>
      <trkpt lat="49.02795" lon="0.33433">
        <ele>169.4</ele>
        <time>2014-04-03T07:57:13.000Z</time>
      </trkpt>
      <trkpt lat="49.02813" lon="0.33442">
        <ele>169.6</ele>
        <time>2014-04-03T07:57:29.000Z</time>
      </trkpt>
      <trkpt lat="49.02821" lon="0.33448">
        <ele>169.1</ele>
        <time>2014-04-03T07:57:36.000Z</time>
      </trkpt>
      <trkpt lat="49.02829" lon="0.33454">
        <ele>169</ele>
        <time>2014-04-03T07:57:44.000Z</time>
      </trkpt>
      <trkpt lat="49.02838" lon="0.33458">
        <ele>169.2</ele>
        <time>2014-04-03T07:57:53.000Z</time>
      </trkpt>
      <trkpt lat="49.02848" lon="0.33462">
        <ele>168.7</ele>
        <time>2014-04-03T07:58:01.000Z</time>
      </trkpt>
      <trkpt lat="49.02857" lon="0.33466">
        <ele>168.7</ele>
        <time>2014-04-03T07:58:09.000Z</time>
      </trkpt>
      <trkpt lat="49.02866" lon="0.3347">
        <ele>168.4</ele>
        <time>2014-04-03T07:58:17.000Z</time>
      </trkpt>
      <trkpt lat="49.02883" lon="0.3348">
        <ele>168.3</ele>
        <time>2014-04-03T07:58:32.000Z</time>
      </trkpt>
      <trkpt lat="49.02893" lon="0.33483">
        <ele>167.7</ele>
        <time>2014-04-03T07:58:40.000Z</time>
      </trkpt>
      <trkpt lat="49.02902" lon="0.33487">
        <ele>168.2</ele>
        <time>2014-04-03T07:58:47.000Z</time>
      </trkpt>
      <trkpt lat="49.02911" lon="0.33491">
        <ele>167.9</ele>
        <time>2014-04-03T07:58:54.000Z</time>
      </trkpt>
      <trkpt lat="49.02921" lon="0.33491">
        <ele>167.3</ele>
        <time>2014-04-03T07:59:03.000Z</time>
      </trkpt>
      <trkpt lat="49.0293" lon="0.33493">
        <ele>167.5</ele>
        <time>2014-04-03T07:59:13.000Z</time>
      </trkpt>
      <trkpt lat="49.02939" lon="0.33494">
        <ele>168</ele>
        <time>2014-04-03T07:59:23.000Z</time>
      </trkpt>
      <trkpt lat="49.02959" lon="0.33488">
        <ele>167.5</ele>
        <time>2014-04-03T07:59:40.000Z</time>
      </trkpt>
      <trkpt lat="49.02968" lon="0.33485">
        <ele>167.8</ele>
        <time>2014-04-03T07:59:49.000Z</time>
      </trkpt>
      <trkpt lat="49.02978" lon="0.33485">
        <ele>167.3</ele>
        <time>2014-04-03T07:59:57.000Z</time>
      </trkpt>
      <trkpt lat="49.02987" lon="0.33482">
        <ele>167.8</ele>
        <time>2014-04-03T08:00:06.000Z</time>
      </trkpt>
      <trkpt lat="49.02997" lon="0.33483">
        <ele>166.8</ele>
        <time>2014-04-03T08:00:15.000Z</time>
      </trkpt>
      <trkpt lat="49.03006" lon="0.33482">
        <ele>166.2</ele>
        <time>2014-04-03T08:00:23.000Z</time>
      </trkpt>
      <trkpt lat="49.03016" lon="0.33483">
        <ele>165.8</ele>
        <time>2014-04-03T08:00:30.000Z</time>
      </trkpt>
      <trkpt lat="49.03035" lon="0.33483">
        <ele>165.4</ele>
        <time>2014-04-03T08:00:49.000Z</time>
      </trkpt>
      <trkpt lat="49.03042" lon="0.33474">
        <ele>165.4</ele>
        <time>2014-04-03T08:01:02.000Z</time>
      </trkpt>
      <trkpt lat="49.03035" lon="0.33465">
        <ele>165.8</ele>
        <time>2014-04-03T08:01:10.000Z</time>
      </trkpt>
      <trkpt lat="49.03028" lon="0.33455">
        <ele>165.7</ele>
        <time>2014-04-03T08:01:18.000Z</time>
      </trkpt>
      <trkpt lat="49.03023" lon="0.33441">
        <ele>165.3</ele>
        <time>2014-04-03T08:01:27.000Z</time>
      </trkpt>
      <trkpt lat="49.03022" lon="0.33425">
        <ele>165.6</ele>
        <time>2014-04-03T08:01:36.000Z</time>
      </trkpt>
      <trkpt lat="49.03025" lon="0.33412">
        <ele>165.4</ele>
        <time>2014-04-03T08:01:44.000Z</time>
      </trkpt>
      <trkpt lat="49.03027" lon="0.33383">
        <ele>164.4</ele>
        <time>2014-04-03T08:01:57.000Z</time>
      </trkpt>
      <trkpt lat="49.03029" lon="0.33369">
        <ele>164.7</ele>
        <time>2014-04-03T08:02:05.000Z</time>
      </trkpt>
      <trkpt lat="49.03031" lon="0.33355">
        <ele>164.6</ele>
        <time>2014-04-03T08:02:13.000Z</time>
      </trkpt>
      <trkpt lat="49.03033" lon="0.33341">
        <ele>163.3</ele>
        <time>2014-04-03T08:02:22.000Z</time>
      </trkpt>
      <trkpt lat="49.03034" lon="0.33327">
        <ele>162.4</ele>
        <time>2014-04-03T08:02:31.000Z</time>
      </trkpt>
      <trkpt lat="49.03036" lon="0.33312">
        <ele>162.1</ele>
        <time>2014-04-03T08:02:41.000Z</time>
      </trkpt>
      <trkpt lat="49.03038" lon="0.33284">
        <ele>159.9</ele>
        <time>2014-04-03T08:03:06.000Z</time>
      </trkpt>
      <trkpt lat="49.03041" lon="0.33271">
        <ele>159.1</ele>
        <time>2014-04-03T08:03:17.000Z</time>
      </trkpt>
      <trkpt lat="49.03046" lon="0.33258">
        <ele>157.2</ele>
        <time>2014-04-03T08:03:28.000Z</time>
      </trkpt>
      <trkpt lat="49.03052" lon="0.33246">
        <ele>155.9</ele>
        <time>2014-04-03T08:03:38.000Z</time>
      </trkpt>
      <trkpt lat="49.03059" lon="0.33236">
        <ele>153.4</ele>
        <time>2014-04-03T08:03:47.000Z</time>
      </trkpt>
      <trkpt lat="49.03063" lon="0.33224">
        <ele>152.9</ele>
        <time>2014-04-03T08:03:57.000Z</time>
      </trkpt>
      <trkpt lat="49.03075" lon="0.33202">
        <ele>150</ele>
        <time>2014-04-03T08:04:13.000Z</time>
      </trkpt>
      <trkpt lat="49.03083" lon="0.33194">
        <ele>149.2</ele>
        <time>2014-04-03T08:04:22.000Z</time>
      </trkpt>
      <trkpt lat="49.03092" lon="0.33186">
        <ele>149.2</ele>
        <time>2014-04-03T08:04:32.000Z</time>
      </trkpt>
      <trkpt lat="49.03101" lon="0.33179">
        <ele>149.2</ele>
        <time>2014-04-03T08:04:44.000Z</time>
      </trkpt>
      <trkpt lat="49.0311" lon="0.33176">
        <ele>149.9</ele>
        <time>2014-04-03T08:04:51.000Z</time>
      </trkpt>
      <trkpt lat="49.03119" lon="0.33177">
        <ele>150.4</ele>
        <time>2014-04-03T08:04:58.000Z</time>
      </trkpt>
      <trkpt lat="49.03128" lon="0.33177">
        <ele>150.9</ele>
        <time>2014-04-03T08:05:04.000Z</time>
      </trkpt>
      <trkpt lat="49.03149" lon="0.33177">
        <ele>151.9</ele>
        <time>2014-04-03T08:05:19.000Z</time>
      </trkpt>
      <trkpt lat="49.03158" lon="0.33176">
        <ele>152.3</ele>
        <time>2014-04-03T08:05:25.000Z</time>
      </trkpt>
      <trkpt lat="49.03167" lon="0.33175">
        <ele>154.1</ele>
        <time>2014-04-03T08:05:32.000Z</time>
      </trkpt>
      <trkpt lat="49.03177" lon="0.33174">
        <ele>155.8</ele>
        <time>2014-04-03T08:05:39.000Z</time>
      </trkpt>
      <trkpt lat="49.03186" lon="0.33171">
        <ele>155.7</ele>
        <time>2014-04-03T08:05:46.000Z</time>
      </trkpt>
      <trkpt lat="49.03196" lon="0.33167">
        <ele>156.5</ele>
        <time>2014-04-03T08:05:54.000Z</time>
      </trkpt>
      <trkpt lat="49.03205" lon="0.33162">
        <ele>158.2</ele>
        <time>2014-04-03T08:06:01.000Z</time>
      </trkpt>
      <trkpt lat="49.03214" lon="0.33155">
        <ele>158.2</ele>
        <time>2014-04-03T08:06:09.000Z</time>
      </trkpt>
      <trkpt lat="49.0323" lon="0.3314">
        <ele>160.7</ele>
        <time>2014-04-03T08:06:24.000Z</time>
      </trkpt>
      <trkpt lat="49.03238" lon="0.33134">
        <ele>163.3</ele>
        <time>2014-04-03T08:09:56.000Z</time>
      </trkpt>
      <trkpt lat="49.03255" lon="0.33122">
        <ele>162.5</ele>
        <time>2014-04-03T08:10:43.000Z</time>
      </trkpt>
      <trkpt lat="49.03262" lon="0.33114">
        <ele>163</ele>
        <time>2014-04-03T08:10:55.000Z</time>
      </trkpt>
      <trkpt lat="49.03269" lon="0.33104">
        <ele>164.4</ele>
        <time>2014-04-03T08:11:05.000Z</time>
      </trkpt>
      <trkpt lat="49.03275" lon="0.33094">
        <ele>164.1</ele>
        <time>2014-04-03T08:11:15.000Z</time>
      </trkpt>
      <trkpt lat="49.03281" lon="0.33082">
        <ele>165</ele>
        <time>2014-04-03T08:11:25.000Z</time>
      </trkpt>
      <trkpt lat="49.03285" lon="0.33068">
        <ele>164.9</ele>
        <time>2014-04-03T08:11:34.000Z</time>
      </trkpt>
      <trkpt lat="49.03295" lon="0.33043">
        <ele>165.7</ele>
        <time>2014-04-03T08:11:52.000Z</time>
      </trkpt>
      <trkpt lat="49.033" lon="0.3303">
        <ele>166.2</ele>
        <time>2014-04-03T08:12:02.000Z</time>
      </trkpt>
      <trkpt lat="49.03303" lon="0.33017">
        <ele>165.6</ele>
        <time>2014-04-03T08:12:09.000Z</time>
      </trkpt>
      <trkpt lat="49.03307" lon="0.33003">
        <ele>166</ele>
        <time>2014-04-03T08:12:17.000Z</time>
      </trkpt>
      <trkpt lat="49.0331" lon="0.32989">
        <ele>165.8</ele>
        <time>2014-04-03T08:12:25.000Z</time>
      </trkpt>
      <trkpt lat="49.03313" lon="0.32976">
        <ele>166.4</ele>
        <time>2014-04-03T08:12:34.000Z</time>
      </trkpt>
      <trkpt lat="49.03315" lon="0.32962">
        <ele>166.6</ele>
        <time>2014-04-03T08:12:43.000Z</time>
      </trkpt>
      <trkpt lat="49.03322" lon="0.32935">
        <ele>166.3</ele>
        <time>2014-04-03T08:13:00.000Z</time>
      </trkpt>
      <trkpt lat="49.03324" lon="0.3292">
        <ele>166.7</ele>
        <time>2014-04-03T08:13:09.000Z</time>
      </trkpt>
      <trkpt lat="49.03327" lon="0.32906">
        <ele>167.1</ele>
        <time>2014-04-03T08:13:17.000Z</time>
      </trkpt>
      <trkpt lat="49.03328" lon="0.32892">
        <ele>167.2</ele>
        <time>2014-04-03T08:13:26.000Z</time>
      </trkpt>
      <trkpt lat="49.03331" lon="0.32878">
        <ele>167.3</ele>
        <time>2014-04-03T08:13:36.000Z</time>
      </trkpt>
      <trkpt lat="49.03334" lon="0.32865">
        <ele>167.5</ele>
        <time>2014-04-03T08:13:45.000Z</time>
      </trkpt>
      <trkpt lat="49.03338" lon="0.3285">
        <ele>167.8</ele>
        <time>2014-04-03T08:13:53.000Z</time>
      </trkpt>
      <trkpt lat="49.03342" lon="0.32823">
        <ele>168.5</ele>
        <time>2014-04-03T08:14:09.000Z</time>
      </trkpt>
      <trkpt lat="49.03346" lon="0.32808">
        <ele>168.9</ele>
        <time>2014-04-03T08:14:19.000Z</time>
      </trkpt>
      <trkpt lat="49.0335" lon="0.32794">
        <ele>167.9</ele>
        <time>2014-04-03T08:14:28.000Z</time>
      </trkpt>
      <trkpt lat="49.03353" lon="0.3278">
        <ele>168.3</ele>
        <time>2014-04-03T08:14:37.000Z</time>
      </trkpt>
      <trkpt lat="49.03356" lon="0.32767">
        <ele>167.7</ele>
        <time>2014-04-03T08:14:46.000Z</time>
      </trkpt>
      <trkpt lat="49.03355" lon="0.32753">
        <ele>167.7</ele>
        <time>2014-04-03T08:14:56.000Z</time>
      </trkpt>
      <trkpt lat="49.03344" lon="0.32729">
        <ele>168.4</ele>
        <time>2014-04-03T08:15:16.000Z</time>
      </trkpt>
      <trkpt lat="49.0334" lon="0.32717">
        <ele>168.7</ele>
        <time>2014-04-03T08:16:30.000Z</time>
      </trkpt>
      <trkpt lat="49.03344" lon="0.32704">
        <ele>169.2</ele>
        <time>2014-04-03T08:16:47.000Z</time>
      </trkpt>
      <trkpt lat="49.03346" lon="0.32676">
        <ele>169.3</ele>
        <time>2014-04-03T08:17:06.000Z</time>
      </trkpt>
      <trkpt lat="49.03347" lon="0.32662">
        <ele>169.1</ele>
        <time>2014-04-03T08:17:13.000Z</time>
      </trkpt>
      <trkpt lat="49.0335" lon="0.32648">
        <ele>168.4</ele>
        <time>2014-04-03T08:17:21.000Z</time>
      </trkpt>
      <trkpt lat="49.03352" lon="0.32634">
        <ele>169</ele>
        <time>2014-04-03T08:17:29.000Z</time>
      </trkpt>
      <trkpt lat="49.03355" lon="0.3262">
        <ele>168.5</ele>
        <time>2014-04-03T08:17:37.000Z</time>
      </trkpt>
      <trkpt lat="49.03358" lon="0.32606">
        <ele>168.1</ele>
        <time>2014-04-03T08:17:45.000Z</time>
      </trkpt>
      <trkpt lat="49.03361" lon="0.32592">
        <ele>168.3</ele>
        <time>2014-04-03T08:17:53.000Z</time>
      </trkpt>
      <trkpt lat="49.03365" lon="0.32562">
        <ele>168.6</ele>
        <time>2014-04-03T08:18:09.000Z</time>
      </trkpt>
      <trkpt lat="49.03367" lon="0.32548">
        <ele>167.6</ele>
        <time>2014-04-03T08:18:18.000Z</time>
      </trkpt>
      <trkpt lat="49.0337" lon="0.32534">
        <ele>168.4</ele>
        <time>2014-04-03T08:18:28.000Z</time>
      </trkpt>
      <trkpt lat="49.03373" lon="0.32521">
        <ele>167.9</ele>
        <time>2014-04-03T08:18:37.000Z</time>
      </trkpt>
      <trkpt lat="49.03377" lon="0.32507">
        <ele>167.6</ele>
        <time>2014-04-03T08:18:45.000Z</time>
      </trkpt>
      <trkpt lat="49.0338" lon="0.32493">
        <ele>168</ele>
        <time>2014-04-03T08:18:52.000Z</time>
      </trkpt>
      <trkpt lat="49.03384" lon="0.32481">
        <ele>168</ele>
        <time>2014-04-03T08:18:59.000Z</time>
      </trkpt>
      <trkpt lat="49.03391" lon="0.32454">
        <ele>167.1</ele>
        <time>2014-04-03T08:19:16.000Z</time>
      </trkpt>
      <trkpt lat="49.03393" lon="0.3244">
        <ele>167.2</ele>
        <time>2014-04-03T08:19:23.000Z</time>
      </trkpt>
      <trkpt lat="49.03395" lon="0.32427">
        <ele>165.9</ele>
        <time>2014-04-03T08:19:30.000Z</time>
      </trkpt>
      <trkpt lat="49.03398" lon="0.32413">
        <ele>166.5</ele>
        <time>2014-04-03T08:19:40.000Z</time>
      </trkpt>
      <trkpt lat="49.034" lon="0.32399">
        <ele>165.2</ele>
        <time>2014-04-03T08:19:48.000Z</time>
      </trkpt>
      <trkpt lat="49.03403" lon="0.32385">
        <ele>166.5</ele>
        <time>2014-04-03T08:19:56.000Z</time>
      </trkpt>
      <trkpt lat="49.03405" lon="0.32371">
        <ele>165.7</ele>
        <time>2014-04-03T08:20:03.000Z</time>
      </trkpt>
      <trkpt lat="49.03409" lon="0.32342">
        <ele>165.8</ele>
        <time>2014-04-03T08:20:22.000Z</time>
      </trkpt>
      <trkpt lat="49.03411" lon="0.32327">
        <ele>165.2</ele>
        <time>2014-04-03T08:20:33.000Z</time>
      </trkpt>
      <trkpt lat="49.0341" lon="0.32313">
        <ele>165.9</ele>
        <time>2014-04-03T08:20:43.000Z</time>
      </trkpt>
      <trkpt lat="49.03404" lon="0.32301">
        <ele>166</ele>
        <time>2014-04-03T08:20:51.000Z</time>
      </trkpt>
      <trkpt lat="49.03397" lon="0.32292">
        <ele>165.6</ele>
        <time>2014-04-03T08:21:02.000Z</time>
      </trkpt>
      <trkpt lat="49.03387" lon="0.32267">
        <ele>166.9</ele>
        <time>2014-04-03T08:21:24.000Z</time>
      </trkpt>
      <trkpt lat="49.0339" lon="0.32252">
        <ele>167.1</ele>
        <time>2014-04-03T08:21:32.000Z</time>
      </trkpt>
      <trkpt lat="49.03391" lon="0.32238">
        <ele>166.9</ele>
        <time>2014-04-03T08:21:40.000Z</time>
      </trkpt>
      <trkpt lat="49.03396" lon="0.32225">
        <ele>165.6</ele>
        <time>2014-04-03T08:21:48.000Z</time>
      </trkpt>
      <trkpt lat="49.03399" lon="0.32213">
        <ele>164.7</ele>
        <time>2014-04-03T08:21:57.000Z</time>
      </trkpt>
      <trkpt lat="49.03405" lon="0.32201">
        <ele>165</ele>
        <time>2014-04-03T08:22:07.000Z</time>
      </trkpt>
      <trkpt lat="49.03409" lon="0.32189">
        <ele>164.7</ele>
        <time>2014-04-03T08:22:16.000Z</time>
      </trkpt>
      <trkpt lat="49.03418" lon="0.32162">
        <ele>164.2</ele>
        <time>2014-04-03T08:22:32.000Z</time>
      </trkpt>
      <trkpt lat="49.03421" lon="0.32148">
        <ele>164.2</ele>
        <time>2014-04-03T08:22:40.000Z</time>
      </trkpt>
      <trkpt lat="49.03426" lon="0.32136">
        <ele>164.4</ele>
        <time>2014-04-03T08:22:48.000Z</time>
      </trkpt>
      <trkpt lat="49.03429" lon="0.32121">
        <ele>163.7</ele>
        <time>2014-04-03T08:22:58.000Z</time>
      </trkpt>
      <trkpt lat="49.03433" lon="0.32108">
        <ele>164.8</ele>
        <time>2014-04-03T08:23:07.000Z</time>
      </trkpt>
      <trkpt lat="49.03437" lon="0.32094">
        <ele>165.9</ele>
        <time>2014-04-03T08:23:17.000Z</time>
      </trkpt>
      <trkpt lat="49.03449" lon="0.32071">
        <ele>166.8</ele>
        <time>2014-04-03T08:23:37.000Z</time>
      </trkpt>
      <trkpt lat="49.03454" lon="0.32058">
        <ele>167.5</ele>
        <time>2014-04-03T08:23:48.000Z</time>
      </trkpt>
      <trkpt lat="49.03461" lon="0.32049">
        <ele>168.1</ele>
        <time>2014-04-03T08:23:58.000Z</time>
      </trkpt>
      <trkpt lat="49.03467" lon="0.32037">
        <ele>167.5</ele>
        <time>2014-04-03T08:24:07.000Z</time>
      </trkpt>
      <trkpt lat="49.03471" lon="0.32024">
        <ele>167.4</ele>
        <time>2014-04-03T08:24:19.000Z</time>
      </trkpt>
      <trkpt lat="49.03476" lon="0.32011">
        <ele>168</ele>
        <time>2014-04-03T08:24:28.000Z</time>
      </trkpt>
      <trkpt lat="49.03483" lon="0.31985">
        <ele>168.3</ele>
        <time>2014-04-03T08:24:42.000Z</time>
      </trkpt>
      <trkpt lat="49.03489" lon="0.31972">
        <ele>167.9</ele>
        <time>2014-04-03T08:24:50.000Z</time>
      </trkpt>
      <trkpt lat="49.03494" lon="0.31959">
        <ele>168.5</ele>
        <time>2014-04-03T08:24:58.000Z</time>
      </trkpt>
      <trkpt lat="49.03499" lon="0.31947">
        <ele>168.4</ele>
        <time>2014-04-03T08:25:07.000Z</time>
      </trkpt>
      <trkpt lat="49.03504" lon="0.31935">
        <ele>168.7</ele>
        <time>2014-04-03T08:25:15.000Z</time>
      </trkpt>
      <trkpt lat="49.03508" lon="0.31922">
        <ele>168.5</ele>
        <time>2014-04-03T08:25:22.000Z</time>
      </trkpt>
      <trkpt lat="49.03513" lon="0.31909">
        <ele>168.7</ele>
        <time>2014-04-03T08:25:29.000Z</time>
      </trkpt>
      <trkpt lat="49.03518" lon="0.31897">
        <ele>168.6</ele>
        <time>2014-04-03T08:25:36.000Z</time>
      </trkpt>
      <trkpt lat="49.0353" lon="0.31874">
        <ele>168.7</ele>
        <time>2014-04-03T08:25:50.000Z</time>
      </trkpt>
      <trkpt lat="49.03538" lon="0.31865">
        <ele>168.2</ele>
        <time>2014-04-03T08:26:00.000Z</time>
      </trkpt>
      <trkpt lat="49.03544" lon="0.31855">
        <ele>168.3</ele>
        <time>2014-04-03T08:26:09.000Z</time>
      </trkpt>
      <trkpt lat="49.03549" lon="0.31842">
        <ele>169.5</ele>
        <time>2014-04-03T08:26:18.000Z</time>
      </trkpt>
      <trkpt lat="49.03554" lon="0.3183">
        <ele>168.6</ele>
        <time>2014-04-03T08:26:26.000Z</time>
      </trkpt>
      <trkpt lat="49.03559" lon="0.31819">
        <ele>169.1</ele>
        <time>2014-04-03T08:26:34.000Z</time>
      </trkpt>
      <trkpt lat="49.03564" lon="0.31808">
        <ele>168.1</ele>
        <time>2014-04-03T08:26:41.000Z</time>
      </trkpt>
      <trkpt lat="49.03581" lon="0.31792">
        <ele>167.7</ele>
        <time>2014-04-03T08:27:00.000Z</time>
      </trkpt>
      <trkpt lat="49.03589" lon="0.31795">
        <ele>168.8</ele>
        <time>2014-04-03T08:27:41.000Z</time>
      </trkpt>
      <trkpt lat="49.03606" lon="0.31805">
        <ele>168.2</ele>
        <time>2014-04-03T08:28:11.000Z</time>
      </trkpt>
      <trkpt lat="49.03613" lon="0.31815">
        <ele>168.6</ele>
        <time>2014-04-03T08:28:21.000Z</time>
      </trkpt>
      <trkpt lat="49.0362" lon="0.31824">
        <ele>167.4</ele>
        <time>2014-04-03T08:28:30.000Z</time>
      </trkpt>
      <trkpt lat="49.03629" lon="0.3183">
        <ele>167.2</ele>
        <time>2014-04-03T08:28:40.000Z</time>
      </trkpt>
      <trkpt lat="49.03638" lon="0.31829">
        <ele>168.1</ele>
        <time>2014-04-03T08:28:51.000Z</time>
      </trkpt>
      <trkpt lat="49.03647" lon="0.31823">
        <ele>168.1</ele>
        <time>2014-04-03T08:29:01.000Z</time>
      </trkpt>
      <trkpt lat="49.03664" lon="0.31807">
        <ele>167.5</ele>
        <time>2014-04-03T08:29:19.000Z</time>
      </trkpt>
      <trkpt lat="49.03671" lon="0.31799">
        <ele>166.9</ele>
        <time>2014-04-03T08:29:27.000Z</time>
      </trkpt>
      <trkpt lat="49.03678" lon="0.31791">
        <ele>166.9</ele>
        <time>2014-04-03T08:29:36.000Z</time>
      </trkpt>
      <trkpt lat="49.03684" lon="0.3178">
        <ele>166.8</ele>
        <time>2014-04-03T08:29:45.000Z</time>
      </trkpt>
      <trkpt lat="49.03692" lon="0.31773">
        <ele>166.8</ele>
        <time>2014-04-03T08:29:53.000Z</time>
      </trkpt>
      <trkpt lat="49.03702" lon="0.31766">
        <ele>166.5</ele>
        <time>2014-04-03T08:30:01.000Z</time>
      </trkpt>
      <trkpt lat="49.03711" lon="0.3176">
        <ele>166.5</ele>
        <time>2014-04-03T08:30:10.000Z</time>
      </trkpt>
      <trkpt lat="49.03728" lon="0.31745">
        <ele>165.8</ele>
        <time>2014-04-03T08:30:25.000Z</time>
      </trkpt>
      <trkpt lat="49.03736" lon="0.31739">
        <ele>165.3</ele>
        <time>2014-04-03T08:30:32.000Z</time>
      </trkpt>
      <trkpt lat="49.03744" lon="0.31732">
        <ele>164.9</ele>
        <time>2014-04-03T08:30:40.000Z</time>
      </trkpt>
      <trkpt lat="49.03752" lon="0.31722">
        <ele>164.1</ele>
        <time>2014-04-03T08:30:48.000Z</time>
      </trkpt>
      <trkpt lat="49.0376" lon="0.31713">
        <ele>163.2</ele>
        <time>2014-04-03T08:30:56.000Z</time>
      </trkpt>
      <trkpt lat="49.03768" lon="0.31706">
        <ele>162.6</ele>
        <time>2014-04-03T08:31:03.000Z</time>
      </trkpt>
      <trkpt lat="49.03776" lon="0.31698">
        <ele>161.2</ele>
        <time>2014-04-03T08:31:11.000Z</time>
      </trkpt>
      <trkpt lat="49.03787" lon="0.31676">
        <ele>159.1</ele>
        <time>2014-04-03T08:31:32.000Z</time>
      </trkpt>
      <trkpt lat="49.03793" lon="0.31664">
        <ele>158.6</ele>
        <time>2014-04-03T08:31:43.000Z</time>
      </trkpt>
      <trkpt lat="49.03797" lon="0.31651">
        <ele>157.4</ele>
        <time>2014-04-03T08:31:55.000Z</time>
      </trkpt>
      <trkpt lat="49.038" lon="0.31636">
        <ele>154.5</ele>
        <time>2014-04-03T08:32:10.000Z</time>
      </trkpt>
      <trkpt lat="49.03811" lon="0.31614">
        <ele>150</ele>
        <time>2014-04-03T08:32:40.000Z</time>
      </trkpt>
      <trkpt lat="49.03818" lon="0.31604">
        <ele>147.2</ele>
        <time>2014-04-03T08:32:56.000Z</time>
      </trkpt>
      <trkpt lat="49.03824" lon="0.31594">
        <ele>144.8</ele>
        <time>2014-04-03T08:33:16.000Z</time>
      </trkpt>
      <trkpt lat="49.03831" lon="0.31585">
        <ele>142.7</ele>
        <time>2014-04-03T08:33:29.000Z</time>
      </trkpt>
      <trkpt lat="49.03844" lon="0.31566">
        <ele>138.8</ele>
        <time>2014-04-03T08:33:55.000Z</time>
      </trkpt>
      <trkpt lat="49.0385" lon="0.31555">
        <ele>137.9</ele>
        <time>2014-04-03T08:34:06.000Z</time>
      </trkpt>
      <trkpt lat="49.03858" lon="0.31547">
        <ele>136.8</ele>
        <time>2014-04-03T08:34:18.000Z</time>
      </trkpt>
      <trkpt lat="49.03872" lon="0.31528">
        <ele>140.4</ele>
        <time>2014-04-03T08:35:02.000Z</time>
      </trkpt>
      <trkpt lat="49.0388" lon="0.31521">
        <ele>142.7</ele>
        <time>2014-04-03T08:35:15.000Z</time>
      </trkpt>
      <trkpt lat="49.03887" lon="0.31513">
        <ele>145.4</ele>
        <time>2014-04-03T08:35:35.000Z</time>
      </trkpt>
      <trkpt lat="49.03895" lon="0.31504">
        <ele>147.3</ele>
        <time>2014-04-03T08:35:46.000Z</time>
      </trkpt>
      <trkpt lat="49.03909" lon="0.31485">
        <ele>151.7</ele>
        <time>2014-04-03T08:36:11.000Z</time>
      </trkpt>
      <trkpt lat="49.03914" lon="0.31473">
        <ele>153.8</ele>
        <time>2014-04-03T08:36:24.000Z</time>
      </trkpt>
      <trkpt lat="49.0392" lon="0.31461">
        <ele>155</ele>
        <time>2014-04-03T08:36:35.000Z</time>
      </trkpt>
      <trkpt lat="49.03926" lon="0.31451">
        <ele>156.7</ele>
        <time>2014-04-03T08:36:44.000Z</time>
      </trkpt>
      <trkpt lat="49.03932" lon="0.3144">
        <ele>158</ele>
        <time>2014-04-03T08:36:54.000Z</time>
      </trkpt>
      <trkpt lat="49.03944" lon="0.31417">
        <ele>160.6</ele>
        <time>2014-04-03T08:37:14.000Z</time>
      </trkpt>
      <trkpt lat="49.03952" lon="0.31408">
        <ele>162.2</ele>
        <time>2014-04-03T08:37:24.000Z</time>
      </trkpt>
      <trkpt lat="49.03958" lon="0.31397">
        <ele>162.6</ele>
        <time>2014-04-03T08:37:35.000Z</time>
      </trkpt>
      <trkpt lat="49.03964" lon="0.31385">
        <ele>163.2</ele>
        <time>2014-04-03T08:37:44.000Z</time>
      </trkpt>
      <trkpt lat="49.03969" lon="0.31372">
        <ele>164.3</ele>
        <time>2014-04-03T08:37:54.000Z</time>
      </trkpt>
      <trkpt lat="49.03974" lon="0.3136">
        <ele>164.9</ele>
        <time>2014-04-03T08:38:02.000Z</time>
      </trkpt>
      <trkpt lat="49.03983" lon="0.31335">
        <ele>164.6</ele>
        <time>2014-04-03T08:38:23.000Z</time>
      </trkpt>
      <trkpt lat="49.03988" lon="0.31323">
        <ele>164.7</ele>
        <time>2014-04-03T08:38:32.000Z</time>
      </trkpt>
      <trkpt lat="49.03993" lon="0.3131">
        <ele>164.8</ele>
        <time>2014-04-03T08:38:47.000Z</time>
      </trkpt>
      <trkpt lat="49.03997" lon="0.31298">
        <ele>163.3</ele>
        <time>2014-04-03T08:39:02.000Z</time>
      </trkpt>
      <trkpt lat="49.04001" lon="0.31286">
        <ele>163.1</ele>
        <time>2014-04-03T08:39:13.000Z</time>
      </trkpt>
      <trkpt lat="49.0401" lon="0.31261">
        <ele>161</ele>
        <time>2014-04-03T08:39:33.000Z</time>
      </trkpt>
      <trkpt lat="49.04013" lon="0.31247">
        <ele>160.1</ele>
        <time>2014-04-03T08:39:43.000Z</time>
      </trkpt>
      <trkpt lat="49.04018" lon="0.31235">
        <ele>159.2</ele>
        <time>2014-04-03T08:39:53.000Z</time>
      </trkpt>
      <trkpt lat="49.04024" lon="0.31223">
        <ele>158.5</ele>
        <time>2014-04-03T08:40:03.000Z</time>
      </trkpt>
      <trkpt lat="49.04029" lon="0.31211">
        <ele>157.9</ele>
        <time>2014-04-03T08:40:12.000Z</time>
      </trkpt>
      <trkpt lat="49.04034" lon="0.31198">
        <ele>156.8</ele>
        <time>2014-04-03T08:40:21.000Z</time>
      </trkpt>
      <trkpt lat="49.04037" lon="0.31169">
        <ele>153.7</ele>
        <time>2014-04-03T08:40:41.000Z</time>
      </trkpt>
      <trkpt lat="49.04031" lon="0.31157">
        <ele>153.9</ele>
        <time>2014-04-03T08:40:51.000Z</time>
      </trkpt>
      <trkpt lat="49.04027" lon="0.31145">
        <ele>153</ele>
        <time>2014-04-03T08:40:58.000Z</time>
      </trkpt>
      <trkpt lat="49.04023" lon="0.31131">
        <ele>152.5</ele>
        <time>2014-04-03T08:41:05.000Z</time>
      </trkpt>
      <trkpt lat="49.0402" lon="0.31116">
        <ele>152.1</ele>
        <time>2014-04-03T08:41:13.000Z</time>
      </trkpt>
      <trkpt lat="49.04021" lon="0.31102">
        <ele>151.9</ele>
        <time>2014-04-03T08:41:20.000Z</time>
      </trkpt>
      <trkpt lat="49.04025" lon="0.3109">
        <ele>151.2</ele>
        <time>2014-04-03T08:41:28.000Z</time>
      </trkpt>
      <trkpt lat="49.04032" lon="0.31062">
        <ele>151.4</ele>
        <time>2014-04-03T08:41:44.000Z</time>
      </trkpt>
      <trkpt lat="49.04036" lon="0.31047">
        <ele>152.1</ele>
        <time>2014-04-03T08:41:52.000Z</time>
      </trkpt>
      <trkpt lat="49.04039" lon="0.31034">
        <ele>152.5</ele>
        <time>2014-04-03T08:41:59.000Z</time>
      </trkpt>
      <trkpt lat="49.04044" lon="0.31021">
        <ele>152.7</ele>
        <time>2014-04-03T08:42:07.000Z</time>
      </trkpt>
      <trkpt lat="49.0405" lon="0.3101">
        <ele>153.6</ele>
        <time>2014-04-03T08:42:14.000Z</time>
      </trkpt>
      <trkpt lat="49.04054" lon="0.30997">
        <ele>154.6</ele>
        <time>2014-04-03T08:42:21.000Z</time>
      </trkpt>
      <trkpt lat="49.04058" lon="0.30984">
        <ele>154.2</ele>
        <time>2014-04-03T08:42:28.000Z</time>
      </trkpt>
      <trkpt lat="49.04062" lon="0.30971">
        <ele>154.2</ele>
        <time>2014-04-03T08:42:35.000Z</time>
      </trkpt>
      <trkpt lat="49.04066" lon="0.30944">
        <ele>156.8</ele>
        <time>2014-04-03T08:42:49.000Z</time>
      </trkpt>
      <trkpt lat="49.04068" lon="0.30929">
        <ele>156.6</ele>
        <time>2014-04-03T08:42:58.000Z</time>
      </trkpt>
      <trkpt lat="49.04067" lon="0.30914">
        <ele>158.4</ele>
        <time>2014-04-03T08:43:08.000Z</time>
      </trkpt>
      <trkpt lat="49.04067" lon="0.30899">
        <ele>159.3</ele>
        <time>2014-04-03T08:43:17.000Z</time>
      </trkpt>
      <trkpt lat="49.04066" lon="0.30886">
        <ele>158.6</ele>
        <time>2014-04-03T08:43:24.000Z</time>
      </trkpt>
      <trkpt lat="49.04066" lon="0.30871">
        <ele>159.7</ele>
        <time>2014-04-03T08:43:34.000Z</time>
      </trkpt>
      <trkpt lat="49.04065" lon="0.30842">
        <ele>160.5</ele>
        <time>2014-04-03T08:43:51.000Z</time>
      </trkpt>
      <trkpt lat="49.04057" lon="0.30834">
        <ele>160.6</ele>
        <time>2014-04-03T08:44:02.000Z</time>
      </trkpt>
      <trkpt lat="49.04048" lon="0.30837">
        <ele>160.4</ele>
        <time>2014-04-03T08:44:09.000Z</time>
      </trkpt>
      <trkpt lat="49.04038" lon="0.30839">
        <ele>160.7</ele>
        <time>2014-04-03T08:44:17.000Z</time>
      </trkpt>
      <trkpt lat="49.04029" lon="0.30841">
        <ele>161.7</ele>
        <time>2014-04-03T08:44:25.000Z</time>
      </trkpt>
      <trkpt lat="49.04019" lon="0.30844">
        <ele>162.2</ele>
        <time>2014-04-03T08:44:34.000Z</time>
      </trkpt>
      <trkpt lat="49.0401" lon="0.30848">
        <ele>163.1</ele>
        <time>2014-04-03T08:44:43.000Z</time>
      </trkpt>
      <trkpt lat="49.03994" lon="0.30861">
        <ele>164</ele>
        <time>2014-04-03T08:44:58.000Z</time>
      </trkpt>
      <trkpt lat="49.03987" lon="0.30871">
        <ele>165.2</ele>
        <time>2014-04-03T08:45:06.000Z</time>
      </trkpt>
      <trkpt lat="49.03978" lon="0.30876">
        <ele>164.6</ele>
        <time>2014-04-03T08:45:14.000Z</time>
      </trkpt>
      <trkpt lat="49.03971" lon="0.30865">
        <ele>165.5</ele>
        <time>2014-04-03T08:45:23.000Z</time>
      </trkpt>
      <trkpt lat="49.03967" lon="0.30853">
        <ele>165.8</ele>
        <time>2014-04-03T08:45:31.000Z</time>
      </trkpt>
      <trkpt lat="49.03963" lon="0.3084">
        <ele>166.3</ele>
        <time>2014-04-03T08:45:39.000Z</time>
      </trkpt>
      <trkpt lat="49.03958" lon="0.30827">
        <ele>166.4</ele>
        <time>2014-04-03T08:45:47.000Z</time>
      </trkpt>
      <trkpt lat="49.03942" lon="0.3081">
        <ele>167.4</ele>
        <time>2014-04-03T08:46:02.000Z</time>
      </trkpt>
      <trkpt lat="49.03933" lon="0.30804">
        <ele>167.7</ele>
        <time>2014-04-03T08:46:09.000Z</time>
      </trkpt>
      <trkpt lat="49.03925" lon="0.30798">
        <ele>167.2</ele>
        <time>2014-04-03T08:46:16.000Z</time>
      </trkpt>
      <trkpt lat="49.03916" lon="0.30792">
        <ele>167.9</ele>
        <time>2014-04-03T08:46:24.000Z</time>
      </trkpt>
      <trkpt lat="49.03907" lon="0.30786">
        <ele>168.5</ele>
        <time>2014-04-03T08:46:32.000Z</time>
      </trkpt>
      <trkpt lat="49.03898" lon="0.30779">
        <ele>167.9</ele>
        <time>2014-04-03T08:46:40.000Z</time>
      </trkpt>
      <trkpt lat="49.0389" lon="0.30774">
        <ele>168.6</ele>
        <time>2014-04-03T08:46:48.000Z</time>
      </trkpt>
      <trkpt lat="49.03881" lon="0.30768">
        <ele>169.2</ele>
        <time>2014-04-03T08:46:55.000Z</time>
      </trkpt>
      <trkpt lat="49.03862" lon="0.30762">
        <ele>169.2</ele>
        <time>2014-04-03T08:47:11.000Z</time>
      </trkpt>
      <trkpt lat="49.03857" lon="0.3075">
        <ele>169.1</ele>
        <time>2014-04-03T08:47:19.000Z</time>
      </trkpt>
      <trkpt lat="49.03856" lon="0.30736">
        <ele>170.4</ele>
        <time>2014-04-03T08:47:26.000Z</time>
      </trkpt>
      <trkpt lat="49.0385" lon="0.30724">
        <ele>169.5</ele>
        <time>2014-04-03T08:47:34.000Z</time>
      </trkpt>
      <trkpt lat="49.03844" lon="0.30713">
        <ele>170.2</ele>
        <time>2014-04-03T08:47:43.000Z</time>
      </trkpt>
      <trkpt lat="49.03837" lon="0.30702">
        <ele>170</ele>
        <time>2014-04-03T08:47:51.000Z</time>
      </trkpt>
      <trkpt lat="49.03833" lon="0.30689">
        <ele>170.1</ele>
        <time>2014-04-03T08:47:58.000Z</time>
      </trkpt>
      <trkpt lat="49.03831" lon="0.30675">
        <ele>170.2</ele>
        <time>2014-04-03T08:48:05.000Z</time>
      </trkpt>
      <trkpt lat="49.03825" lon="0.30648">
        <ele>170.6</ele>
        <time>2014-04-03T08:48:19.000Z</time>
      </trkpt>
      <trkpt lat="49.03823" lon="0.30633">
        <ele>170.9</ele>
        <time>2014-04-03T08:48:27.000Z</time>
      </trkpt>
      <trkpt lat="49.0382" lon="0.3062">
        <ele>171.1</ele>
        <time>2014-04-03T08:48:34.000Z</time>
      </trkpt>
      <trkpt lat="49.03817" lon="0.30606">
        <ele>170.4</ele>
        <time>2014-04-03T08:48:41.000Z</time>
      </trkpt>
      <trkpt lat="49.03815" lon="0.30593">
        <ele>171.1</ele>
        <time>2014-04-03T08:48:48.000Z</time>
      </trkpt>
      <trkpt lat="49.03812" lon="0.30579">
        <ele>170.6</ele>
        <time>2014-04-03T08:48:55.000Z</time>
      </trkpt>
      <trkpt lat="49.03809" lon="0.30566">
        <ele>171.4</ele>
        <time>2014-04-03T08:49:02.000Z</time>
      </trkpt>
      <trkpt lat="49.03807" lon="0.30552">
        <ele>171.4</ele>
        <time>2014-04-03T08:49:09.000Z</time>
      </trkpt>
      <trkpt lat="49.03801" lon="0.30526">
        <ele>171.5</ele>
        <time>2014-04-03T08:49:23.000Z</time>
      </trkpt>
      <trkpt lat="49.03798" lon="0.30511">
        <ele>171.7</ele>
        <time>2014-04-03T08:49:31.000Z</time>
      </trkpt>
      <trkpt lat="49.03795" lon="0.30496">
        <ele>172.3</ele>
        <time>2014-04-03T08:49:39.000Z</time>
      </trkpt>
      <trkpt lat="49.03792" lon="0.30483">
        <ele>172.7</ele>
        <time>2014-04-03T08:49:46.000Z</time>
      </trkpt>
      <trkpt lat="49.03789" lon="0.30468">
        <ele>173.1</ele>
        <time>2014-04-03T08:49:53.000Z</time>
      </trkpt>
      <trkpt lat="49.03787" lon="0.30454">
        <ele>173</ele>
        <time>2014-04-03T08:50:00.000Z</time>
      </trkpt>
      <trkpt lat="49.03783" lon="0.30441">
        <ele>173.3</ele>
        <time>2014-04-03T08:50:08.000Z</time>
      </trkpt>
      <trkpt lat="49.03779" lon="0.30414">
        <ele>174.3</ele>
        <time>2014-04-03T08:50:25.000Z</time>
      </trkpt>
      <trkpt lat="49.03775" lon="0.304">
        <ele>174.8</ele>
        <time>2014-04-03T08:50:32.000Z</time>
      </trkpt>
      <trkpt lat="49.03773" lon="0.30386">
        <ele>174.1</ele>
        <time>2014-04-03T08:50:39.000Z</time>
      </trkpt>
      <trkpt lat="49.03769" lon="0.30373">
        <ele>175.4</ele>
        <time>2014-04-03T08:50:45.000Z</time>
      </trkpt>
      <trkpt lat="49.03764" lon="0.3036">
        <ele>175.1</ele>
        <time>2014-04-03T08:50:55.000Z</time>
      </trkpt>
      <trkpt lat="49.03758" lon="0.30349">
        <ele>175.4</ele>
        <time>2014-04-03T08:51:01.000Z</time>
      </trkpt>
      <trkpt lat="49.03752" lon="0.30338">
        <ele>175.4</ele>
        <time>2014-04-03T08:51:07.000Z</time>
      </trkpt>
      <trkpt lat="49.03747" lon="0.30327">
        <ele>174.7</ele>
        <time>2014-04-03T08:51:13.000Z</time>
      </trkpt>
      <trkpt lat="49.03737" lon="0.30301">
        <ele>175.2</ele>
        <time>2014-04-03T08:51:29.000Z</time>
      </trkpt>
      <trkpt lat="49.03733" lon="0.30289">
        <ele>175.4</ele>
        <time>2014-04-03T08:51:36.000Z</time>
      </trkpt>
      <trkpt lat="49.03728" lon="0.30277">
        <ele>175.7</ele>
        <time>2014-04-03T08:51:43.000Z</time>
      </trkpt>
      <trkpt lat="49.03723" lon="0.30264">
        <ele>176.1</ele>
        <time>2014-04-03T08:51:50.000Z</time>
      </trkpt>
      <trkpt lat="49.03717" lon="0.30251">
        <ele>176.7</ele>
        <time>2014-04-03T08:51:57.000Z</time>
      </trkpt>
      <trkpt lat="49.03712" lon="0.30238">
        <ele>176.8</ele>
        <time>2014-04-03T08:52:04.000Z</time>
      </trkpt>
      <trkpt lat="49.03708" lon="0.30226">
        <ele>177.3</ele>
        <time>2014-04-03T08:52:11.000Z</time>
      </trkpt>
      <trkpt lat="49.03703" lon="0.30213">
        <ele>177.6</ele>
        <time>2014-04-03T08:52:19.000Z</time>
      </trkpt>
      <trkpt lat="49.03692" lon="0.30189">
        <ele>177.5</ele>
        <time>2014-04-03T08:52:35.000Z</time>
      </trkpt>
      <trkpt lat="49.03687" lon="0.30177">
        <ele>178.4</ele>
        <time>2014-04-03T08:52:43.000Z</time>
      </trkpt>
      <trkpt lat="49.03681" lon="0.30165">
        <ele>177.8</ele>
        <time>2014-04-03T08:52:52.000Z</time>
      </trkpt>
      <trkpt lat="49.03677" lon="0.30152">
        <ele>177.7</ele>
        <time>2014-04-03T08:53:01.000Z</time>
      </trkpt>
      <trkpt lat="49.03672" lon="0.3014">
        <ele>178.4</ele>
        <time>2014-04-03T08:53:09.000Z</time>
      </trkpt>
      <trkpt lat="49.03668" lon="0.30128">
        <ele>178.5</ele>
        <time>2014-04-03T08:53:25.000Z</time>
      </trkpt>
      <trkpt lat="49.03657" lon="0.30103">
        <ele>179.3</ele>
        <time>2014-04-03T08:53:42.000Z</time>
      </trkpt>
      <trkpt lat="49.03653" lon="0.3009">
        <ele>179.8</ele>
        <time>2014-04-03T08:53:50.000Z</time>
      </trkpt>
      <trkpt lat="49.03648" lon="0.30077">
        <ele>179.7</ele>
        <time>2014-04-03T08:53:58.000Z</time>
      </trkpt>
      <trkpt lat="49.03644" lon="0.30064">
        <ele>180.1</ele>
        <time>2014-04-03T08:54:06.000Z</time>
      </trkpt>
      <trkpt lat="49.03639" lon="0.30051">
        <ele>179.6</ele>
        <time>2014-04-03T08:54:14.000Z</time>
      </trkpt>
      <trkpt lat="49.03633" lon="0.30038">
        <ele>180.1</ele>
        <time>2014-04-03T08:54:23.000Z</time>
      </trkpt>
      <trkpt lat="49.03628" lon="0.30025">
        <ele>179.2</ele>
        <time>2014-04-03T08:54:32.000Z</time>
      </trkpt>
      <trkpt lat="49.03619" lon="0.3">
        <ele>181.5</ele>
        <time>2014-04-03T08:54:48.000Z</time>
      </trkpt>
      <trkpt lat="49.03615" lon="0.29987">
        <ele>180.4</ele>
        <time>2014-04-03T08:54:55.000Z</time>
      </trkpt>
      <trkpt lat="49.03611" lon="0.29974">
        <ele>181.8</ele>
        <time>2014-04-03T08:55:02.000Z</time>
      </trkpt>
      <trkpt lat="49.03607" lon="0.2996">
        <ele>181.2</ele>
        <time>2014-04-03T08:55:10.000Z</time>
      </trkpt>
      <trkpt lat="49.03603" lon="0.29946">
        <ele>181.4</ele>
        <time>2014-04-03T08:55:18.000Z</time>
      </trkpt>
      <trkpt lat="49.03598" lon="0.29934">
        <ele>181.4</ele>
        <time>2014-04-03T08:55:25.000Z</time>
      </trkpt>
      <trkpt lat="49.03595" lon="0.29919">
        <ele>182.7</ele>
        <time>2014-04-03T08:55:33.000Z</time>
      </trkpt>
      <trkpt lat="49.03592" lon="0.29906">
        <ele>182.2</ele>
        <time>2014-04-03T08:55:40.000Z</time>
      </trkpt>
      <trkpt lat="49.03588" lon="0.29879">
        <ele>183.1</ele>
        <time>2014-04-03T08:55:55.000Z</time>
      </trkpt>
      <trkpt lat="49.03585" lon="0.29865">
        <ele>182.6</ele>
        <time>2014-04-03T08:56:03.000Z</time>
      </trkpt>
      <trkpt lat="49.03583" lon="0.2985">
        <ele>182.3</ele>
        <time>2014-04-03T08:56:11.000Z</time>
      </trkpt>
      <trkpt lat="49.0358" lon="0.29836">
        <ele>183.1</ele>
        <time>2014-04-03T08:56:19.000Z</time>
      </trkpt>
      <trkpt lat="49.03577" lon="0.29822">
        <ele>184</ele>
        <time>2014-04-03T08:56:27.000Z</time>
      </trkpt>
      <trkpt lat="49.03574" lon="0.29808">
        <ele>183.2</ele>
        <time>2014-04-03T08:56:35.000Z</time>
      </trkpt>
      <trkpt lat="49.03572" lon="0.29794">
        <ele>184.3</ele>
        <time>2014-04-03T08:56:43.000Z</time>
      </trkpt>
      <trkpt lat="49.03565" lon="0.29766">
        <ele>184.2</ele>
        <time>2014-04-03T08:56:59.000Z</time>
      </trkpt>
      <trkpt lat="49.03566" lon="0.29751">
        <ele>183.7</ele>
        <time>2014-04-03T08:57:49.000Z</time>
      </trkpt>
      <trkpt lat="49.03564" lon="0.29737">
        <ele>183.8</ele>
        <time>2014-04-03T08:58:03.000Z</time>
      </trkpt>
      <trkpt lat="49.03562" lon="0.29724">
        <ele>184.1</ele>
        <time>2014-04-03T08:58:12.000Z</time>
      </trkpt>
      <trkpt lat="49.03557" lon="0.29697">
        <ele>184.8</ele>
        <time>2014-04-03T08:58:32.000Z</time>
      </trkpt>
      <trkpt lat="49.03555" lon="0.29682">
        <ele>185.4</ele>
        <time>2014-04-03T08:58:42.000Z</time>
      </trkpt>
      <trkpt lat="49.03552" lon="0.29669">
        <ele>185</ele>
        <time>2014-04-03T08:58:51.000Z</time>
      </trkpt>
      <trkpt lat="49.03548" lon="0.29656">
        <ele>185.5</ele>
        <time>2014-04-03T08:59:02.000Z</time>
      </trkpt>
      <trkpt lat="49.03546" lon="0.29642">
        <ele>184.7</ele>
        <time>2014-04-03T08:59:12.000Z</time>
      </trkpt>
      <trkpt lat="49.03541" lon="0.29602">
        <ele>191.6</ele>
        <time>2014-04-03T09:43:08.000Z</time>
      </trkpt>
      <trkpt lat="49.03537" lon="0.29601">
        <ele>191.3</ele>
        <time>2014-04-03T09:44:12.000Z</time>
      </trkpt>
      <trkpt lat="49.03538" lon="0.29587">
        <ele>191.2</ele>
        <time>2014-04-03T09:44:23.000Z</time>
      </trkpt>
      <trkpt lat="49.03539" lon="0.29574">
        <ele>190.9</ele>
        <time>2014-04-03T09:44:30.000Z</time>
      </trkpt>
      <trkpt lat="49.03541" lon="0.2956">
        <ele>191.2</ele>
        <time>2014-04-03T09:44:37.000Z</time>
      </trkpt>
      <trkpt lat="49.03543" lon="0.29546">
        <ele>191</ele>
        <time>2014-04-03T09:44:44.000Z</time>
      </trkpt>
      <trkpt lat="49.03547" lon="0.29533">
        <ele>190.3</ele>
        <time>2014-04-03T09:44:51.000Z</time>
      </trkpt>
      <trkpt lat="49.03549" lon="0.29518">
        <ele>190.9</ele>
        <time>2014-04-03T09:45:01.000Z</time>
      </trkpt>
      <trkpt lat="49.03551" lon="0.29504">
        <ele>191.1</ele>
        <time>2014-04-03T09:45:10.000Z</time>
      </trkpt>
      <trkpt lat="49.03556" lon="0.29476">
        <ele>191.4</ele>
        <time>2014-04-03T09:45:23.000Z</time>
      </trkpt>
      <trkpt lat="49.0356" lon="0.29462">
        <ele>190</ele>
        <time>2014-04-03T09:45:30.000Z</time>
      </trkpt>
      <trkpt lat="49.03562" lon="0.29448">
        <ele>189.3</ele>
        <time>2014-04-03T09:45:37.000Z</time>
      </trkpt>
      <trkpt lat="49.03565" lon="0.29434">
        <ele>190.9</ele>
        <time>2014-04-03T09:45:44.000Z</time>
      </trkpt>
      <trkpt lat="49.03568" lon="0.29419">
        <ele>190.2</ele>
        <time>2014-04-03T09:45:53.000Z</time>
      </trkpt>
      <trkpt lat="49.03572" lon="0.29406">
        <ele>189.6</ele>
        <time>2014-04-03T09:46:00.000Z</time>
      </trkpt>
      <trkpt lat="49.03576" lon="0.29392">
        <ele>190.2</ele>
        <time>2014-04-03T09:46:08.000Z</time>
      </trkpt>
      <trkpt lat="49.03583" lon="0.29365">
        <ele>189.5</ele>
        <time>2014-04-03T09:46:26.000Z</time>
      </trkpt>
      <trkpt lat="49.03587" lon="0.29352">
        <ele>189.8</ele>
        <time>2014-04-03T09:46:34.000Z</time>
      </trkpt>
      <trkpt lat="49.0359" lon="0.29338">
        <ele>189.5</ele>
        <time>2014-04-03T09:46:44.000Z</time>
      </trkpt>
      <trkpt lat="49.03591" lon="0.29323">
        <ele>190</ele>
        <time>2014-04-03T09:46:53.000Z</time>
      </trkpt>
      <trkpt lat="49.03594" lon="0.29308">
        <ele>189.1</ele>
        <time>2014-04-03T09:47:02.000Z</time>
      </trkpt>
      <trkpt lat="49.03596" lon="0.29293">
        <ele>189.1</ele>
        <time>2014-04-03T09:47:10.000Z</time>
      </trkpt>
      <trkpt lat="49.03598" lon="0.29264">
        <ele>189.4</ele>
        <time>2014-04-03T09:47:28.000Z</time>
      </trkpt>
      <trkpt lat="49.036" lon="0.29249">
        <ele>188.8</ele>
        <time>2014-04-03T09:47:37.000Z</time>
      </trkpt>
      <trkpt lat="49.03603" lon="0.29236">
        <ele>189.7</ele>
        <time>2014-04-03T09:47:47.000Z</time>
      </trkpt>
      <trkpt lat="49.03605" lon="0.29221">
        <ele>189.7</ele>
        <time>2014-04-03T09:47:56.000Z</time>
      </trkpt>
      <trkpt lat="49.03608" lon="0.29207">
        <ele>190.2</ele>
        <time>2014-04-03T09:48:07.000Z</time>
      </trkpt>
      <trkpt lat="49.03612" lon="0.29193">
        <ele>190.3</ele>
        <time>2014-04-03T09:48:17.000Z</time>
      </trkpt>
      <trkpt lat="49.03618" lon="0.29166">
        <ele>190.6</ele>
        <time>2014-04-03T09:48:32.000Z</time>
      </trkpt>
      <trkpt lat="49.03621" lon="0.29152">
        <ele>190.5</ele>
        <time>2014-04-03T09:48:39.000Z</time>
      </trkpt>
      <trkpt lat="49.03624" lon="0.29138">
        <ele>190.4</ele>
        <time>2014-04-03T09:48:47.000Z</time>
      </trkpt>
      <trkpt lat="49.03627" lon="0.29123">
        <ele>191.3</ele>
        <time>2014-04-03T09:48:55.000Z</time>
      </trkpt>
      <trkpt lat="49.0363" lon="0.29109">
        <ele>190.7</ele>
        <time>2014-04-03T09:49:03.000Z</time>
      </trkpt>
      <trkpt lat="49.03633" lon="0.29096">
        <ele>190.6</ele>
        <time>2014-04-03T09:49:11.000Z</time>
      </trkpt>
      <trkpt lat="49.03636" lon="0.29081">
        <ele>190.4</ele>
        <time>2014-04-03T09:49:18.000Z</time>
      </trkpt>
      <trkpt lat="49.03639" lon="0.29067">
        <ele>190</ele>
        <time>2014-04-03T09:49:25.000Z</time>
      </trkpt>
      <trkpt lat="49.03644" lon="0.29041">
        <ele>191</ele>
        <time>2014-04-03T09:49:40.000Z</time>
      </trkpt>
      <trkpt lat="49.03647" lon="0.29027">
        <ele>189.8</ele>
        <time>2014-04-03T09:49:48.000Z</time>
      </trkpt>
      <trkpt lat="49.0365" lon="0.29014">
        <ele>190.6</ele>
        <time>2014-04-03T09:49:55.000Z</time>
      </trkpt>
      <trkpt lat="49.03652" lon="0.29">
        <ele>190</ele>
        <time>2014-04-03T09:50:02.000Z</time>
      </trkpt>
      <trkpt lat="49.03657" lon="0.28987">
        <ele>191.3</ele>
        <time>2014-04-03T09:50:11.000Z</time>
      </trkpt>
      <trkpt lat="49.0366" lon="0.28974">
        <ele>190.6</ele>
        <time>2014-04-03T09:50:22.000Z</time>
      </trkpt>
      <trkpt lat="49.03663" lon="0.28961">
        <ele>190.7</ele>
        <time>2014-04-03T09:50:30.000Z</time>
      </trkpt>
      <trkpt lat="49.0367" lon="0.28934">
        <ele>191.2</ele>
        <time>2014-04-03T09:50:48.000Z</time>
      </trkpt>
      <trkpt lat="49.0367" lon="0.28921">
        <ele>190.7</ele>
        <time>2014-04-03T09:50:57.000Z</time>
      </trkpt>
      <trkpt lat="49.03672" lon="0.28907">
        <ele>190.6</ele>
        <time>2014-04-03T09:51:06.000Z</time>
      </trkpt>
      <trkpt lat="49.03676" lon="0.28893">
        <ele>190.4</ele>
        <time>2014-04-03T09:51:14.000Z</time>
      </trkpt>
      <trkpt lat="49.03678" lon="0.2888">
        <ele>189.6</ele>
        <time>2014-04-03T09:51:27.000Z</time>
      </trkpt>
      <trkpt lat="49.03685" lon="0.28854">
        <ele>190.3</ele>
        <time>2014-04-03T09:51:56.000Z</time>
      </trkpt>
      <trkpt lat="49.03687" lon="0.28839">
        <ele>190.6</ele>
        <time>2014-04-03T09:52:14.000Z</time>
      </trkpt>
      <trkpt lat="49.03689" lon="0.28826">
        <ele>188.3</ele>
        <time>2014-04-03T09:52:34.000Z</time>
      </trkpt>
      <trkpt lat="49.03697" lon="0.28818">
        <ele>189.2</ele>
        <time>2014-04-03T09:52:43.000Z</time>
      </trkpt>
      <trkpt lat="49.03707" lon="0.28816">
        <ele>188.8</ele>
        <time>2014-04-03T09:52:51.000Z</time>
      </trkpt>
      <trkpt lat="49.03726" lon="0.28811">
        <ele>188.5</ele>
        <time>2014-04-03T09:53:06.000Z</time>
      </trkpt>
      <trkpt lat="49.03735" lon="0.2881">
        <ele>188.5</ele>
        <time>2014-04-03T09:53:13.000Z</time>
      </trkpt>
      <trkpt lat="49.03744" lon="0.28807">
        <ele>188.7</ele>
        <time>2014-04-03T09:53:20.000Z</time>
      </trkpt>
      <trkpt lat="49.03753" lon="0.28806">
        <ele>188.5</ele>
        <time>2014-04-03T09:53:27.000Z</time>
      </trkpt>
      <trkpt lat="49.03763" lon="0.28803">
        <ele>187.9</ele>
        <time>2014-04-03T09:53:35.000Z</time>
      </trkpt>
      <trkpt lat="49.03773" lon="0.288">
        <ele>188.4</ele>
        <time>2014-04-03T09:53:42.000Z</time>
      </trkpt>
      <trkpt lat="49.03783" lon="0.28798">
        <ele>187.7</ele>
        <time>2014-04-03T09:53:50.000Z</time>
      </trkpt>
      <trkpt lat="49.03793" lon="0.28796">
        <ele>188.3</ele>
        <time>2014-04-03T09:53:58.000Z</time>
      </trkpt>
      <trkpt lat="49.03813" lon="0.28791">
        <ele>187.7</ele>
        <time>2014-04-03T09:54:14.000Z</time>
      </trkpt>
      <trkpt lat="49.03823" lon="0.28788">
        <ele>187.7</ele>
        <time>2014-04-03T09:54:21.000Z</time>
      </trkpt>
      <trkpt lat="49.03833" lon="0.28785">
        <ele>187.7</ele>
        <time>2014-04-03T09:54:28.000Z</time>
      </trkpt>
      <trkpt lat="49.03842" lon="0.28782">
        <ele>187.8</ele>
        <time>2014-04-03T09:54:34.000Z</time>
      </trkpt>
      <trkpt lat="49.03852" lon="0.28778">
        <ele>187.6</ele>
        <time>2014-04-03T09:54:40.000Z</time>
      </trkpt>
      <trkpt lat="49.03862" lon="0.28775">
        <ele>187.1</ele>
        <time>2014-04-03T09:54:48.000Z</time>
      </trkpt>
      <trkpt lat="49.03871" lon="0.28773">
        <ele>186.8</ele>
        <time>2014-04-03T09:54:55.000Z</time>
      </trkpt>
      <trkpt lat="49.0388" lon="0.2877">
        <ele>187.1</ele>
        <time>2014-04-03T09:55:01.000Z</time>
      </trkpt>
      <trkpt lat="49.03899" lon="0.28765">
        <ele>186.7</ele>
        <time>2014-04-03T09:55:16.000Z</time>
      </trkpt>
      <trkpt lat="49.03909" lon="0.28762">
        <ele>186.4</ele>
        <time>2014-04-03T09:55:23.000Z</time>
      </trkpt>
      <trkpt lat="49.03917" lon="0.28758">
        <ele>186.8</ele>
        <time>2014-04-03T09:55:30.000Z</time>
      </trkpt>
      <trkpt lat="49.03926" lon="0.28752">
        <ele>187.3</ele>
        <time>2014-04-03T09:55:37.000Z</time>
      </trkpt>
      <trkpt lat="49.03933" lon="0.28744">
        <ele>186.6</ele>
        <time>2014-04-03T09:55:44.000Z</time>
      </trkpt>
      <trkpt lat="49.03939" lon="0.28732">
        <ele>185.9</ele>
        <time>2014-04-03T09:55:51.000Z</time>
      </trkpt>
      <trkpt lat="49.03945" lon="0.28718">
        <ele>186.1</ele>
        <time>2014-04-03T09:55:58.000Z</time>
      </trkpt>
      <trkpt lat="49.03949" lon="0.28704">
        <ele>186.1</ele>
        <time>2014-04-03T09:56:06.000Z</time>
      </trkpt>
      <trkpt lat="49.03957" lon="0.28677">
        <ele>186.2</ele>
        <time>2014-04-03T09:56:21.000Z</time>
      </trkpt>
      <trkpt lat="49.03962" lon="0.28664">
        <ele>186.3</ele>
        <time>2014-04-03T09:56:28.000Z</time>
      </trkpt>
      <trkpt lat="49.03966" lon="0.28652">
        <ele>185.9</ele>
        <time>2014-04-03T09:56:35.000Z</time>
      </trkpt>
      <trkpt lat="49.0397" lon="0.28639">
        <ele>186.4</ele>
        <time>2014-04-03T09:56:43.000Z</time>
      </trkpt>
      <trkpt lat="49.03974" lon="0.28626">
        <ele>186.2</ele>
        <time>2014-04-03T09:56:52.000Z</time>
      </trkpt>
      <trkpt lat="49.03978" lon="0.28613">
        <ele>185.7</ele>
        <time>2014-04-03T09:57:01.000Z</time>
      </trkpt>
      <trkpt lat="49.03982" lon="0.286">
        <ele>186.6</ele>
        <time>2014-04-03T09:57:09.000Z</time>
      </trkpt>
      <trkpt lat="49.03991" lon="0.28574">
        <ele>186.7</ele>
        <time>2014-04-03T09:57:24.000Z</time>
      </trkpt>
      <trkpt lat="49.03996" lon="0.28562">
        <ele>186.9</ele>
        <time>2014-04-03T09:57:31.000Z</time>
      </trkpt>
      <trkpt lat="49.04001" lon="0.2855">
        <ele>186.6</ele>
        <time>2014-04-03T09:57:38.000Z</time>
      </trkpt>
      <trkpt lat="49.04006" lon="0.28536">
        <ele>186.7</ele>
        <time>2014-04-03T09:57:45.000Z</time>
      </trkpt>
      <trkpt lat="49.0401" lon="0.28524">
        <ele>186.3</ele>
        <time>2014-04-03T09:57:52.000Z</time>
      </trkpt>
      <trkpt lat="49.04015" lon="0.28512">
        <ele>187.3</ele>
        <time>2014-04-03T09:57:59.000Z</time>
      </trkpt>
      <trkpt lat="49.0402" lon="0.28497">
        <ele>187.2</ele>
        <time>2014-04-03T09:58:07.000Z</time>
      </trkpt>
      <trkpt lat="49.04024" lon="0.28485">
        <ele>186.7</ele>
        <time>2014-04-03T09:58:14.000Z</time>
      </trkpt>
      <trkpt lat="49.04033" lon="0.28459">
        <ele>186.9</ele>
        <time>2014-04-03T09:58:28.000Z</time>
      </trkpt>
      <trkpt lat="49.04038" lon="0.28445">
        <ele>186.8</ele>
        <time>2014-04-03T09:58:35.000Z</time>
      </trkpt>
      <trkpt lat="49.04042" lon="0.28432">
        <ele>187.3</ele>
        <time>2014-04-03T09:58:42.000Z</time>
      </trkpt>
      <trkpt lat="49.04047" lon="0.28419">
        <ele>187.3</ele>
        <time>2014-04-03T09:58:49.000Z</time>
      </trkpt>
      <trkpt lat="49.04051" lon="0.28406">
        <ele>187.1</ele>
        <time>2014-04-03T09:58:58.000Z</time>
      </trkpt>
      <trkpt lat="49.04054" lon="0.28393">
        <ele>187.2</ele>
        <time>2014-04-03T09:59:08.000Z</time>
      </trkpt>
      <trkpt lat="49.0406" lon="0.28365">
        <ele>187.3</ele>
        <time>2014-04-03T09:59:33.000Z</time>
      </trkpt>
      <trkpt lat="49.04068" lon="0.28358">
        <ele>186.9</ele>
        <time>2014-04-03T10:00:39.000Z</time>
      </trkpt>
      <trkpt lat="49.04073" lon="0.28347">
        <ele>187.3</ele>
        <time>2014-04-03T10:00:54.000Z</time>
      </trkpt>
      <trkpt lat="49.04077" lon="0.28335">
        <ele>187.5</ele>
        <time>2014-04-03T10:01:02.000Z</time>
      </trkpt>
      <trkpt lat="49.04088" lon="0.28311">
        <ele>187.5</ele>
        <time>2014-04-03T10:01:18.000Z</time>
      </trkpt>
      <trkpt lat="49.04093" lon="0.28298">
        <ele>187.3</ele>
        <time>2014-04-03T10:01:25.000Z</time>
      </trkpt>
      <trkpt lat="49.04099" lon="0.28285">
        <ele>187.2</ele>
        <time>2014-04-03T10:01:33.000Z</time>
      </trkpt>
      <trkpt lat="49.04103" lon="0.28272">
        <ele>189.2</ele>
        <time>2014-04-03T10:01:43.000Z</time>
      </trkpt>
      <trkpt lat="49.04106" lon="0.28258">
        <ele>188</ele>
        <time>2014-04-03T10:01:52.000Z</time>
      </trkpt>
      <trkpt lat="49.0411" lon="0.28245">
        <ele>188.9</ele>
        <time>2014-04-03T10:02:04.000Z</time>
      </trkpt>
      <trkpt lat="49.04117" lon="0.28219">
        <ele>187.3</ele>
        <time>2014-04-03T10:02:21.000Z</time>
      </trkpt>
      <trkpt lat="49.04121" lon="0.28205">
        <ele>187.6</ele>
        <time>2014-04-03T10:02:30.000Z</time>
      </trkpt>
      <trkpt lat="49.04127" lon="0.28194">
        <ele>187.9</ele>
        <time>2014-04-03T10:02:40.000Z</time>
      </trkpt>
      <trkpt lat="49.04136" lon="0.28193">
        <ele>188.2</ele>
        <time>2014-04-03T10:03:02.000Z</time>
      </trkpt>
      <trkpt lat="49.04145" lon="0.28189">
        <ele>187.9</ele>
        <time>2014-04-03T10:03:12.000Z</time>
      </trkpt>
      <trkpt lat="49.04164" lon="0.28189">
        <ele>188.9</ele>
        <time>2014-04-03T10:03:30.000Z</time>
      </trkpt>
      <trkpt lat="49.04174" lon="0.28188">
        <ele>188.9</ele>
        <time>2014-04-03T10:03:39.000Z</time>
      </trkpt>
      <trkpt lat="49.04183" lon="0.28189">
        <ele>188.8</ele>
        <time>2014-04-03T10:03:47.000Z</time>
      </trkpt>
      <trkpt lat="49.04193" lon="0.2819">
        <ele>188.5</ele>
        <time>2014-04-03T10:03:55.000Z</time>
      </trkpt>
      <trkpt lat="49.04203" lon="0.28192">
        <ele>188.2</ele>
        <time>2014-04-03T10:04:03.000Z</time>
      </trkpt>
      <trkpt lat="49.04212" lon="0.28191">
        <ele>187.8</ele>
        <time>2014-04-03T10:04:11.000Z</time>
      </trkpt>
      <trkpt lat="49.04221" lon="0.28189">
        <ele>188.3</ele>
        <time>2014-04-03T10:04:18.000Z</time>
      </trkpt>
      <trkpt lat="49.04241" lon="0.28189">
        <ele>188.8</ele>
        <time>2014-04-03T10:04:37.000Z</time>
      </trkpt>
      <trkpt lat="49.0425" lon="0.28187">
        <ele>189.4</ele>
        <time>2014-04-03T10:04:45.000Z</time>
      </trkpt>
      <trkpt lat="49.04259" lon="0.28186">
        <ele>189.1</ele>
        <time>2014-04-03T10:04:53.000Z</time>
      </trkpt>
      <trkpt lat="49.04269" lon="0.28186">
        <ele>188.4</ele>
        <time>2014-04-03T10:05:01.000Z</time>
      </trkpt>
      <trkpt lat="49.04278" lon="0.28184">
        <ele>188.2</ele>
        <time>2014-04-03T10:05:08.000Z</time>
      </trkpt>
      <trkpt lat="49.04287" lon="0.28184">
        <ele>188.3</ele>
        <time>2014-04-03T10:05:17.000Z</time>
      </trkpt>
      <trkpt lat="49.04296" lon="0.28187">
        <ele>188.7</ele>
        <time>2014-04-03T10:05:25.000Z</time>
      </trkpt>
      <trkpt lat="49.04316" lon="0.28188">
        <ele>188.3</ele>
        <time>2014-04-03T10:05:41.000Z</time>
      </trkpt>
      <trkpt lat="49.04325" lon="0.28187">
        <ele>188.2</ele>
        <time>2014-04-03T10:05:51.000Z</time>
      </trkpt>
      <trkpt lat="49.04334" lon="0.28186">
        <ele>187.2</ele>
        <time>2014-04-03T10:05:59.000Z</time>
      </trkpt>
      <trkpt lat="49.04344" lon="0.28184">
        <ele>187.8</ele>
        <time>2014-04-03T10:06:07.000Z</time>
      </trkpt>
      <trkpt lat="49.04353" lon="0.28183">
        <ele>187.7</ele>
        <time>2014-04-03T10:06:14.000Z</time>
      </trkpt>
      <trkpt lat="49.04362" lon="0.28183">
        <ele>188</ele>
        <time>2014-04-03T10:06:21.000Z</time>
      </trkpt>
      <trkpt lat="49.04371" lon="0.28181">
        <ele>187.4</ele>
        <time>2014-04-03T10:06:28.000Z</time>
      </trkpt>
      <trkpt lat="49.0439" lon="0.28182">
        <ele>187.8</ele>
        <time>2014-04-03T10:06:43.000Z</time>
      </trkpt>
      <trkpt lat="49.044" lon="0.28181">
        <ele>187.2</ele>
        <time>2014-04-03T10:06:50.000Z</time>
      </trkpt>
      <trkpt lat="49.0441" lon="0.28179">
        <ele>187.6</ele>
        <time>2014-04-03T10:06:58.000Z</time>
      </trkpt>
      <trkpt lat="49.04419" lon="0.2818">
        <ele>188.3</ele>
        <time>2014-04-03T10:07:08.000Z</time>
      </trkpt>
      <trkpt lat="49.04428" lon="0.28177">
        <ele>188.5</ele>
        <time>2014-04-03T10:07:19.000Z</time>
      </trkpt>
      <trkpt lat="49.04437" lon="0.28176">
        <ele>187.9</ele>
        <time>2014-04-03T10:07:27.000Z</time>
      </trkpt>
      <trkpt lat="49.04456" lon="0.28175">
        <ele>188.1</ele>
        <time>2014-04-03T10:07:45.000Z</time>
      </trkpt>
      <trkpt lat="49.04465" lon="0.28176">
        <ele>187.7</ele>
        <time>2014-04-03T10:07:53.000Z</time>
      </trkpt>
      <trkpt lat="49.04475" lon="0.28174">
        <ele>187.8</ele>
        <time>2014-04-03T10:08:01.000Z</time>
      </trkpt>
      <trkpt lat="49.04484" lon="0.28174">
        <ele>188.3</ele>
        <time>2014-04-03T10:08:10.000Z</time>
      </trkpt>
      <trkpt lat="49.04494" lon="0.28173">
        <ele>187.4</ele>
        <time>2014-04-03T10:08:19.000Z</time>
      </trkpt>
      <trkpt lat="49.04503" lon="0.28171">
        <ele>188.1</ele>
        <time>2014-04-03T10:08:26.000Z</time>
      </trkpt>
      <trkpt lat="49.04512" lon="0.28172">
        <ele>187.6</ele>
        <time>2014-04-03T10:08:35.000Z</time>
      </trkpt>
      <trkpt lat="49.04531" lon="0.2817">
        <ele>186.8</ele>
        <time>2014-04-03T10:08:51.000Z</time>
      </trkpt>
      <trkpt lat="49.04541" lon="0.28171">
        <ele>186.9</ele>
        <time>2014-04-03T10:09:01.000Z</time>
      </trkpt>
      <trkpt lat="49.0455" lon="0.28171">
        <ele>187.1</ele>
        <time>2014-04-03T10:09:11.000Z</time>
      </trkpt>
      <trkpt lat="49.04559" lon="0.28169">
        <ele>186.8</ele>
        <time>2014-04-03T10:09:19.000Z</time>
      </trkpt>
      <trkpt lat="49.04569" lon="0.28169">
        <ele>186.9</ele>
        <time>2014-04-03T10:09:26.000Z</time>
      </trkpt>
      <trkpt lat="49.04578" lon="0.28169">
        <ele>186.9</ele>
        <time>2014-04-03T10:09:34.000Z</time>
      </trkpt>
      <trkpt lat="49.04588" lon="0.28168">
        <ele>186.6</ele>
        <time>2014-04-03T10:09:41.000Z</time>
      </trkpt>
      <trkpt lat="49.04607" lon="0.28167">
        <ele>185.5</ele>
        <time>2014-04-03T10:09:58.000Z</time>
      </trkpt>
      <trkpt lat="49.04616" lon="0.28167">
        <ele>185.1</ele>
        <time>2014-04-03T10:10:06.000Z</time>
      </trkpt>
      <trkpt lat="49.04626" lon="0.28167">
        <ele>184.9</ele>
        <time>2014-04-03T10:10:14.000Z</time>
      </trkpt>
      <trkpt lat="49.04635" lon="0.28166">
        <ele>185.3</ele>
        <time>2014-04-03T10:10:21.000Z</time>
      </trkpt>
      <trkpt lat="49.04644" lon="0.28165">
        <ele>185.9</ele>
        <time>2014-04-03T10:10:29.000Z</time>
      </trkpt>
      <trkpt lat="49.04654" lon="0.28164">
        <ele>186.3</ele>
        <time>2014-04-03T10:10:37.000Z</time>
      </trkpt>
      <trkpt lat="49.04664" lon="0.28163">
        <ele>185.4</ele>
        <time>2014-04-03T10:10:46.000Z</time>
      </trkpt>
      <trkpt lat="49.04683" lon="0.28162">
        <ele>185.1</ele>
        <time>2014-04-03T10:11:01.000Z</time>
      </trkpt>
      <trkpt lat="49.04692" lon="0.28163">
        <ele>183.6</ele>
        <time>2014-04-03T10:11:08.000Z</time>
      </trkpt>
      <trkpt lat="49.04702" lon="0.28162">
        <ele>184.2</ele>
        <time>2014-04-03T10:11:16.000Z</time>
      </trkpt>
      <trkpt lat="49.04712" lon="0.2816">
        <ele>185.1</ele>
        <time>2014-04-03T10:11:24.000Z</time>
      </trkpt>
      <trkpt lat="49.04722" lon="0.2816">
        <ele>184.5</ele>
        <time>2014-04-03T10:11:32.000Z</time>
      </trkpt>
      <trkpt lat="49.04732" lon="0.28161">
        <ele>185.1</ele>
        <time>2014-04-03T10:11:41.000Z</time>
      </trkpt>
      <trkpt lat="49.04741" lon="0.28159">
        <ele>184.6</ele>
        <time>2014-04-03T10:11:49.000Z</time>
      </trkpt>
      <trkpt lat="49.0476" lon="0.28155">
        <ele>184.6</ele>
        <time>2014-04-03T10:12:03.000Z</time>
      </trkpt>
      <trkpt lat="49.04769" lon="0.28154">
        <ele>184.4</ele>
        <time>2014-04-03T10:12:11.000Z</time>
      </trkpt>
      <trkpt lat="49.04778" lon="0.28154">
        <ele>183.6</ele>
        <time>2014-04-03T10:12:19.000Z</time>
      </trkpt>
      <trkpt lat="49.04788" lon="0.28155">
        <ele>183.5</ele>
        <time>2014-04-03T10:12:28.000Z</time>
      </trkpt>
      <trkpt lat="49.04797" lon="0.28154">
        <ele>183.5</ele>
        <time>2014-04-03T10:12:37.000Z</time>
      </trkpt>
      <trkpt lat="49.04807" lon="0.28154">
        <ele>183</ele>
        <time>2014-04-03T10:12:47.000Z</time>
      </trkpt>
      <trkpt lat="49.04826" lon="0.28153">
        <ele>183.2</ele>
        <time>2014-04-03T10:13:05.000Z</time>
      </trkpt>
      <trkpt lat="49.04836" lon="0.28152">
        <ele>183.3</ele>
        <time>2014-04-03T10:13:13.000Z</time>
      </trkpt>
      <trkpt lat="49.04845" lon="0.28152">
        <ele>183.3</ele>
        <time>2014-04-03T10:13:21.000Z</time>
      </trkpt>
      <trkpt lat="49.04855" lon="0.28152">
        <ele>182.6</ele>
        <time>2014-04-03T10:13:30.000Z</time>
      </trkpt>
      <trkpt lat="49.04865" lon="0.28149">
        <ele>182.6</ele>
        <time>2014-04-03T10:13:39.000Z</time>
      </trkpt>
      <trkpt lat="49.04875" lon="0.28148">
        <ele>182.8</ele>
        <time>2014-04-03T10:13:49.000Z</time>
      </trkpt>
      <trkpt lat="49.04884" lon="0.28147">
        <ele>182.9</ele>
        <time>2014-04-03T10:13:57.000Z</time>
      </trkpt>
      <trkpt lat="49.04903" lon="0.28145">
        <ele>182.4</ele>
        <time>2014-04-03T10:14:12.000Z</time>
      </trkpt>
      <trkpt lat="49.04913" lon="0.28145">
        <ele>181.4</ele>
        <time>2014-04-03T10:14:21.000Z</time>
      </trkpt>
      <trkpt lat="49.04923" lon="0.28144">
        <ele>181.4</ele>
        <time>2014-04-03T10:14:30.000Z</time>
      </trkpt>
      <trkpt lat="49.04932" lon="0.28142">
        <ele>181.9</ele>
        <time>2014-04-03T10:14:39.000Z</time>
      </trkpt>
      <trkpt lat="49.04942" lon="0.28143">
        <ele>181.2</ele>
        <time>2014-04-03T10:14:48.000Z</time>
      </trkpt>
      <trkpt lat="49.04952" lon="0.28142">
        <ele>181.1</ele>
        <time>2014-04-03T10:14:57.000Z</time>
      </trkpt>
      <trkpt lat="49.04961" lon="0.2814">
        <ele>181.7</ele>
        <time>2014-04-03T10:15:06.000Z</time>
      </trkpt>
      <trkpt lat="49.0498" lon="0.28137">
        <ele>180.3</ele>
        <time>2014-04-03T10:15:22.000Z</time>
      </trkpt>
      <trkpt lat="49.04989" lon="0.28138">
        <ele>179.9</ele>
        <time>2014-04-03T10:15:32.000Z</time>
      </trkpt>
      <trkpt lat="49.04998" lon="0.28139">
        <ele>179.4</ele>
        <time>2014-04-03T10:15:41.000Z</time>
      </trkpt>
      <trkpt lat="49.05008" lon="0.2814">
        <ele>180.2</ele>
        <time>2014-04-03T10:15:49.000Z</time>
      </trkpt>
      <trkpt lat="49.05017" lon="0.28138">
        <ele>179.4</ele>
        <time>2014-04-03T10:15:57.000Z</time>
      </trkpt>
      <trkpt lat="49.05027" lon="0.28139">
        <ele>179.3</ele>
        <time>2014-04-03T10:16:06.000Z</time>
      </trkpt>
      <trkpt lat="49.05046" lon="0.28138">
        <ele>178.9</ele>
        <time>2014-04-03T10:16:26.000Z</time>
      </trkpt>
      <trkpt lat="49.0505" lon="0.28125">
        <ele>178.1</ele>
        <time>2014-04-03T10:17:03.000Z</time>
      </trkpt>
      <trkpt lat="49.05042" lon="0.28119">
        <ele>178.4</ele>
        <time>2014-04-03T10:17:12.000Z</time>
      </trkpt>
      <trkpt lat="49.05033" lon="0.28114">
        <ele>178.3</ele>
        <time>2014-04-03T10:17:20.000Z</time>
      </trkpt>
      <trkpt lat="49.05023" lon="0.2811">
        <ele>177.9</ele>
        <time>2014-04-03T10:17:28.000Z</time>
      </trkpt>
      <trkpt lat="49.05006" lon="0.28099">
        <ele>178.7</ele>
        <time>2014-04-03T10:17:55.000Z</time>
      </trkpt>
      <trkpt lat="49.04998" lon="0.28092">
        <ele>178.1</ele>
        <time>2014-04-03T10:18:17.000Z</time>
      </trkpt>
      <trkpt lat="49.04993" lon="0.2808">
        <ele>177.9</ele>
        <time>2014-04-03T10:18:32.000Z</time>
      </trkpt>
      <trkpt lat="49.04991" lon="0.28054">
        <ele>178.1</ele>
        <time>2014-04-03T10:19:01.000Z</time>
      </trkpt>
      <trkpt lat="49.04992" lon="0.28039">
        <ele>177.8</ele>
        <time>2014-04-03T10:19:14.000Z</time>
      </trkpt>
      <trkpt lat="49.04992" lon="0.28025">
        <ele>176.2</ele>
        <time>2014-04-03T10:19:26.000Z</time>
      </trkpt>
      <trkpt lat="49.04993" lon="0.28011">
        <ele>177.7</ele>
        <time>2014-04-03T10:19:43.000Z</time>
      </trkpt>
      <trkpt lat="49.04998" lon="0.27983">
        <ele>176.6</ele>
        <time>2014-04-03T10:20:07.000Z</time>
      </trkpt>
      <trkpt lat="49.05001" lon="0.2797">
        <ele>176</ele>
        <time>2014-04-03T10:20:44.000Z</time>
      </trkpt>
      <trkpt lat="49.05003" lon="0.27942">
        <ele>176.7</ele>
        <time>2014-04-03T10:21:14.000Z</time>
      </trkpt>
      <trkpt lat="49.05003" lon="0.27928">
        <ele>175.1</ele>
        <time>2014-04-03T10:21:24.000Z</time>
      </trkpt>
      <trkpt lat="49.05004" lon="0.27913">
        <ele>176</ele>
        <time>2014-04-03T10:21:39.000Z</time>
      </trkpt>
      <trkpt lat="49.05007" lon="0.279">
        <ele>174.5</ele>
        <time>2014-04-03T10:21:49.000Z</time>
      </trkpt>
      <trkpt lat="49.05009" lon="0.27885">
        <ele>175.3</ele>
        <time>2014-04-03T10:21:57.000Z</time>
      </trkpt>
      <trkpt lat="49.05011" lon="0.2787">
        <ele>175.7</ele>
        <time>2014-04-03T10:22:05.000Z</time>
      </trkpt>
      <trkpt lat="49.05013" lon="0.27841">
        <ele>175.2</ele>
        <time>2014-04-03T10:22:24.000Z</time>
      </trkpt>
      <trkpt lat="49.05015" lon="0.27827">
        <ele>174.6</ele>
        <time>2014-04-03T10:22:34.000Z</time>
      </trkpt>
      <trkpt lat="49.05016" lon="0.27813">
        <ele>173.8</ele>
        <time>2014-04-03T10:22:42.000Z</time>
      </trkpt>
      <trkpt lat="49.05016" lon="0.27799">
        <ele>173.6</ele>
        <time>2014-04-03T10:22:53.000Z</time>
      </trkpt>
      <trkpt lat="49.05019" lon="0.27784">
        <ele>174.2</ele>
        <time>2014-04-03T10:23:02.000Z</time>
      </trkpt>
      <trkpt lat="49.0502" lon="0.2777">
        <ele>173.4</ele>
        <time>2014-04-03T10:23:11.000Z</time>
      </trkpt>
      <trkpt lat="49.05025" lon="0.27741">
        <ele>174</ele>
        <time>2014-04-03T10:23:30.000Z</time>
      </trkpt>
      <trkpt lat="49.05026" lon="0.27726">
        <ele>173.3</ele>
        <time>2014-04-03T10:24:28.000Z</time>
      </trkpt>
      <trkpt lat="49.05028" lon="0.27698">
        <ele>171.6</ele>
        <time>2014-04-03T10:24:51.000Z</time>
      </trkpt>
      <trkpt lat="49.0503" lon="0.27684">
        <ele>171.3</ele>
        <time>2014-04-03T10:27:21.000Z</time>
      </trkpt>
      <trkpt lat="49.05028" lon="0.27671">
        <ele>171.1</ele>
        <time>2014-04-03T10:27:43.000Z</time>
      </trkpt>
      <trkpt lat="49.05027" lon="0.27657">
        <ele>171</ele>
        <time>2014-04-03T10:27:53.000Z</time>
      </trkpt>
      <trkpt lat="49.05027" lon="0.27643">
        <ele>170.6</ele>
        <time>2014-04-03T10:28:01.000Z</time>
      </trkpt>
      <trkpt lat="49.05024" lon="0.27615">
        <ele>171.3</ele>
        <time>2014-04-03T10:28:17.000Z</time>
      </trkpt>
      <trkpt lat="49.05022" lon="0.27602">
        <ele>169.5</ele>
        <time>2014-04-03T10:28:25.000Z</time>
      </trkpt>
      <trkpt lat="49.05021" lon="0.27586">
        <ele>169.6</ele>
        <time>2014-04-03T10:28:33.000Z</time>
      </trkpt>
      <trkpt lat="49.0502" lon="0.27571">
        <ele>169.7</ele>
        <time>2014-04-03T10:28:41.000Z</time>
      </trkpt>
      <trkpt lat="49.05018" lon="0.27556">
        <ele>170.9</ele>
        <time>2014-04-03T10:28:49.000Z</time>
      </trkpt>
      <trkpt lat="49.05017" lon="0.27541">
        <ele>169.5</ele>
        <time>2014-04-03T10:28:58.000Z</time>
      </trkpt>
      <trkpt lat="49.05014" lon="0.27527">
        <ele>170.5</ele>
        <time>2014-04-03T10:29:07.000Z</time>
      </trkpt>
      <trkpt lat="49.05013" lon="0.27499">
        <ele>169.8</ele>
        <time>2014-04-03T10:29:22.000Z</time>
      </trkpt>
      <trkpt lat="49.05012" lon="0.27484">
        <ele>168.7</ele>
        <time>2014-04-03T10:29:30.000Z</time>
      </trkpt>
      <trkpt lat="49.0501" lon="0.2747">
        <ele>168.8</ele>
        <time>2014-04-03T10:29:38.000Z</time>
      </trkpt>
      <trkpt lat="49.05008" lon="0.27456">
        <ele>168.6</ele>
        <time>2014-04-03T10:29:46.000Z</time>
      </trkpt>
      <trkpt lat="49.05008" lon="0.27442">
        <ele>168.7</ele>
        <time>2014-04-03T10:29:54.000Z</time>
      </trkpt>
      <trkpt lat="49.05008" lon="0.27427">
        <ele>169</ele>
        <time>2014-04-03T10:30:02.000Z</time>
      </trkpt>
      <trkpt lat="49.05006" lon="0.27412">
        <ele>168.8</ele>
        <time>2014-04-03T10:30:10.000Z</time>
      </trkpt>
      <trkpt lat="49.05002" lon="0.27384">
        <ele>169.3</ele>
        <time>2014-04-03T10:30:25.000Z</time>
      </trkpt>
      <trkpt lat="49.05" lon="0.27369">
        <ele>169.4</ele>
        <time>2014-04-03T10:30:33.000Z</time>
      </trkpt>
      <trkpt lat="49.04998" lon="0.27356">
        <ele>169.1</ele>
        <time>2014-04-03T10:30:40.000Z</time>
      </trkpt>
      <trkpt lat="49.04997" lon="0.27341">
        <ele>167.9</ele>
        <time>2014-04-03T10:30:48.000Z</time>
      </trkpt>
      <trkpt lat="49.04996" lon="0.27326">
        <ele>167.7</ele>
        <time>2014-04-03T10:30:56.000Z</time>
      </trkpt>
      <trkpt lat="49.04995" lon="0.27312">
        <ele>167.8</ele>
        <time>2014-04-03T10:31:03.000Z</time>
      </trkpt>
      <trkpt lat="49.04994" lon="0.27298">
        <ele>168.5</ele>
        <time>2014-04-03T10:31:10.000Z</time>
      </trkpt>
      <trkpt lat="49.04993" lon="0.27282">
        <ele>167.7</ele>
        <time>2014-04-03T10:31:18.000Z</time>
      </trkpt>
      <trkpt lat="49.0499" lon="0.27252">
        <ele>167.7</ele>
        <time>2014-04-03T10:31:34.000Z</time>
      </trkpt>
      <trkpt lat="49.04988" lon="0.27237">
        <ele>166.3</ele>
        <time>2014-04-03T10:31:43.000Z</time>
      </trkpt>
      <trkpt lat="49.04987" lon="0.27222">
        <ele>167.2</ele>
        <time>2014-04-03T10:31:52.000Z</time>
      </trkpt>
      <trkpt lat="49.04985" lon="0.27207">
        <ele>167</ele>
        <time>2014-04-03T10:32:00.000Z</time>
      </trkpt>
      <trkpt lat="49.04985" lon="0.27191">
        <ele>167.3</ele>
        <time>2014-04-03T10:32:08.000Z</time>
      </trkpt>
      <trkpt lat="49.04984" lon="0.27176">
        <ele>167.5</ele>
        <time>2014-04-03T10:32:16.000Z</time>
      </trkpt>
      <trkpt lat="49.04983" lon="0.27161">
        <ele>167.1</ele>
        <time>2014-04-03T10:32:23.000Z</time>
      </trkpt>
      <trkpt lat="49.0498" lon="0.27133">
        <ele>167.9</ele>
        <time>2014-04-03T10:32:37.000Z</time>
      </trkpt>
      <trkpt lat="49.04978" lon="0.27118">
        <ele>168.5</ele>
        <time>2014-04-03T10:32:45.000Z</time>
      </trkpt>
      <trkpt lat="49.04976" lon="0.27103">
        <ele>168.2</ele>
        <time>2014-04-03T10:32:54.000Z</time>
      </trkpt>
      <trkpt lat="49.04974" lon="0.2709">
        <ele>168.1</ele>
        <time>2014-04-03T10:33:01.000Z</time>
      </trkpt>
      <trkpt lat="49.04972" lon="0.27076">
        <ele>167.2</ele>
        <time>2014-04-03T10:33:08.000Z</time>
      </trkpt>
      <trkpt lat="49.04967" lon="0.27064">
        <ele>167.5</ele>
        <time>2014-04-03T10:33:15.000Z</time>
      </trkpt>
      <trkpt lat="49.04958" lon="0.27059">
        <ele>166.4</ele>
        <time>2014-04-03T10:33:24.000Z</time>
      </trkpt>
      <trkpt lat="49.04951" lon="0.27033">
        <ele>167.1</ele>
        <time>2014-04-03T10:33:43.000Z</time>
      </trkpt>
      <trkpt lat="49.04948" lon="0.27018">
        <ele>165.5</ele>
        <time>2014-04-03T10:33:53.000Z</time>
      </trkpt>
      <trkpt lat="49.04945" lon="0.27004">
        <ele>164.6</ele>
        <time>2014-04-03T10:34:00.000Z</time>
      </trkpt>
      <trkpt lat="49.04941" lon="0.2699">
        <ele>163.5</ele>
        <time>2014-04-03T10:34:07.000Z</time>
      </trkpt>
      <trkpt lat="49.04936" lon="0.26976">
        <ele>163.7</ele>
        <time>2014-04-03T10:34:15.000Z</time>
      </trkpt>
      <trkpt lat="49.04934" lon="0.26962">
        <ele>163.8</ele>
        <time>2014-04-03T10:34:23.000Z</time>
      </trkpt>
      <trkpt lat="49.04931" lon="0.26946">
        <ele>163.5</ele>
        <time>2014-04-03T10:34:31.000Z</time>
      </trkpt>
      <trkpt lat="49.04922" lon="0.2692">
        <ele>162.9</ele>
        <time>2014-04-03T10:34:45.000Z</time>
      </trkpt>
      <trkpt lat="49.04917" lon="0.26908">
        <ele>164.4</ele>
        <time>2014-04-03T10:34:52.000Z</time>
      </trkpt>
      <trkpt lat="49.04911" lon="0.26897">
        <ele>163.9</ele>
        <time>2014-04-03T10:34:59.000Z</time>
      </trkpt>
      <trkpt lat="49.04904" lon="0.26885">
        <ele>163.6</ele>
        <time>2014-04-03T10:35:08.000Z</time>
      </trkpt>
      <trkpt lat="49.04899" lon="0.26873">
        <ele>163.3</ele>
        <time>2014-04-03T10:35:16.000Z</time>
      </trkpt>
      <trkpt lat="49.04893" lon="0.26862">
        <ele>163.6</ele>
        <time>2014-04-03T10:35:24.000Z</time>
      </trkpt>
      <trkpt lat="49.04886" lon="0.26852">
        <ele>163.7</ele>
        <time>2014-04-03T10:35:32.000Z</time>
      </trkpt>
      <trkpt lat="49.04875" lon="0.26828">
        <ele>164</ele>
        <time>2014-04-03T10:35:49.000Z</time>
      </trkpt>
      <trkpt lat="49.04871" lon="0.26816">
        <ele>163.9</ele>
        <time>2014-04-03T10:35:59.000Z</time>
      </trkpt>
      <trkpt lat="49.04864" lon="0.26808">
        <ele>163.8</ele>
        <time>2014-04-03T10:36:18.000Z</time>
      </trkpt>
      <trkpt lat="49.04854" lon="0.26803">
        <ele>163.7</ele>
        <time>2014-04-03T10:36:27.000Z</time>
      </trkpt>
      <trkpt lat="49.04845" lon="0.268">
        <ele>164.3</ele>
        <time>2014-04-03T10:36:34.000Z</time>
      </trkpt>
      <trkpt lat="49.04836" lon="0.26798">
        <ele>164.6</ele>
        <time>2014-04-03T10:36:41.000Z</time>
      </trkpt>
      <trkpt lat="49.04818" lon="0.26792">
        <ele>164</ele>
        <time>2014-04-03T10:36:56.000Z</time>
      </trkpt>
      <trkpt lat="49.04808" lon="0.2679">
        <ele>163.7</ele>
        <time>2014-04-03T10:37:03.000Z</time>
      </trkpt>
      <trkpt lat="49.04799" lon="0.26789">
        <ele>164.1</ele>
        <time>2014-04-03T10:37:10.000Z</time>
      </trkpt>
      <trkpt lat="49.04789" lon="0.26784">
        <ele>164.8</ele>
        <time>2014-04-03T10:37:18.000Z</time>
      </trkpt>
      <trkpt lat="49.0478" lon="0.26782">
        <ele>165.1</ele>
        <time>2014-04-03T10:37:25.000Z</time>
      </trkpt>
      <trkpt lat="49.04769" lon="0.26781">
        <ele>163.9</ele>
        <time>2014-04-03T10:37:33.000Z</time>
      </trkpt>
      <trkpt lat="49.0476" lon="0.26778">
        <ele>164.8</ele>
        <time>2014-04-03T10:37:40.000Z</time>
      </trkpt>
      <trkpt lat="49.04751" lon="0.26775">
        <ele>164.6</ele>
        <time>2014-04-03T10:37:46.000Z</time>
      </trkpt>
      <trkpt lat="49.04733" lon="0.26767">
        <ele>165</ele>
        <time>2014-04-03T10:38:00.000Z</time>
      </trkpt>
      <trkpt lat="49.04724" lon="0.26764">
        <ele>164.7</ele>
        <time>2014-04-03T10:38:07.000Z</time>
      </trkpt>
      <trkpt lat="49.04715" lon="0.26761">
        <ele>165.1</ele>
        <time>2014-04-03T10:38:14.000Z</time>
      </trkpt>
      <trkpt lat="49.04706" lon="0.26757">
        <ele>165.1</ele>
        <time>2014-04-03T10:38:21.000Z</time>
      </trkpt>
      <trkpt lat="49.04696" lon="0.26754">
        <ele>164.7</ele>
        <time>2014-04-03T10:38:29.000Z</time>
      </trkpt>
      <trkpt lat="49.04687" lon="0.26752">
        <ele>164.2</ele>
        <time>2014-04-03T10:38:36.000Z</time>
      </trkpt>
      <trkpt lat="49.04676" lon="0.2675">
        <ele>165.3</ele>
        <time>2014-04-03T10:38:43.000Z</time>
      </trkpt>
      <trkpt lat="49.04666" lon="0.26749">
        <ele>164.9</ele>
        <time>2014-04-03T10:38:50.000Z</time>
      </trkpt>
      <trkpt lat="49.04646" lon="0.26743">
        <ele>163.7</ele>
        <time>2014-04-03T10:39:05.000Z</time>
      </trkpt>
      <trkpt lat="49.04637" lon="0.2674">
        <ele>164.6</ele>
        <time>2014-04-03T10:39:12.000Z</time>
      </trkpt>
      <trkpt lat="49.04627" lon="0.26739">
        <ele>164.4</ele>
        <time>2014-04-03T10:39:19.000Z</time>
      </trkpt>
      <trkpt lat="49.04618" lon="0.26737">
        <ele>164.2</ele>
        <time>2014-04-03T10:39:27.000Z</time>
      </trkpt>
      <trkpt lat="49.04608" lon="0.26734">
        <ele>164</ele>
        <time>2014-04-03T10:39:35.000Z</time>
      </trkpt>
      <trkpt lat="49.04599" lon="0.26731">
        <ele>163.8</ele>
        <time>2014-04-03T10:39:42.000Z</time>
      </trkpt>
      <trkpt lat="49.04589" lon="0.26728">
        <ele>165.2</ele>
        <time>2014-04-03T10:39:50.000Z</time>
      </trkpt>
      <trkpt lat="49.0458" lon="0.26725">
        <ele>165</ele>
        <time>2014-04-03T10:39:58.000Z</time>
      </trkpt>
      <trkpt lat="49.0456" lon="0.26718">
        <ele>163.9</ele>
        <time>2014-04-03T10:40:13.000Z</time>
      </trkpt>
      <trkpt lat="49.04551" lon="0.26715">
        <ele>164.2</ele>
        <time>2014-04-03T10:40:21.000Z</time>
      </trkpt>
      <trkpt lat="49.04541" lon="0.26713">
        <ele>163.9</ele>
        <time>2014-04-03T10:40:29.000Z</time>
      </trkpt>
      <trkpt lat="49.04532" lon="0.26712">
        <ele>162.3</ele>
        <time>2014-04-03T10:40:36.000Z</time>
      </trkpt>
      <trkpt lat="49.04523" lon="0.26709">
        <ele>163.6</ele>
        <time>2014-04-03T10:40:42.000Z</time>
      </trkpt>
      <trkpt lat="49.04514" lon="0.26707">
        <ele>162.7</ele>
        <time>2014-04-03T10:40:49.000Z</time>
      </trkpt>
      <trkpt lat="49.04504" lon="0.26702">
        <ele>163</ele>
        <time>2014-04-03T10:40:56.000Z</time>
      </trkpt>
      <trkpt lat="49.04495" lon="0.26699">
        <ele>162.7</ele>
        <time>2014-04-03T10:41:03.000Z</time>
      </trkpt>
      <trkpt lat="49.04476" lon="0.26692">
        <ele>163</ele>
        <time>2014-04-03T10:41:18.000Z</time>
      </trkpt>
      <trkpt lat="49.04467" lon="0.26687">
        <ele>161.5</ele>
        <time>2014-04-03T10:41:27.000Z</time>
      </trkpt>
      <trkpt lat="49.04457" lon="0.26685">
        <ele>160.8</ele>
        <time>2014-04-03T10:41:34.000Z</time>
      </trkpt>
      <trkpt lat="49.04448" lon="0.26681">
        <ele>161.2</ele>
        <time>2014-04-03T10:41:44.000Z</time>
      </trkpt>
      <trkpt lat="49.04438" lon="0.26679">
        <ele>161.1</ele>
        <time>2014-04-03T10:41:52.000Z</time>
      </trkpt>
      <trkpt lat="49.04429" lon="0.26677">
        <ele>161.6</ele>
        <time>2014-04-03T10:41:59.000Z</time>
      </trkpt>
      <trkpt lat="49.04419" lon="0.26675">
        <ele>161.1</ele>
        <time>2014-04-03T10:42:07.000Z</time>
      </trkpt>
      <trkpt lat="49.044" lon="0.26672">
        <ele>160.4</ele>
        <time>2014-04-03T10:42:21.000Z</time>
      </trkpt>
      <trkpt lat="49.04391" lon="0.2667">
        <ele>161.6</ele>
        <time>2014-04-03T10:42:28.000Z</time>
      </trkpt>
      <trkpt lat="49.04382" lon="0.26667">
        <ele>161.9</ele>
        <time>2014-04-03T10:42:35.000Z</time>
      </trkpt>
      <trkpt lat="49.04372" lon="0.26665">
        <ele>161.3</ele>
        <time>2014-04-03T10:42:42.000Z</time>
      </trkpt>
      <trkpt lat="49.04362" lon="0.26662">
        <ele>161.6</ele>
        <time>2014-04-03T10:42:49.000Z</time>
      </trkpt>
      <trkpt lat="49.04352" lon="0.26661">
        <ele>161.7</ele>
        <time>2014-04-03T10:42:57.000Z</time>
      </trkpt>
      <trkpt lat="49.04342" lon="0.26659">
        <ele>161.6</ele>
        <time>2014-04-03T10:43:04.000Z</time>
      </trkpt>
      <trkpt lat="49.04333" lon="0.26657">
        <ele>161.4</ele>
        <time>2014-04-03T10:43:11.000Z</time>
      </trkpt>
      <trkpt lat="49.04315" lon="0.26652">
        <ele>161.9</ele>
        <time>2014-04-03T10:43:24.000Z</time>
      </trkpt>
      <trkpt lat="49.04306" lon="0.26648">
        <ele>162.2</ele>
        <time>2014-04-03T10:43:31.000Z</time>
      </trkpt>
      <trkpt lat="49.04297" lon="0.26645">
        <ele>162.4</ele>
        <time>2014-04-03T10:43:38.000Z</time>
      </trkpt>
      <trkpt lat="49.04287" lon="0.26642">
        <ele>162.4</ele>
        <time>2014-04-03T10:43:45.000Z</time>
      </trkpt>
      <trkpt lat="49.04278" lon="0.26639">
        <ele>162.3</ele>
        <time>2014-04-03T10:43:52.000Z</time>
      </trkpt>
      <trkpt lat="49.04268" lon="0.26635">
        <ele>161.1</ele>
        <time>2014-04-03T10:43:59.000Z</time>
      </trkpt>
      <trkpt lat="49.04259" lon="0.26632">
        <ele>161.3</ele>
        <time>2014-04-03T10:44:06.000Z</time>
      </trkpt>
      <trkpt lat="49.04249" lon="0.2663">
        <ele>161.9</ele>
        <time>2014-04-03T10:44:14.000Z</time>
      </trkpt>
      <trkpt lat="49.0423" lon="0.26623">
        <ele>160.7</ele>
        <time>2014-04-03T10:44:28.000Z</time>
      </trkpt>
      <trkpt lat="49.04221" lon="0.26621">
        <ele>160.9</ele>
        <time>2014-04-03T10:44:34.000Z</time>
      </trkpt>
      <trkpt lat="49.04212" lon="0.26619">
        <ele>161.4</ele>
        <time>2014-04-03T10:44:40.000Z</time>
      </trkpt>
      <trkpt lat="49.04202" lon="0.26614">
        <ele>161.7</ele>
        <time>2014-04-03T10:44:47.000Z</time>
      </trkpt>
      <trkpt lat="49.04193" lon="0.26612">
        <ele>161.9</ele>
        <time>2014-04-03T10:44:54.000Z</time>
      </trkpt>
      <trkpt lat="49.04184" lon="0.2661">
        <ele>161</ele>
        <time>2014-04-03T10:45:01.000Z</time>
      </trkpt>
      <trkpt lat="49.04174" lon="0.26612">
        <ele>162.5</ele>
        <time>2014-04-03T10:45:10.000Z</time>
      </trkpt>
      <trkpt lat="49.04155" lon="0.26609">
        <ele>161.6</ele>
        <time>2014-04-03T10:45:30.000Z</time>
      </trkpt>
      <trkpt lat="49.04145" lon="0.2661">
        <ele>161.8</ele>
        <time>2014-04-03T10:45:39.000Z</time>
      </trkpt>
      <trkpt lat="49.04136" lon="0.2661">
        <ele>162.6</ele>
        <time>2014-04-03T10:45:48.000Z</time>
      </trkpt>
      <trkpt lat="49.04128" lon="0.26617">
        <ele>162.9</ele>
        <time>2014-04-03T10:45:57.000Z</time>
      </trkpt>
      <trkpt lat="49.04122" lon="0.26628">
        <ele>163.2</ele>
        <time>2014-04-03T10:46:05.000Z</time>
      </trkpt>
      <trkpt lat="49.04118" lon="0.26643">
        <ele>163.1</ele>
        <time>2014-04-03T10:46:13.000Z</time>
      </trkpt>
      <trkpt lat="49.04114" lon="0.26656">
        <ele>163.4</ele>
        <time>2014-04-03T10:46:21.000Z</time>
      </trkpt>
      <trkpt lat="49.04111" lon="0.26685">
        <ele>164.8</ele>
        <time>2014-04-03T10:46:35.000Z</time>
      </trkpt>
      <trkpt lat="49.04107" lon="0.26698">
        <ele>164.2</ele>
        <time>2014-04-03T10:46:43.000Z</time>
      </trkpt>
      <trkpt lat="49.04106" lon="0.26712">
        <ele>164.6</ele>
        <time>2014-04-03T10:46:50.000Z</time>
      </trkpt>
      <trkpt lat="49.04104" lon="0.26726">
        <ele>164.8</ele>
        <time>2014-04-03T10:46:57.000Z</time>
      </trkpt>
      <trkpt lat="49.04101" lon="0.2674">
        <ele>165</ele>
        <time>2014-04-03T10:47:05.000Z</time>
      </trkpt>
      <trkpt lat="49.04097" lon="0.26753">
        <ele>165.5</ele>
        <time>2014-04-03T10:47:13.000Z</time>
      </trkpt>
      <trkpt lat="49.04095" lon="0.26768">
        <ele>165.2</ele>
        <time>2014-04-03T10:47:22.000Z</time>
      </trkpt>
      <trkpt lat="49.04088" lon="0.26794">
        <ele>166.8</ele>
        <time>2014-04-03T10:47:41.000Z</time>
      </trkpt>
      <trkpt lat="49.04085" lon="0.26808">
        <ele>167.1</ele>
        <time>2014-04-03T10:47:48.000Z</time>
      </trkpt>
      <trkpt lat="49.04083" lon="0.26822">
        <ele>167.1</ele>
        <time>2014-04-03T10:47:55.000Z</time>
      </trkpt>
      <trkpt lat="49.04081" lon="0.26838">
        <ele>166.5</ele>
        <time>2014-04-03T10:48:02.000Z</time>
      </trkpt>
      <trkpt lat="49.04079" lon="0.26853">
        <ele>167.3</ele>
        <time>2014-04-03T10:48:09.000Z</time>
      </trkpt>
      <trkpt lat="49.04077" lon="0.26867">
        <ele>167.5</ele>
        <time>2014-04-03T10:48:15.000Z</time>
      </trkpt>
      <trkpt lat="49.04073" lon="0.26882">
        <ele>167.7</ele>
        <time>2014-04-03T10:48:23.000Z</time>
      </trkpt>
      <trkpt lat="49.0407" lon="0.26896">
        <ele>167.7</ele>
        <time>2014-04-03T10:48:32.000Z</time>
      </trkpt>
      <trkpt lat="49.04062" lon="0.26924">
        <ele>168.6</ele>
        <time>2014-04-03T10:48:48.000Z</time>
      </trkpt>
      <trkpt lat="49.0406" lon="0.26937">
        <ele>169</ele>
        <time>2014-04-03T10:48:56.000Z</time>
      </trkpt>
      <trkpt lat="49.04059" lon="0.26951">
        <ele>169.6</ele>
        <time>2014-04-03T10:49:04.000Z</time>
      </trkpt>
      <trkpt lat="49.04057" lon="0.26965">
        <ele>169</ele>
        <time>2014-04-03T10:49:11.000Z</time>
      </trkpt>
      <trkpt lat="49.04054" lon="0.2698">
        <ele>168.7</ele>
        <time>2014-04-03T10:49:18.000Z</time>
      </trkpt>
      <trkpt lat="49.04049" lon="0.26994">
        <ele>169.1</ele>
        <time>2014-04-03T10:49:26.000Z</time>
      </trkpt>
      <trkpt lat="49.04046" lon="0.27009">
        <ele>170</ele>
        <time>2014-04-03T10:49:33.000Z</time>
      </trkpt>
      <trkpt lat="49.04043" lon="0.27023">
        <ele>169.9</ele>
        <time>2014-04-03T10:49:40.000Z</time>
      </trkpt>
      <trkpt lat="49.04037" lon="0.2705">
        <ele>170.3</ele>
        <time>2014-04-03T10:49:55.000Z</time>
      </trkpt>
      <trkpt lat="49.04034" lon="0.27065">
        <ele>169.7</ele>
        <time>2014-04-03T10:50:03.000Z</time>
      </trkpt>
      <trkpt lat="49.04031" lon="0.27078">
        <ele>168.9</ele>
        <time>2014-04-03T10:50:10.000Z</time>
      </trkpt>
      <trkpt lat="49.0403" lon="0.27092">
        <ele>170.3</ele>
        <time>2014-04-03T10:50:18.000Z</time>
      </trkpt>
      <trkpt lat="49.04027" lon="0.27106">
        <ele>170.5</ele>
        <time>2014-04-03T10:50:25.000Z</time>
      </trkpt>
      <trkpt lat="49.04024" lon="0.27119">
        <ele>170.8</ele>
        <time>2014-04-03T10:50:31.000Z</time>
      </trkpt>
      <trkpt lat="49.04021" lon="0.27134">
        <ele>170.6</ele>
        <time>2014-04-03T10:50:39.000Z</time>
      </trkpt>
      <trkpt lat="49.04019" lon="0.27147">
        <ele>169.8</ele>
        <time>2014-04-03T10:50:46.000Z</time>
      </trkpt>
      <trkpt lat="49.04014" lon="0.27175">
        <ele>171.5</ele>
        <time>2014-04-03T10:51:02.000Z</time>
      </trkpt>
      <trkpt lat="49.04012" lon="0.27189">
        <ele>172.4</ele>
        <time>2014-04-03T10:51:10.000Z</time>
      </trkpt>
      <trkpt lat="49.04009" lon="0.27204">
        <ele>170.7</ele>
        <time>2014-04-03T10:51:18.000Z</time>
      </trkpt>
      <trkpt lat="49.04006" lon="0.27218">
        <ele>171.4</ele>
        <time>2014-04-03T10:51:27.000Z</time>
      </trkpt>
      <trkpt lat="49.04002" lon="0.27233">
        <ele>172.7</ele>
        <time>2014-04-03T10:51:36.000Z</time>
      </trkpt>
      <trkpt lat="49.04" lon="0.27246">
        <ele>172.1</ele>
        <time>2014-04-03T10:51:43.000Z</time>
      </trkpt>
      <trkpt lat="49.03997" lon="0.2726">
        <ele>171.3</ele>
        <time>2014-04-03T10:51:52.000Z</time>
      </trkpt>
      <trkpt lat="49.03992" lon="0.27288">
        <ele>173.2</ele>
        <time>2014-04-03T10:52:07.000Z</time>
      </trkpt>
      <trkpt lat="49.03989" lon="0.27302">
        <ele>172.6</ele>
        <time>2014-04-03T10:52:14.000Z</time>
      </trkpt>
      <trkpt lat="49.03985" lon="0.27316">
        <ele>173.4</ele>
        <time>2014-04-03T10:52:22.000Z</time>
      </trkpt>
      <trkpt lat="49.03982" lon="0.27331">
        <ele>173.5</ele>
        <time>2014-04-03T10:52:31.000Z</time>
      </trkpt>
      <trkpt lat="49.03979" lon="0.27345">
        <ele>173.8</ele>
        <time>2014-04-03T10:52:40.000Z</time>
      </trkpt>
      <trkpt lat="49.03977" lon="0.27359">
        <ele>173.6</ele>
        <time>2014-04-03T10:52:49.000Z</time>
      </trkpt>
      <trkpt lat="49.03973" lon="0.27402">
        <ele>173.4</ele>
        <time>2014-04-03T10:54:33.000Z</time>
      </trkpt>
      <trkpt lat="49.03967" lon="0.27412">
        <ele>174.1</ele>
        <time>2014-04-03T10:55:13.000Z</time>
      </trkpt>
      <trkpt lat="49.03964" lon="0.27425">
        <ele>174.4</ele>
        <time>2014-04-03T10:55:25.000Z</time>
      </trkpt>
      <trkpt lat="49.0396" lon="0.27439">
        <ele>173.7</ele>
        <time>2014-04-03T10:55:32.000Z</time>
      </trkpt>
      <trkpt lat="49.03954" lon="0.27467">
        <ele>175.1</ele>
        <time>2014-04-03T10:55:49.000Z</time>
      </trkpt>
      <trkpt lat="49.03951" lon="0.27481">
        <ele>175</ele>
        <time>2014-04-03T10:55:58.000Z</time>
      </trkpt>
      <trkpt lat="49.03948" lon="0.27495">
        <ele>175.4</ele>
        <time>2014-04-03T10:56:10.000Z</time>
      </trkpt>
      <trkpt lat="49.03945" lon="0.27509">
        <ele>175</ele>
        <time>2014-04-03T10:56:19.000Z</time>
      </trkpt>
      <trkpt lat="49.03943" lon="0.27524">
        <ele>175.2</ele>
        <time>2014-04-03T10:56:27.000Z</time>
      </trkpt>
      <trkpt lat="49.03941" lon="0.27537">
        <ele>176.1</ele>
        <time>2014-04-03T10:56:34.000Z</time>
      </trkpt>
      <trkpt lat="49.0394" lon="0.27552">
        <ele>175.5</ele>
        <time>2014-04-03T10:56:41.000Z</time>
      </trkpt>
      <trkpt lat="49.03934" lon="0.27581">
        <ele>176.4</ele>
        <time>2014-04-03T10:56:56.000Z</time>
      </trkpt>
      <trkpt lat="49.03931" lon="0.27596">
        <ele>176.6</ele>
        <time>2014-04-03T10:57:04.000Z</time>
      </trkpt>
      <trkpt lat="49.03929" lon="0.2761">
        <ele>176.2</ele>
        <time>2014-04-03T10:57:12.000Z</time>
      </trkpt>
      <trkpt lat="49.03927" lon="0.27623">
        <ele>176.7</ele>
        <time>2014-04-03T10:57:20.000Z</time>
      </trkpt>
      <trkpt lat="49.03923" lon="0.27636">
        <ele>176.4</ele>
        <time>2014-04-03T10:57:28.000Z</time>
      </trkpt>
      <trkpt lat="49.0392" lon="0.2765">
        <ele>176.6</ele>
        <time>2014-04-03T10:57:36.000Z</time>
      </trkpt>
      <trkpt lat="49.03916" lon="0.27663">
        <ele>176.4</ele>
        <time>2014-04-03T10:57:45.000Z</time>
      </trkpt>
      <trkpt lat="49.0391" lon="0.27692">
        <ele>177.4</ele>
        <time>2014-04-03T10:58:03.000Z</time>
      </trkpt>
      <trkpt lat="49.03907" lon="0.27705">
        <ele>177.4</ele>
        <time>2014-04-03T10:58:11.000Z</time>
      </trkpt>
      <trkpt lat="49.03904" lon="0.27718">
        <ele>177.1</ele>
        <time>2014-04-03T10:58:19.000Z</time>
      </trkpt>
      <trkpt lat="49.03903" lon="0.27732">
        <ele>176.7</ele>
        <time>2014-04-03T10:58:29.000Z</time>
      </trkpt>
      <trkpt lat="49.039" lon="0.27747">
        <ele>177.4</ele>
        <time>2014-04-03T10:58:38.000Z</time>
      </trkpt>
      <trkpt lat="49.03899" lon="0.27762">
        <ele>177.5</ele>
        <time>2014-04-03T10:58:45.000Z</time>
      </trkpt>
      <trkpt lat="49.03897" lon="0.27777">
        <ele>176.6</ele>
        <time>2014-04-03T10:58:53.000Z</time>
      </trkpt>
      <trkpt lat="49.03891" lon="0.27804">
        <ele>177.7</ele>
        <time>2014-04-03T10:59:10.000Z</time>
      </trkpt>
      <trkpt lat="49.03886" lon="0.27817">
        <ele>176.7</ele>
        <time>2014-04-03T10:59:20.000Z</time>
      </trkpt>
      <trkpt lat="49.03883" lon="0.27831">
        <ele>176.5</ele>
        <time>2014-04-03T10:59:29.000Z</time>
      </trkpt>
      <trkpt lat="49.03882" lon="0.27846">
        <ele>176.1</ele>
        <time>2014-04-03T10:59:37.000Z</time>
      </trkpt>
      <trkpt lat="49.03881" lon="0.27859">
        <ele>176.6</ele>
        <time>2014-04-03T10:59:44.000Z</time>
      </trkpt>
      <trkpt lat="49.03878" lon="0.27874">
        <ele>176.6</ele>
        <time>2014-04-03T10:59:52.000Z</time>
      </trkpt>
      <trkpt lat="49.03876" lon="0.27887">
        <ele>177.1</ele>
        <time>2014-04-03T10:59:59.000Z</time>
      </trkpt>
      <trkpt lat="49.03871" lon="0.27915">
        <ele>176.2</ele>
        <time>2014-04-03T11:00:15.000Z</time>
      </trkpt>
      <trkpt lat="49.03869" lon="0.27929">
        <ele>176.1</ele>
        <time>2014-04-03T11:00:23.000Z</time>
      </trkpt>
      <trkpt lat="49.03865" lon="0.27943">
        <ele>176.4</ele>
        <time>2014-04-03T11:00:32.000Z</time>
      </trkpt>
      <trkpt lat="49.03861" lon="0.27955">
        <ele>177.4</ele>
        <time>2014-04-03T11:00:41.000Z</time>
      </trkpt>
      <trkpt lat="49.03859" lon="0.27969">
        <ele>177.1</ele>
        <time>2014-04-03T11:00:48.000Z</time>
      </trkpt>
      <trkpt lat="49.03857" lon="0.27984">
        <ele>176.2</ele>
        <time>2014-04-03T11:00:56.000Z</time>
      </trkpt>
      <trkpt lat="49.03854" lon="0.27998">
        <ele>176.7</ele>
        <time>2014-04-03T11:01:04.000Z</time>
      </trkpt>
      <trkpt lat="49.03846" lon="0.28024">
        <ele>175.3</ele>
        <time>2014-04-03T11:01:20.000Z</time>
      </trkpt>
      <trkpt lat="49.03844" lon="0.28039">
        <ele>176.2</ele>
        <time>2014-04-03T11:01:28.000Z</time>
      </trkpt>
      <trkpt lat="49.03842" lon="0.28053">
        <ele>176.4</ele>
        <time>2014-04-03T11:01:40.000Z</time>
      </trkpt>
      <trkpt lat="49.03839" lon="0.28066">
        <ele>176</ele>
        <time>2014-04-03T11:01:53.000Z</time>
      </trkpt>
      <trkpt lat="49.03834" lon="0.28078">
        <ele>176</ele>
        <time>2014-04-03T11:02:00.000Z</time>
      </trkpt>
      <trkpt lat="49.0383" lon="0.28091">
        <ele>176.1</ele>
        <time>2014-04-03T11:02:08.000Z</time>
      </trkpt>
      <trkpt lat="49.03823" lon="0.28117">
        <ele>176.8</ele>
        <time>2014-04-03T11:02:27.000Z</time>
      </trkpt>
      <trkpt lat="49.0382" lon="0.28132">
        <ele>177.2</ele>
        <time>2014-04-03T11:02:37.000Z</time>
      </trkpt>
      <trkpt lat="49.03813" lon="0.28142">
        <ele>177.5</ele>
        <time>2014-04-03T11:02:46.000Z</time>
      </trkpt>
      <trkpt lat="49.03805" lon="0.2815">
        <ele>177.7</ele>
        <time>2014-04-03T11:02:55.000Z</time>
      </trkpt>
      <trkpt lat="49.03796" lon="0.28154">
        <ele>176.9</ele>
        <time>2014-04-03T11:03:04.000Z</time>
      </trkpt>
      <trkpt lat="49.03787" lon="0.2816">
        <ele>177.2</ele>
        <time>2014-04-03T11:03:12.000Z</time>
      </trkpt>
      <trkpt lat="49.03778" lon="0.28168">
        <ele>176.7</ele>
        <time>2014-04-03T11:03:21.000Z</time>
      </trkpt>
      <trkpt lat="49.0376" lon="0.28176">
        <ele>177.6</ele>
        <time>2014-04-03T11:03:37.000Z</time>
      </trkpt>
      <trkpt lat="49.03751" lon="0.2818">
        <ele>177.6</ele>
        <time>2014-04-03T11:03:45.000Z</time>
      </trkpt>
      <trkpt lat="49.03742" lon="0.28185">
        <ele>177.4</ele>
        <time>2014-04-03T11:03:51.000Z</time>
      </trkpt>
      <trkpt lat="49.03732" lon="0.28187">
        <ele>177.5</ele>
        <time>2014-04-03T11:03:58.000Z</time>
      </trkpt>
      <trkpt lat="49.03723" lon="0.28192">
        <ele>177.4</ele>
        <time>2014-04-03T11:04:05.000Z</time>
      </trkpt>
      <trkpt lat="49.03714" lon="0.28196">
        <ele>177.7</ele>
        <time>2014-04-03T11:04:13.000Z</time>
      </trkpt>
      <trkpt lat="49.03705" lon="0.282">
        <ele>177.7</ele>
        <time>2014-04-03T11:04:21.000Z</time>
      </trkpt>
      <trkpt lat="49.03696" lon="0.28204">
        <ele>178.4</ele>
        <time>2014-04-03T11:04:28.000Z</time>
      </trkpt>
      <trkpt lat="49.03677" lon="0.28211">
        <ele>176.8</ele>
        <time>2014-04-03T11:04:41.000Z</time>
      </trkpt>
      <trkpt lat="49.03667" lon="0.28215">
        <ele>176.9</ele>
        <time>2014-04-03T11:04:49.000Z</time>
      </trkpt>
      <trkpt lat="49.03659" lon="0.2822">
        <ele>177.3</ele>
        <time>2014-04-03T11:04:57.000Z</time>
      </trkpt>
      <trkpt lat="49.0365" lon="0.28226">
        <ele>177.9</ele>
        <time>2014-04-03T11:05:05.000Z</time>
      </trkpt>
      <trkpt lat="49.03641" lon="0.28231">
        <ele>177.6</ele>
        <time>2014-04-03T11:05:14.000Z</time>
      </trkpt>
      <trkpt lat="49.03632" lon="0.28235">
        <ele>177.9</ele>
        <time>2014-04-03T11:05:24.000Z</time>
      </trkpt>
      <trkpt lat="49.03614" lon="0.28245">
        <ele>177.4</ele>
        <time>2014-04-03T11:05:42.000Z</time>
      </trkpt>
      <trkpt lat="49.03604" lon="0.28249">
        <ele>177.4</ele>
        <time>2014-04-03T11:05:52.000Z</time>
      </trkpt>
      <trkpt lat="49.03595" lon="0.28253">
        <ele>177.5</ele>
        <time>2014-04-03T11:06:03.000Z</time>
      </trkpt>
      <trkpt lat="49.03588" lon="0.28264">
        <ele>177.9</ele>
        <time>2014-04-03T11:06:21.000Z</time>
      </trkpt>
      <trkpt lat="49.03588" lon="0.28278">
        <ele>178.2</ele>
        <time>2014-04-03T11:06:30.000Z</time>
      </trkpt>
      <trkpt lat="49.03585" lon="0.28307">
        <ele>179.2</ele>
        <time>2014-04-03T11:06:45.000Z</time>
      </trkpt>
      <trkpt lat="49.03584" lon="0.28322">
        <ele>179.3</ele>
        <time>2014-04-03T11:06:53.000Z</time>
      </trkpt>
      <trkpt lat="49.03584" lon="0.28336">
        <ele>178.8</ele>
        <time>2014-04-03T11:07:00.000Z</time>
      </trkpt>
      <trkpt lat="49.03584" lon="0.28351">
        <ele>178.6</ele>
        <time>2014-04-03T11:07:11.000Z</time>
      </trkpt>
      <trkpt lat="49.03583" lon="0.28365">
        <ele>178.8</ele>
        <time>2014-04-03T11:07:18.000Z</time>
      </trkpt>
      <trkpt lat="49.03581" lon="0.2838">
        <ele>179.8</ele>
        <time>2014-04-03T11:07:26.000Z</time>
      </trkpt>
      <trkpt lat="49.03579" lon="0.28394">
        <ele>179.1</ele>
        <time>2014-04-03T11:07:33.000Z</time>
      </trkpt>
      <trkpt lat="49.03573" lon="0.28421">
        <ele>179.7</ele>
        <time>2014-04-03T11:07:47.000Z</time>
      </trkpt>
      <trkpt lat="49.03568" lon="0.28434">
        <ele>179.6</ele>
        <time>2014-04-03T11:07:55.000Z</time>
      </trkpt>
      <trkpt lat="49.03565" lon="0.28449">
        <ele>179</ele>
        <time>2014-04-03T11:08:02.000Z</time>
      </trkpt>
      <trkpt lat="49.03561" lon="0.28463">
        <ele>179.6</ele>
        <time>2014-04-03T11:08:09.000Z</time>
      </trkpt>
      <trkpt lat="49.03558" lon="0.28476">
        <ele>179.3</ele>
        <time>2014-04-03T11:08:16.000Z</time>
      </trkpt>
      <trkpt lat="49.03553" lon="0.28488">
        <ele>178.8</ele>
        <time>2014-04-03T11:08:23.000Z</time>
      </trkpt>
      <trkpt lat="49.03549" lon="0.285">
        <ele>178.9</ele>
        <time>2014-04-03T11:08:30.000Z</time>
      </trkpt>
      <trkpt lat="49.03544" lon="0.28512">
        <ele>179.8</ele>
        <time>2014-04-03T11:08:37.000Z</time>
      </trkpt>
      <trkpt lat="49.03533" lon="0.28536">
        <ele>179.7</ele>
        <time>2014-04-03T11:08:52.000Z</time>
      </trkpt>
      <trkpt lat="49.03528" lon="0.2855">
        <ele>179.7</ele>
        <time>2014-04-03T11:09:00.000Z</time>
      </trkpt>
      <trkpt lat="49.03523" lon="0.28563">
        <ele>180.1</ele>
        <time>2014-04-03T11:09:08.000Z</time>
      </trkpt>
      <trkpt lat="49.03518" lon="0.28576">
        <ele>180</ele>
        <time>2014-04-03T11:09:16.000Z</time>
      </trkpt>
      <trkpt lat="49.03513" lon="0.28587">
        <ele>178.8</ele>
        <time>2014-04-03T11:09:23.000Z</time>
      </trkpt>
      <trkpt lat="49.03508" lon="0.28601">
        <ele>180.1</ele>
        <time>2014-04-03T11:09:30.000Z</time>
      </trkpt>
      <trkpt lat="49.03503" lon="0.28615">
        <ele>179.6</ele>
        <time>2014-04-03T11:09:37.000Z</time>
      </trkpt>
      <trkpt lat="49.03498" lon="0.28628">
        <ele>179.9</ele>
        <time>2014-04-03T11:09:44.000Z</time>
      </trkpt>
      <trkpt lat="49.03488" lon="0.28655">
        <ele>180.2</ele>
        <time>2014-04-03T11:09:58.000Z</time>
      </trkpt>
      <trkpt lat="49.03483" lon="0.28667">
        <ele>181</ele>
        <time>2014-04-03T11:10:06.000Z</time>
      </trkpt>
      <trkpt lat="49.03477" lon="0.28679">
        <ele>180.3</ele>
        <time>2014-04-03T11:10:14.000Z</time>
      </trkpt>
      <trkpt lat="49.03473" lon="0.28692">
        <ele>181.2</ele>
        <time>2014-04-03T11:10:23.000Z</time>
      </trkpt>
      <trkpt lat="49.03467" lon="0.28705">
        <ele>181</ele>
        <time>2014-04-03T11:10:31.000Z</time>
      </trkpt>
      <trkpt lat="49.03462" lon="0.28718">
        <ele>179.8</ele>
        <time>2014-04-03T11:10:39.000Z</time>
      </trkpt>
      <trkpt lat="49.03456" lon="0.2873">
        <ele>180.6</ele>
        <time>2014-04-03T11:10:46.000Z</time>
      </trkpt>
      <trkpt lat="49.03446" lon="0.28755">
        <ele>180.9</ele>
        <time>2014-04-03T11:11:01.000Z</time>
      </trkpt>
      <trkpt lat="49.0344" lon="0.28767">
        <ele>181.7</ele>
        <time>2014-04-03T11:11:09.000Z</time>
      </trkpt>
      <trkpt lat="49.03436" lon="0.28779">
        <ele>181.7</ele>
        <time>2014-04-03T11:11:16.000Z</time>
      </trkpt>
      <trkpt lat="49.03432" lon="0.28792">
        <ele>182.1</ele>
        <time>2014-04-03T11:11:23.000Z</time>
      </trkpt>
      <trkpt lat="49.03427" lon="0.28804">
        <ele>182.2</ele>
        <time>2014-04-03T11:11:30.000Z</time>
      </trkpt>
      <trkpt lat="49.03422" lon="0.28817">
        <ele>181</ele>
        <time>2014-04-03T11:11:38.000Z</time>
      </trkpt>
      <trkpt lat="49.03417" lon="0.28829">
        <ele>180.1</ele>
        <time>2014-04-03T11:11:45.000Z</time>
      </trkpt>
      <trkpt lat="49.03412" lon="0.28841">
        <ele>181.5</ele>
        <time>2014-04-03T11:11:52.000Z</time>
      </trkpt>
      <trkpt lat="49.03402" lon="0.28864">
        <ele>181.4</ele>
        <time>2014-04-03T11:12:06.000Z</time>
      </trkpt>
      <trkpt lat="49.03397" lon="0.28876">
        <ele>181.6</ele>
        <time>2014-04-03T11:12:13.000Z</time>
      </trkpt>
      <trkpt lat="49.03391" lon="0.28887">
        <ele>181.6</ele>
        <time>2014-04-03T11:12:20.000Z</time>
      </trkpt>
      <trkpt lat="49.03386" lon="0.28899">
        <ele>181.6</ele>
        <time>2014-04-03T11:12:27.000Z</time>
      </trkpt>
      <trkpt lat="49.03376" lon="0.28905">
        <ele>181.7</ele>
        <time>2014-04-03T11:12:35.000Z</time>
      </trkpt>
      <trkpt lat="49.03366" lon="0.28907">
        <ele>181.7</ele>
        <time>2014-04-03T11:12:43.000Z</time>
      </trkpt>
      <trkpt lat="49.03357" lon="0.2891">
        <ele>182.1</ele>
        <time>2014-04-03T11:12:51.000Z</time>
      </trkpt>
      <trkpt lat="49.03348" lon="0.28914">
        <ele>181.7</ele>
        <time>2014-04-03T11:12:58.000Z</time>
      </trkpt>
      <trkpt lat="49.03328" lon="0.2892">
        <ele>182.9</ele>
        <time>2014-04-03T11:13:13.000Z</time>
      </trkpt>
      <trkpt lat="49.03319" lon="0.28924">
        <ele>182</ele>
        <time>2014-04-03T11:13:20.000Z</time>
      </trkpt>
      <trkpt lat="49.03309" lon="0.28927">
        <ele>182</ele>
        <time>2014-04-03T11:13:28.000Z</time>
      </trkpt>
      <trkpt lat="49.03299" lon="0.28928">
        <ele>182.3</ele>
        <time>2014-04-03T11:13:36.000Z</time>
      </trkpt>
      <trkpt lat="49.03285" lon="0.28909">
        <ele>181.9</ele>
        <time>2014-04-03T11:14:14.000Z</time>
      </trkpt>
      <trkpt lat="49.03279" lon="0.28897">
        <ele>181.4</ele>
        <time>2014-04-03T11:14:22.000Z</time>
      </trkpt>
      <trkpt lat="49.03273" lon="0.28886">
        <ele>181.2</ele>
        <time>2014-04-03T11:14:31.000Z</time>
      </trkpt>
      <trkpt lat="49.03268" lon="0.28874">
        <ele>181.7</ele>
        <time>2014-04-03T11:14:39.000Z</time>
      </trkpt>
      <trkpt lat="49.03261" lon="0.28863">
        <ele>181.2</ele>
        <time>2014-04-03T11:14:47.000Z</time>
      </trkpt>
      <trkpt lat="49.03256" lon="0.2885">
        <ele>182.1</ele>
        <time>2014-04-03T11:14:55.000Z</time>
      </trkpt>
      <trkpt lat="49.0325" lon="0.28839">
        <ele>181.9</ele>
        <time>2014-04-03T11:15:02.000Z</time>
      </trkpt>
      <trkpt lat="49.0324" lon="0.28812">
        <ele>181.5</ele>
        <time>2014-04-03T11:15:17.000Z</time>
      </trkpt>
      <trkpt lat="49.03236" lon="0.28798">
        <ele>181.1</ele>
        <time>2014-04-03T11:15:24.000Z</time>
      </trkpt>
      <trkpt lat="49.0323" lon="0.28786">
        <ele>181</ele>
        <time>2014-04-03T11:15:32.000Z</time>
      </trkpt>
      <trkpt lat="49.03223" lon="0.28775">
        <ele>181.2</ele>
        <time>2014-04-03T11:15:41.000Z</time>
      </trkpt>
      <trkpt lat="49.03218" lon="0.28763">
        <ele>180.7</ele>
        <time>2014-04-03T11:15:49.000Z</time>
      </trkpt>
      <trkpt lat="49.03213" lon="0.28752">
        <ele>180.8</ele>
        <time>2014-04-03T11:15:57.000Z</time>
      </trkpt>
      <trkpt lat="49.03208" lon="0.28739">
        <ele>181.2</ele>
        <time>2014-04-03T11:16:06.000Z</time>
      </trkpt>
      <trkpt lat="49.03198" lon="0.28716">
        <ele>181.2</ele>
        <time>2014-04-03T11:16:21.000Z</time>
      </trkpt>
      <trkpt lat="49.03192" lon="0.28705">
        <ele>180.8</ele>
        <time>2014-04-03T11:16:29.000Z</time>
      </trkpt>
      <trkpt lat="49.03184" lon="0.28696">
        <ele>180.9</ele>
        <time>2014-04-03T11:16:39.000Z</time>
      </trkpt>
      <trkpt lat="49.03178" lon="0.28685">
        <ele>181</ele>
        <time>2014-04-03T11:16:49.000Z</time>
      </trkpt>
      <trkpt lat="49.03171" lon="0.28674">
        <ele>181.3</ele>
        <time>2014-04-03T11:16:56.000Z</time>
      </trkpt>
      <trkpt lat="49.03166" lon="0.28662">
        <ele>181</ele>
        <time>2014-04-03T11:17:04.000Z</time>
      </trkpt>
      <trkpt lat="49.03162" lon="0.28649">
        <ele>181</ele>
        <time>2014-04-03T11:17:11.000Z</time>
      </trkpt>
      <trkpt lat="49.0315" lon="0.28626">
        <ele>181.6</ele>
        <time>2014-04-03T11:17:25.000Z</time>
      </trkpt>
      <trkpt lat="49.03145" lon="0.28613">
        <ele>182.4</ele>
        <time>2014-04-03T11:17:33.000Z</time>
      </trkpt>
      <trkpt lat="49.0314" lon="0.28601">
        <ele>181.9</ele>
        <time>2014-04-03T11:17:42.000Z</time>
      </trkpt>
      <trkpt lat="49.03135" lon="0.28588">
        <ele>182.1</ele>
        <time>2014-04-03T11:17:53.000Z</time>
      </trkpt>
      <trkpt lat="49.0313" lon="0.28576">
        <ele>181.3</ele>
        <time>2014-04-03T11:18:03.000Z</time>
      </trkpt>
      <trkpt lat="49.03124" lon="0.28564">
        <ele>182</ele>
        <time>2014-04-03T11:18:15.000Z</time>
      </trkpt>
      <trkpt lat="49.03112" lon="0.28542">
        <ele>182</ele>
        <time>2014-04-03T11:18:33.000Z</time>
      </trkpt>
      <trkpt lat="49.03108" lon="0.28529">
        <ele>182.6</ele>
        <time>2014-04-03T11:18:41.000Z</time>
      </trkpt>
      <trkpt lat="49.03102" lon="0.28518">
        <ele>181.9</ele>
        <time>2014-04-03T11:18:50.000Z</time>
      </trkpt>
      <trkpt lat="49.03099" lon="0.28505">
        <ele>182.5</ele>
        <time>2014-04-03T11:19:01.000Z</time>
      </trkpt>
      <trkpt lat="49.03096" lon="0.28492">
        <ele>182.1</ele>
        <time>2014-04-03T11:19:13.000Z</time>
      </trkpt>
      <trkpt lat="49.03077" lon="0.28446">
        <ele>184.1</ele>
        <time>2014-04-03T11:33:53.000Z</time>
      </trkpt>
      <trkpt lat="49.03082" lon="0.28458">
        <ele>184.6</ele>
        <time>2014-04-03T11:34:37.000Z</time>
      </trkpt>
      <trkpt lat="49.0307" lon="0.28437">
        <ele>185</ele>
        <time>2014-04-03T11:35:02.000Z</time>
      </trkpt>
      <trkpt lat="49.03065" lon="0.28423">
        <ele>184.5</ele>
        <time>2014-04-03T11:35:11.000Z</time>
      </trkpt>
      <trkpt lat="49.03062" lon="0.2841">
        <ele>184.9</ele>
        <time>2014-04-03T11:35:20.000Z</time>
      </trkpt>
      <trkpt lat="49.0306" lon="0.28395">
        <ele>184.3</ele>
        <time>2014-04-03T11:35:29.000Z</time>
      </trkpt>
      <trkpt lat="49.03057" lon="0.28382">
        <ele>183.9</ele>
        <time>2014-04-03T11:35:37.000Z</time>
      </trkpt>
      <trkpt lat="49.03057" lon="0.28368">
        <ele>183.7</ele>
        <time>2014-04-03T11:35:46.000Z</time>
      </trkpt>
      <trkpt lat="49.03055" lon="0.28354">
        <ele>184.6</ele>
        <time>2014-04-03T11:35:55.000Z</time>
      </trkpt>
      <trkpt lat="49.03054" lon="0.28326">
        <ele>183.9</ele>
        <time>2014-04-03T11:36:13.000Z</time>
      </trkpt>
      <trkpt lat="49.03051" lon="0.28311">
        <ele>184.4</ele>
        <time>2014-04-03T11:36:24.000Z</time>
      </trkpt>
      <trkpt lat="49.03053" lon="0.28297">
        <ele>184.2</ele>
        <time>2014-04-03T11:36:34.000Z</time>
      </trkpt>
      <trkpt lat="49.03052" lon="0.28283">
        <ele>183.8</ele>
        <time>2014-04-03T11:36:43.000Z</time>
      </trkpt>
      <trkpt lat="49.03052" lon="0.28269">
        <ele>184.3</ele>
        <time>2014-04-03T11:36:51.000Z</time>
      </trkpt>
      <trkpt lat="49.03051" lon="0.28255">
        <ele>183.1</ele>
        <time>2014-04-03T11:36:58.000Z</time>
      </trkpt>
      <trkpt lat="49.03049" lon="0.28227">
        <ele>182.8</ele>
        <time>2014-04-03T11:37:14.000Z</time>
      </trkpt>
      <trkpt lat="49.03047" lon="0.28213">
        <ele>183.9</ele>
        <time>2014-04-03T11:37:21.000Z</time>
      </trkpt>
      <trkpt lat="49.03044" lon="0.28199">
        <ele>182.8</ele>
        <time>2014-04-03T11:37:29.000Z</time>
      </trkpt>
      <trkpt lat="49.03042" lon="0.28185">
        <ele>183.3</ele>
        <time>2014-04-03T11:37:38.000Z</time>
      </trkpt>
      <trkpt lat="49.03037" lon="0.28173">
        <ele>182.9</ele>
        <time>2014-04-03T11:37:50.000Z</time>
      </trkpt>
      <trkpt lat="49.03029" lon="0.28163">
        <ele>182.7</ele>
        <time>2014-04-03T11:37:59.000Z</time>
      </trkpt>
      <trkpt lat="49.03013" lon="0.28146">
        <ele>183.3</ele>
        <time>2014-04-03T11:38:20.000Z</time>
      </trkpt>
      <trkpt lat="49.03004" lon="0.28142">
        <ele>184.1</ele>
        <time>2014-04-03T11:39:16.000Z</time>
      </trkpt>
      <trkpt lat="49.02998" lon="0.28171">
        <ele>183.8</ele>
        <time>2014-04-03T11:39:32.000Z</time>
      </trkpt>
      <trkpt lat="49.02997" lon="0.28186">
        <ele>183.8</ele>
        <time>2014-04-03T11:39:39.000Z</time>
      </trkpt>
      <trkpt lat="49.02997" lon="0.282">
        <ele>182.9</ele>
        <time>2014-04-03T11:39:46.000Z</time>
      </trkpt>
      <trkpt lat="49.02996" lon="0.28216">
        <ele>182.5</ele>
        <time>2014-04-03T11:39:53.000Z</time>
      </trkpt>
      <trkpt lat="49.02995" lon="0.2823">
        <ele>185.4</ele>
        <time>2014-04-03T11:40:00.000Z</time>
      </trkpt>
      <trkpt lat="49.02996" lon="0.28244">
        <ele>184.5</ele>
        <time>2014-04-03T11:40:06.000Z</time>
      </trkpt>
      <trkpt lat="49.02993" lon="0.28259">
        <ele>183.5</ele>
        <time>2014-04-03T11:40:13.000Z</time>
      </trkpt>
      <trkpt lat="49.02992" lon="0.28273">
        <ele>184.2</ele>
        <time>2014-04-03T11:40:20.000Z</time>
      </trkpt>
      <trkpt lat="49.02986" lon="0.28299">
        <ele>184.1</ele>
        <time>2014-04-03T11:40:35.000Z</time>
      </trkpt>
      <trkpt lat="49.02983" lon="0.28313">
        <ele>185</ele>
        <time>2014-04-03T11:40:45.000Z</time>
      </trkpt>
      <trkpt lat="49.02982" lon="0.28328">
        <ele>184.3</ele>
        <time>2014-04-03T11:40:53.000Z</time>
      </trkpt>
      <trkpt lat="49.0298" lon="0.28341">
        <ele>185.4</ele>
        <time>2014-04-03T11:41:00.000Z</time>
      </trkpt>
      <trkpt lat="49.02978" lon="0.28356">
        <ele>185.7</ele>
        <time>2014-04-03T11:41:07.000Z</time>
      </trkpt>
      <trkpt lat="49.02978" lon="0.2837">
        <ele>185.2</ele>
        <time>2014-04-03T11:41:12.000Z</time>
      </trkpt>
      <trkpt lat="49.02977" lon="0.28383">
        <ele>185</ele>
        <time>2014-04-03T11:41:18.000Z</time>
      </trkpt>
      <trkpt lat="49.02975" lon="0.28399">
        <ele>185.3</ele>
        <time>2014-04-03T11:41:25.000Z</time>
      </trkpt>
      <trkpt lat="49.02968" lon="0.28428">
        <ele>186</ele>
        <time>2014-04-03T11:41:41.000Z</time>
      </trkpt>
      <trkpt lat="49.02967" lon="0.28443">
        <ele>185.6</ele>
        <time>2014-04-03T11:41:48.000Z</time>
      </trkpt>
      <trkpt lat="49.02965" lon="0.28458">
        <ele>186</ele>
        <time>2014-04-03T11:41:58.000Z</time>
      </trkpt>
      <trkpt lat="49.02963" lon="0.28472">
        <ele>185.5</ele>
        <time>2014-04-03T11:42:08.000Z</time>
      </trkpt>
      <trkpt lat="49.02961" lon="0.28485">
        <ele>186.1</ele>
        <time>2014-04-03T11:42:18.000Z</time>
      </trkpt>
      <trkpt lat="49.02958" lon="0.285">
        <ele>185.7</ele>
        <time>2014-04-03T11:42:26.000Z</time>
      </trkpt>
      <trkpt lat="49.02955" lon="0.28528">
        <ele>185.6</ele>
        <time>2014-04-03T11:42:42.000Z</time>
      </trkpt>
      <trkpt lat="49.02957" lon="0.28543">
        <ele>185.1</ele>
        <time>2014-04-03T11:42:50.000Z</time>
      </trkpt>
      <trkpt lat="49.02959" lon="0.28556">
        <ele>185.3</ele>
        <time>2014-04-03T11:42:59.000Z</time>
      </trkpt>
      <trkpt lat="49.02958" lon="0.28571">
        <ele>185.8</ele>
        <time>2014-04-03T11:43:08.000Z</time>
      </trkpt>
      <trkpt lat="49.02956" lon="0.28586">
        <ele>185.6</ele>
        <time>2014-04-03T11:43:16.000Z</time>
      </trkpt>
      <trkpt lat="49.02954" lon="0.286">
        <ele>185.8</ele>
        <time>2014-04-03T11:43:24.000Z</time>
      </trkpt>
      <trkpt lat="49.02952" lon="0.28614">
        <ele>186</ele>
        <time>2014-04-03T11:43:32.000Z</time>
      </trkpt>
      <trkpt lat="49.0295" lon="0.28642">
        <ele>185.9</ele>
        <time>2014-04-03T11:43:46.000Z</time>
      </trkpt>
      <trkpt lat="49.02949" lon="0.28656">
        <ele>186.1</ele>
        <time>2014-04-03T11:43:53.000Z</time>
      </trkpt>
      <trkpt lat="49.02945" lon="0.2867">
        <ele>185.7</ele>
        <time>2014-04-03T11:44:01.000Z</time>
      </trkpt>
      <trkpt lat="49.02944" lon="0.28684">
        <ele>186</ele>
        <time>2014-04-03T11:44:09.000Z</time>
      </trkpt>
      <trkpt lat="49.02943" lon="0.28698">
        <ele>186.3</ele>
        <time>2014-04-03T11:44:16.000Z</time>
      </trkpt>
      <trkpt lat="49.02941" lon="0.28712">
        <ele>186.5</ele>
        <time>2014-04-03T11:44:25.000Z</time>
      </trkpt>
      <trkpt lat="49.02939" lon="0.28727">
        <ele>186.1</ele>
        <time>2014-04-03T11:44:35.000Z</time>
      </trkpt>
      <trkpt lat="49.02933" lon="0.28755">
        <ele>187.6</ele>
        <time>2014-04-03T11:44:52.000Z</time>
      </trkpt>
      <trkpt lat="49.02931" lon="0.28769">
        <ele>187.5</ele>
        <time>2014-04-03T11:45:00.000Z</time>
      </trkpt>
      <trkpt lat="49.0293" lon="0.28783">
        <ele>186.5</ele>
        <time>2014-04-03T11:45:08.000Z</time>
      </trkpt>
      <trkpt lat="49.0293" lon="0.28798">
        <ele>187.1</ele>
        <time>2014-04-03T11:45:15.000Z</time>
      </trkpt>
      <trkpt lat="49.02926" lon="0.28812">
        <ele>187.7</ele>
        <time>2014-04-03T11:45:24.000Z</time>
      </trkpt>
      <trkpt lat="49.02923" lon="0.28826">
        <ele>187.4</ele>
        <time>2014-04-03T11:45:32.000Z</time>
      </trkpt>
      <trkpt lat="49.02922" lon="0.2884">
        <ele>188.1</ele>
        <time>2014-04-03T11:45:39.000Z</time>
      </trkpt>
      <trkpt lat="49.02919" lon="0.28868">
        <ele>188</ele>
        <time>2014-04-03T11:45:54.000Z</time>
      </trkpt>
      <trkpt lat="49.02918" lon="0.28883">
        <ele>187.4</ele>
        <time>2014-04-03T11:46:02.000Z</time>
      </trkpt>
      <trkpt lat="49.02916" lon="0.28898">
        <ele>187.4</ele>
        <time>2014-04-03T11:46:10.000Z</time>
      </trkpt>
      <trkpt lat="49.02914" lon="0.28911">
        <ele>188.2</ele>
        <time>2014-04-03T11:46:19.000Z</time>
      </trkpt>
      <trkpt lat="49.0291" lon="0.28925">
        <ele>189</ele>
        <time>2014-04-03T11:46:29.000Z</time>
      </trkpt>
      <trkpt lat="49.02909" lon="0.2894">
        <ele>188.2</ele>
        <time>2014-04-03T11:46:37.000Z</time>
      </trkpt>
      <trkpt lat="49.02908" lon="0.28955">
        <ele>188.8</ele>
        <time>2014-04-03T11:46:45.000Z</time>
      </trkpt>
      <trkpt lat="49.02906" lon="0.28985">
        <ele>189.1</ele>
        <time>2014-04-03T11:47:02.000Z</time>
      </trkpt>
      <trkpt lat="49.02905" lon="0.29">
        <ele>188.9</ele>
        <time>2014-04-03T11:47:10.000Z</time>
      </trkpt>
      <trkpt lat="49.02901" lon="0.29014">
        <ele>187.7</ele>
        <time>2014-04-03T11:47:20.000Z</time>
      </trkpt>
      <trkpt lat="49.02896" lon="0.29026">
        <ele>188.2</ele>
        <time>2014-04-03T11:47:31.000Z</time>
      </trkpt>
      <trkpt lat="49.02888" lon="0.29032">
        <ele>187.8</ele>
        <time>2014-04-03T11:47:45.000Z</time>
      </trkpt>
      <trkpt lat="49.02879" lon="0.29029">
        <ele>188.6</ele>
        <time>2014-04-03T11:47:53.000Z</time>
      </trkpt>
      <trkpt lat="49.02861" lon="0.29015">
        <ele>188.6</ele>
        <time>2014-04-03T11:48:07.000Z</time>
      </trkpt>
      <trkpt lat="49.02853" lon="0.29006">
        <ele>189.2</ele>
        <time>2014-04-03T11:48:15.000Z</time>
      </trkpt>
      <trkpt lat="49.02845" lon="0.28998">
        <ele>187.5</ele>
        <time>2014-04-03T11:48:23.000Z</time>
      </trkpt>
      <trkpt lat="49.02837" lon="0.28989">
        <ele>187.5</ele>
        <time>2014-04-03T11:48:31.000Z</time>
      </trkpt>
      <trkpt lat="49.0283" lon="0.28981">
        <ele>187.6</ele>
        <time>2014-04-03T11:48:37.000Z</time>
      </trkpt>
      <trkpt lat="49.02822" lon="0.2897">
        <ele>188.1</ele>
        <time>2014-04-03T11:48:45.000Z</time>
      </trkpt>
      <trkpt lat="49.02815" lon="0.28961">
        <ele>187.9</ele>
        <time>2014-04-03T11:48:51.000Z</time>
      </trkpt>
      <trkpt lat="49.02807" lon="0.28952">
        <ele>187.1</ele>
        <time>2014-04-03T11:48:58.000Z</time>
      </trkpt>
      <trkpt lat="49.0279" lon="0.28934">
        <ele>187.6</ele>
        <time>2014-04-03T11:49:14.000Z</time>
      </trkpt>
      <trkpt lat="49.02782" lon="0.28926">
        <ele>188.5</ele>
        <time>2014-04-03T11:49:21.000Z</time>
      </trkpt>
      <trkpt lat="49.02772" lon="0.28921">
        <ele>187</ele>
        <time>2014-04-03T11:49:28.000Z</time>
      </trkpt>
      <trkpt lat="49.02763" lon="0.28916">
        <ele>187</ele>
        <time>2014-04-03T11:49:35.000Z</time>
      </trkpt>
      <trkpt lat="49.02754" lon="0.28912">
        <ele>186.9</ele>
        <time>2014-04-03T11:49:46.000Z</time>
      </trkpt>
      <trkpt lat="49.02745" lon="0.28908">
        <ele>187.4</ele>
        <time>2014-04-03T11:49:55.000Z</time>
      </trkpt>
      <trkpt lat="49.02735" lon="0.28908">
        <ele>186.6</ele>
        <time>2014-04-03T11:50:04.000Z</time>
      </trkpt>
      <trkpt lat="49.02715" lon="0.28906">
        <ele>188</ele>
        <time>2014-04-03T11:50:18.000Z</time>
      </trkpt>
      <trkpt lat="49.02706" lon="0.28903">
        <ele>187.3</ele>
        <time>2014-04-03T11:50:25.000Z</time>
      </trkpt>
      <trkpt lat="49.02697" lon="0.28901">
        <ele>186.9</ele>
        <time>2014-04-03T11:50:33.000Z</time>
      </trkpt>
      <trkpt lat="49.02688" lon="0.28901">
        <ele>186</ele>
        <time>2014-04-03T11:50:42.000Z</time>
      </trkpt>
      <trkpt lat="49.02678" lon="0.28903">
        <ele>186.5</ele>
        <time>2014-04-03T11:50:49.000Z</time>
      </trkpt>
      <trkpt lat="49.02669" lon="0.28908">
        <ele>186.3</ele>
        <time>2014-04-03T11:50:56.000Z</time>
      </trkpt>
      <trkpt lat="49.0266" lon="0.28913">
        <ele>186.5</ele>
        <time>2014-04-03T11:51:02.000Z</time>
      </trkpt>
      <trkpt lat="49.02652" lon="0.2892">
        <ele>186.4</ele>
        <time>2014-04-03T11:51:09.000Z</time>
      </trkpt>
      <trkpt lat="49.02635" lon="0.28934">
        <ele>186.6</ele>
        <time>2014-04-03T11:51:24.000Z</time>
      </trkpt>
      <trkpt lat="49.02626" lon="0.28941">
        <ele>186.4</ele>
        <time>2014-04-03T11:51:31.000Z</time>
      </trkpt>
      <trkpt lat="49.02617" lon="0.28948">
        <ele>186.3</ele>
        <time>2014-04-03T11:51:39.000Z</time>
      </trkpt>
      <trkpt lat="49.02609" lon="0.28955">
        <ele>186.9</ele>
        <time>2014-04-03T11:51:46.000Z</time>
      </trkpt>
      <trkpt lat="49.02599" lon="0.2896">
        <ele>187.9</ele>
        <time>2014-04-03T11:51:54.000Z</time>
      </trkpt>
      <trkpt lat="49.02589" lon="0.28966">
        <ele>187.8</ele>
        <time>2014-04-03T11:52:01.000Z</time>
      </trkpt>
      <trkpt lat="49.0258" lon="0.2897">
        <ele>187.4</ele>
        <time>2014-04-03T11:52:08.000Z</time>
      </trkpt>
      <trkpt lat="49.02571" lon="0.28975">
        <ele>186.7</ele>
        <time>2014-04-03T11:52:15.000Z</time>
      </trkpt>
      <trkpt lat="49.02553" lon="0.28984">
        <ele>188.2</ele>
        <time>2014-04-03T11:52:28.000Z</time>
      </trkpt>
      <trkpt lat="49.02544" lon="0.28991">
        <ele>187.8</ele>
        <time>2014-04-03T11:52:37.000Z</time>
      </trkpt>
      <trkpt lat="49.02534" lon="0.28997">
        <ele>187.3</ele>
        <time>2014-04-03T11:52:46.000Z</time>
      </trkpt>
      <trkpt lat="49.02525" lon="0.29002">
        <ele>188.4</ele>
        <time>2014-04-03T11:52:54.000Z</time>
      </trkpt>
      <trkpt lat="49.02516" lon="0.29008">
        <ele>188.9</ele>
        <time>2014-04-03T11:53:01.000Z</time>
      </trkpt>
      <trkpt lat="49.02507" lon="0.29015">
        <ele>188.6</ele>
        <time>2014-04-03T11:53:08.000Z</time>
      </trkpt>
      <trkpt lat="49.02499" lon="0.29022">
        <ele>188.8</ele>
        <time>2014-04-03T11:53:16.000Z</time>
      </trkpt>
      <trkpt lat="49.0248" lon="0.29031">
        <ele>186.8</ele>
        <time>2014-04-03T11:53:32.000Z</time>
      </trkpt>
      <trkpt lat="49.0247" lon="0.29033">
        <ele>188.1</ele>
        <time>2014-04-03T11:53:40.000Z</time>
      </trkpt>
      <trkpt lat="49.02461" lon="0.29035">
        <ele>187.4</ele>
        <time>2014-04-03T11:53:49.000Z</time>
      </trkpt>
      <trkpt lat="49.02452" lon="0.29039">
        <ele>187.2</ele>
        <time>2014-04-03T11:53:57.000Z</time>
      </trkpt>
      <trkpt lat="49.02443" lon="0.29042">
        <ele>187.4</ele>
        <time>2014-04-03T11:54:04.000Z</time>
      </trkpt>
      <trkpt lat="49.02434" lon="0.29045">
        <ele>187.8</ele>
        <time>2014-04-03T11:54:12.000Z</time>
      </trkpt>
      <trkpt lat="49.02424" lon="0.29048">
        <ele>188.5</ele>
        <time>2014-04-03T11:54:19.000Z</time>
      </trkpt>
      <trkpt lat="49.02415" lon="0.29051">
        <ele>189</ele>
        <time>2014-04-03T11:54:25.000Z</time>
      </trkpt>
      <trkpt lat="49.02397" lon="0.29057">
        <ele>188.1</ele>
        <time>2014-04-03T11:54:41.000Z</time>
      </trkpt>
      <trkpt lat="49.02387" lon="0.2906">
        <ele>188.4</ele>
        <time>2014-04-03T11:54:49.000Z</time>
      </trkpt>
      <trkpt lat="49.02377" lon="0.29063">
        <ele>188.9</ele>
        <time>2014-04-03T11:54:57.000Z</time>
      </trkpt>
      <trkpt lat="49.02367" lon="0.29066">
        <ele>189.2</ele>
        <time>2014-04-03T11:55:05.000Z</time>
      </trkpt>
      <trkpt lat="49.02358" lon="0.29068">
        <ele>188.9</ele>
        <time>2014-04-03T11:55:13.000Z</time>
      </trkpt>
      <trkpt lat="49.02349" lon="0.29069">
        <ele>188.6</ele>
        <time>2014-04-03T11:55:21.000Z</time>
      </trkpt>
      <trkpt lat="49.02339" lon="0.2907">
        <ele>188.2</ele>
        <time>2014-04-03T11:55:29.000Z</time>
      </trkpt>
      <trkpt lat="49.02321" lon="0.29068">
        <ele>189.5</ele>
        <time>2014-04-03T11:55:45.000Z</time>
      </trkpt>
      <trkpt lat="49.02311" lon="0.29073">
        <ele>189.3</ele>
        <time>2014-04-03T11:55:54.000Z</time>
      </trkpt>
      <trkpt lat="49.02306" lon="0.29086">
        <ele>188.6</ele>
        <time>2014-04-03T11:56:03.000Z</time>
      </trkpt>
      <trkpt lat="49.02307" lon="0.29102">
        <ele>188.9</ele>
        <time>2014-04-03T11:56:11.000Z</time>
      </trkpt>
      <trkpt lat="49.02308" lon="0.29116">
        <ele>189.5</ele>
        <time>2014-04-03T11:56:18.000Z</time>
      </trkpt>
      <trkpt lat="49.0231" lon="0.29131">
        <ele>189.5</ele>
        <time>2014-04-03T11:56:26.000Z</time>
      </trkpt>
      <trkpt lat="49.0231" lon="0.29146">
        <ele>189.1</ele>
        <time>2014-04-03T11:56:33.000Z</time>
      </trkpt>
      <trkpt lat="49.02311" lon="0.29161">
        <ele>189.3</ele>
        <time>2014-04-03T11:56:40.000Z</time>
      </trkpt>
      <trkpt lat="49.02311" lon="0.2919">
        <ele>190.4</ele>
        <time>2014-04-03T11:56:53.000Z</time>
      </trkpt>
      <trkpt lat="49.02312" lon="0.29204">
        <ele>190.5</ele>
        <time>2014-04-03T11:56:59.000Z</time>
      </trkpt>
      <trkpt lat="49.02313" lon="0.29218">
        <ele>189.3</ele>
        <time>2014-04-03T11:57:06.000Z</time>
      </trkpt>
      <trkpt lat="49.02314" lon="0.29233">
        <ele>189.2</ele>
        <time>2014-04-03T11:57:12.000Z</time>
      </trkpt>
      <trkpt lat="49.02313" lon="0.29246">
        <ele>189.7</ele>
        <time>2014-04-03T11:57:19.000Z</time>
      </trkpt>
      <trkpt lat="49.02314" lon="0.2926">
        <ele>189.8</ele>
        <time>2014-04-03T11:57:27.000Z</time>
      </trkpt>
      <trkpt lat="49.02313" lon="0.29275">
        <ele>190.9</ele>
        <time>2014-04-03T11:57:34.000Z</time>
      </trkpt>
      <trkpt lat="49.02313" lon="0.2929">
        <ele>190.4</ele>
        <time>2014-04-03T11:57:40.000Z</time>
      </trkpt>
      <trkpt lat="49.02308" lon="0.29318">
        <ele>190.2</ele>
        <time>2014-04-03T11:57:55.000Z</time>
      </trkpt>
      <trkpt lat="49.02304" lon="0.29332">
        <ele>190.4</ele>
        <time>2014-04-03T11:58:04.000Z</time>
      </trkpt>
      <trkpt lat="49.02304" lon="0.29347">
        <ele>190.4</ele>
        <time>2014-04-03T11:58:12.000Z</time>
      </trkpt>
      <trkpt lat="49.02302" lon="0.29361">
        <ele>191.6</ele>
        <time>2014-04-03T11:58:23.000Z</time>
      </trkpt>
      <trkpt lat="49.02301" lon="0.29375">
        <ele>191.7</ele>
        <time>2014-04-03T11:58:33.000Z</time>
      </trkpt>
      <trkpt lat="49.02303" lon="0.29404">
        <ele>190.6</ele>
        <time>2014-04-03T11:59:03.000Z</time>
      </trkpt>
      <trkpt lat="49.02304" lon="0.29417">
        <ele>190.9</ele>
        <time>2014-04-03T11:59:24.000Z</time>
      </trkpt>
      <trkpt lat="49.02302" lon="0.29431">
        <ele>191.7</ele>
        <time>2014-04-03T11:59:34.000Z</time>
      </trkpt>
      <trkpt lat="49.023" lon="0.29445">
        <ele>190.6</ele>
        <time>2014-04-03T11:59:41.000Z</time>
      </trkpt>
      <trkpt lat="49.02298" lon="0.29458">
        <ele>190.4</ele>
        <time>2014-04-03T11:59:50.000Z</time>
      </trkpt>
      <trkpt lat="49.02293" lon="0.29487">
        <ele>190.6</ele>
        <time>2014-04-03T12:00:05.000Z</time>
      </trkpt>
      <trkpt lat="49.02291" lon="0.29502">
        <ele>191.4</ele>
        <time>2014-04-03T12:00:15.000Z</time>
      </trkpt>
      <trkpt lat="49.0229" lon="0.29517">
        <ele>192</ele>
        <time>2014-04-03T12:00:23.000Z</time>
      </trkpt>
      <trkpt lat="49.02288" lon="0.2953">
        <ele>191.7</ele>
        <time>2014-04-03T12:00:31.000Z</time>
      </trkpt>
      <trkpt lat="49.02286" lon="0.29545">
        <ele>192.5</ele>
        <time>2014-04-03T12:00:39.000Z</time>
      </trkpt>
      <trkpt lat="49.02285" lon="0.2956">
        <ele>192.2</ele>
        <time>2014-04-03T12:00:47.000Z</time>
      </trkpt>
      <trkpt lat="49.02283" lon="0.29574">
        <ele>192.9</ele>
        <time>2014-04-03T12:00:55.000Z</time>
      </trkpt>
      <trkpt lat="49.02279" lon="0.29603">
        <ele>191.7</ele>
        <time>2014-04-03T12:01:13.000Z</time>
      </trkpt>
      <trkpt lat="49.02278" lon="0.29618">
        <ele>192.2</ele>
        <time>2014-04-03T12:01:21.000Z</time>
      </trkpt>
      <trkpt lat="49.02276" lon="0.29632">
        <ele>192.9</ele>
        <time>2014-04-03T12:01:28.000Z</time>
      </trkpt>
      <trkpt lat="49.02274" lon="0.29646">
        <ele>192.4</ele>
        <time>2014-04-03T12:01:35.000Z</time>
      </trkpt>
      <trkpt lat="49.02271" lon="0.29661">
        <ele>191.7</ele>
        <time>2014-04-03T12:01:43.000Z</time>
      </trkpt>
      <trkpt lat="49.02269" lon="0.29676">
        <ele>192.1</ele>
        <time>2014-04-03T12:01:51.000Z</time>
      </trkpt>
      <trkpt lat="49.02268" lon="0.2969">
        <ele>191.6</ele>
        <time>2014-04-03T12:01:59.000Z</time>
      </trkpt>
      <trkpt lat="49.02262" lon="0.2972">
        <ele>191.6</ele>
        <time>2014-04-03T12:02:16.000Z</time>
      </trkpt>
      <trkpt lat="49.02259" lon="0.29734">
        <ele>192.4</ele>
        <time>2014-04-03T12:02:24.000Z</time>
      </trkpt>
      <trkpt lat="49.02256" lon="0.29748">
        <ele>192.2</ele>
        <time>2014-04-03T12:02:32.000Z</time>
      </trkpt>
      <trkpt lat="49.02253" lon="0.29762">
        <ele>192.4</ele>
        <time>2014-04-03T12:02:40.000Z</time>
      </trkpt>
      <trkpt lat="49.0225" lon="0.29776">
        <ele>191.9</ele>
        <time>2014-04-03T12:02:48.000Z</time>
      </trkpt>
      <trkpt lat="49.02248" lon="0.29789">
        <ele>191.9</ele>
        <time>2014-04-03T12:02:56.000Z</time>
      </trkpt>
      <trkpt lat="49.02246" lon="0.29803">
        <ele>192</ele>
        <time>2014-04-03T12:03:03.000Z</time>
      </trkpt>
      <trkpt lat="49.02246" lon="0.29834">
        <ele>192.2</ele>
        <time>2014-04-03T12:03:18.000Z</time>
      </trkpt>
      <trkpt lat="49.02247" lon="0.29848">
        <ele>191.6</ele>
        <time>2014-04-03T12:03:25.000Z</time>
      </trkpt>
      <trkpt lat="49.02247" lon="0.29862">
        <ele>192</ele>
        <time>2014-04-03T12:03:33.000Z</time>
      </trkpt>
      <trkpt lat="49.02247" lon="0.29876">
        <ele>192.5</ele>
        <time>2014-04-03T12:03:40.000Z</time>
      </trkpt>
      <trkpt lat="49.02246" lon="0.29891">
        <ele>192.2</ele>
        <time>2014-04-03T12:03:48.000Z</time>
      </trkpt>
      <trkpt lat="49.02246" lon="0.29905">
        <ele>192.7</ele>
        <time>2014-04-03T12:03:56.000Z</time>
      </trkpt>
      <trkpt lat="49.02244" lon="0.29918">
        <ele>192.3</ele>
        <time>2014-04-03T12:04:04.000Z</time>
      </trkpt>
      <trkpt lat="49.02244" lon="0.29948">
        <ele>192.1</ele>
        <time>2014-04-03T12:04:22.000Z</time>
      </trkpt>
      <trkpt lat="49.02243" lon="0.29962">
        <ele>191.5</ele>
        <time>2014-04-03T12:04:32.000Z</time>
      </trkpt>
      <trkpt lat="49.02241" lon="0.29977">
        <ele>191.2</ele>
        <time>2014-04-03T12:04:42.000Z</time>
      </trkpt>
      <trkpt lat="49.0224" lon="0.29991">
        <ele>191.4</ele>
        <time>2014-04-03T12:04:51.000Z</time>
      </trkpt>
      <trkpt lat="49.02239" lon="0.30005">
        <ele>191.4</ele>
        <time>2014-04-03T12:05:13.000Z</time>
      </trkpt>
      <trkpt lat="49.02235" lon="0.30034">
        <ele>192</ele>
        <time>2014-04-03T12:05:30.000Z</time>
      </trkpt>
      <trkpt lat="49.02235" lon="0.3005">
        <ele>191.2</ele>
        <time>2014-04-03T12:05:38.000Z</time>
      </trkpt>
      <trkpt lat="49.02236" lon="0.30064">
        <ele>190</ele>
        <time>2014-04-03T12:05:46.000Z</time>
      </trkpt>
      <trkpt lat="49.02237" lon="0.3008">
        <ele>190</ele>
        <time>2014-04-03T12:05:55.000Z</time>
      </trkpt>
      <trkpt lat="49.02235" lon="0.30095">
        <ele>189.9</ele>
        <time>2014-04-03T12:06:04.000Z</time>
      </trkpt>
      <trkpt lat="49.02236" lon="0.3011">
        <ele>189.8</ele>
        <time>2014-04-03T12:06:13.000Z</time>
      </trkpt>
      <trkpt lat="49.02236" lon="0.30125">
        <ele>189.7</ele>
        <time>2014-04-03T12:06:21.000Z</time>
      </trkpt>
      <trkpt lat="49.02234" lon="0.30155">
        <ele>188.6</ele>
        <time>2014-04-03T12:06:37.000Z</time>
      </trkpt>
      <trkpt lat="49.02234" lon="0.30169">
        <ele>188.7</ele>
        <time>2014-04-03T12:06:44.000Z</time>
      </trkpt>
      <trkpt lat="49.02234" lon="0.30184">
        <ele>188.5</ele>
        <time>2014-04-03T12:06:52.000Z</time>
      </trkpt>
      <trkpt lat="49.02233" lon="0.302">
        <ele>187.6</ele>
        <time>2014-04-03T12:07:00.000Z</time>
      </trkpt>
      <trkpt lat="49.02233" lon="0.30213">
        <ele>187.5</ele>
        <time>2014-04-03T12:07:07.000Z</time>
      </trkpt>
      <trkpt lat="49.02233" lon="0.30228">
        <ele>188.2</ele>
        <time>2014-04-03T12:07:14.000Z</time>
      </trkpt>
      <trkpt lat="49.02233" lon="0.30242">
        <ele>188</ele>
        <time>2014-04-03T12:07:21.000Z</time>
      </trkpt>
      <trkpt lat="49.02232" lon="0.30257">
        <ele>187.6</ele>
        <time>2014-04-03T12:07:29.000Z</time>
      </trkpt>
      <trkpt lat="49.02231" lon="0.30287">
        <ele>188.2</ele>
        <time>2014-04-03T12:07:45.000Z</time>
      </trkpt>
      <trkpt lat="49.02231" lon="0.30301">
        <ele>187.5</ele>
        <time>2014-04-03T12:07:53.000Z</time>
      </trkpt>
      <trkpt lat="49.02231" lon="0.30317">
        <ele>187.5</ele>
        <time>2014-04-03T12:08:02.000Z</time>
      </trkpt>
      <trkpt lat="49.02231" lon="0.30331">
        <ele>187</ele>
        <time>2014-04-03T12:08:10.000Z</time>
      </trkpt>
      <trkpt lat="49.02231" lon="0.30346">
        <ele>186.9</ele>
        <time>2014-04-03T12:08:18.000Z</time>
      </trkpt>
      <trkpt lat="49.02231" lon="0.3036">
        <ele>186.9</ele>
        <time>2014-04-03T12:08:26.000Z</time>
      </trkpt>
      <trkpt lat="49.02232" lon="0.30374">
        <ele>186.5</ele>
        <time>2014-04-03T12:08:34.000Z</time>
      </trkpt>
      <trkpt lat="49.02236" lon="0.30403">
        <ele>185.9</ele>
        <time>2014-04-03T12:08:49.000Z</time>
      </trkpt>
      <trkpt lat="49.02238" lon="0.30417">
        <ele>184.7</ele>
        <time>2014-04-03T12:08:57.000Z</time>
      </trkpt>
      <trkpt lat="49.02239" lon="0.30432">
        <ele>185.1</ele>
        <time>2014-04-03T12:09:05.000Z</time>
      </trkpt>
      <trkpt lat="49.02241" lon="0.30447">
        <ele>184.8</ele>
        <time>2014-04-03T12:09:13.000Z</time>
      </trkpt>
      <trkpt lat="49.02243" lon="0.30461">
        <ele>184.3</ele>
        <time>2014-04-03T12:09:21.000Z</time>
      </trkpt>
      <trkpt lat="49.02244" lon="0.30476">
        <ele>183.5</ele>
        <time>2014-04-03T12:09:29.000Z</time>
      </trkpt>
      <trkpt lat="49.02244" lon="0.30491">
        <ele>183.4</ele>
        <time>2014-04-03T12:09:37.000Z</time>
      </trkpt>
      <trkpt lat="49.02244" lon="0.30521">
        <ele>183.4</ele>
        <time>2014-04-03T12:09:53.000Z</time>
      </trkpt>
      <trkpt lat="49.02244" lon="0.30536">
        <ele>182.8</ele>
        <time>2014-04-03T12:10:01.000Z</time>
      </trkpt>
      <trkpt lat="49.02244" lon="0.3055">
        <ele>183.2</ele>
        <time>2014-04-03T12:10:09.000Z</time>
      </trkpt>
      <trkpt lat="49.02243" lon="0.30566">
        <ele>183.8</ele>
        <time>2014-04-03T12:10:17.000Z</time>
      </trkpt>
      <trkpt lat="49.02243" lon="0.3058">
        <ele>182.7</ele>
        <time>2014-04-03T12:10:24.000Z</time>
      </trkpt>
      <trkpt lat="49.02242" lon="0.30594">
        <ele>183.2</ele>
        <time>2014-04-03T12:10:31.000Z</time>
      </trkpt>
      <trkpt lat="49.0224" lon="0.30609">
        <ele>183.8</ele>
        <time>2014-04-03T12:10:39.000Z</time>
      </trkpt>
      <trkpt lat="49.02237" lon="0.30623">
        <ele>184</ele>
        <time>2014-04-03T12:10:47.000Z</time>
      </trkpt>
      <trkpt lat="49.02233" lon="0.30651">
        <ele>185.4</ele>
        <time>2014-04-03T12:11:02.000Z</time>
      </trkpt>
      <trkpt lat="49.02232" lon="0.30666">
        <ele>185.4</ele>
        <time>2014-04-03T12:11:10.000Z</time>
      </trkpt>
      <trkpt lat="49.02231" lon="0.30681">
        <ele>186.7</ele>
        <time>2014-04-03T12:11:18.000Z</time>
      </trkpt>
      <trkpt lat="49.0223" lon="0.30696">
        <ele>186.8</ele>
        <time>2014-04-03T12:11:26.000Z</time>
      </trkpt>
      <trkpt lat="49.02229" lon="0.30711">
        <ele>187.4</ele>
        <time>2014-04-03T12:11:34.000Z</time>
      </trkpt>
      <trkpt lat="49.02227" lon="0.30726">
        <ele>187.1</ele>
        <time>2014-04-03T12:11:42.000Z</time>
      </trkpt>
      <trkpt lat="49.02225" lon="0.3074">
        <ele>187.5</ele>
        <time>2014-04-03T12:11:50.000Z</time>
      </trkpt>
      <trkpt lat="49.02221" lon="0.30768">
        <ele>187.7</ele>
        <time>2014-04-03T12:12:04.000Z</time>
      </trkpt>
      <trkpt lat="49.02219" lon="0.30782">
        <ele>187.7</ele>
        <time>2014-04-03T12:12:11.000Z</time>
      </trkpt>
      <trkpt lat="49.02217" lon="0.30798">
        <ele>188.1</ele>
        <time>2014-04-03T12:12:19.000Z</time>
      </trkpt>
      <trkpt lat="49.02216" lon="0.30811">
        <ele>189</ele>
        <time>2014-04-03T12:12:27.000Z</time>
      </trkpt>
      <trkpt lat="49.02215" lon="0.30826">
        <ele>190.9</ele>
        <time>2014-04-03T12:12:34.000Z</time>
      </trkpt>
      <trkpt lat="49.02213" lon="0.3084">
        <ele>190.2</ele>
        <time>2014-04-03T12:12:42.000Z</time>
      </trkpt>
      <trkpt lat="49.02209" lon="0.30853">
        <ele>189.6</ele>
        <time>2014-04-03T12:12:49.000Z</time>
      </trkpt>
      <trkpt lat="49.02199" lon="0.3088">
        <ele>190.9</ele>
        <time>2014-04-03T12:13:06.000Z</time>
      </trkpt>
      <trkpt lat="49.02193" lon="0.30892">
        <ele>190.6</ele>
        <time>2014-04-03T12:13:15.000Z</time>
      </trkpt>
      <trkpt lat="49.02189" lon="0.30906">
        <ele>190.7</ele>
        <time>2014-04-03T12:13:23.000Z</time>
      </trkpt>
      <trkpt lat="49.02186" lon="0.30919">
        <ele>191.8</ele>
        <time>2014-04-03T12:13:30.000Z</time>
      </trkpt>
      <trkpt lat="49.02183" lon="0.30932">
        <ele>191.7</ele>
        <time>2014-04-03T12:13:39.000Z</time>
      </trkpt>
      <trkpt lat="49.02181" lon="0.30946">
        <ele>192.3</ele>
        <time>2014-04-03T12:13:47.000Z</time>
      </trkpt>
      <trkpt lat="49.02179" lon="0.30961">
        <ele>191.7</ele>
        <time>2014-04-03T12:13:55.000Z</time>
      </trkpt>
      <trkpt lat="49.02176" lon="0.30989">
        <ele>191.8</ele>
        <time>2014-04-03T12:14:10.000Z</time>
      </trkpt>
      <trkpt lat="49.02174" lon="0.31003">
        <ele>192.3</ele>
        <time>2014-04-03T12:14:18.000Z</time>
      </trkpt>
      <trkpt lat="49.0217" lon="0.31018">
        <ele>192.9</ele>
        <time>2014-04-03T12:14:27.000Z</time>
      </trkpt>
      <trkpt lat="49.02168" lon="0.31032">
        <ele>192.7</ele>
        <time>2014-04-03T12:14:35.000Z</time>
      </trkpt>
      <trkpt lat="49.02165" lon="0.31045">
        <ele>192.6</ele>
        <time>2014-04-03T12:14:43.000Z</time>
      </trkpt>
      <trkpt lat="49.02164" lon="0.31059">
        <ele>193.6</ele>
        <time>2014-04-03T12:14:50.000Z</time>
      </trkpt>
      <trkpt lat="49.02161" lon="0.31073">
        <ele>192.6</ele>
        <time>2014-04-03T12:14:58.000Z</time>
      </trkpt>
      <trkpt lat="49.02157" lon="0.31102">
        <ele>192</ele>
        <time>2014-04-03T12:15:14.000Z</time>
      </trkpt>
      <trkpt lat="49.02156" lon="0.31117">
        <ele>191.8</ele>
        <time>2014-04-03T12:15:23.000Z</time>
      </trkpt>
      <trkpt lat="49.02155" lon="0.31133">
        <ele>192</ele>
        <time>2014-04-03T12:15:32.000Z</time>
      </trkpt>
      <trkpt lat="49.02155" lon="0.31148">
        <ele>191.9</ele>
        <time>2014-04-03T12:15:40.000Z</time>
      </trkpt>
      <trkpt lat="49.02155" lon="0.31162">
        <ele>191.9</ele>
        <time>2014-04-03T12:15:48.000Z</time>
      </trkpt>
      <trkpt lat="49.02154" lon="0.31177">
        <ele>191.8</ele>
        <time>2014-04-03T12:15:56.000Z</time>
      </trkpt>
      <trkpt lat="49.02154" lon="0.31193">
        <ele>192.5</ele>
        <time>2014-04-03T12:16:04.000Z</time>
      </trkpt>
      <trkpt lat="49.02154" lon="0.31223">
        <ele>193</ele>
        <time>2014-04-03T12:16:20.000Z</time>
      </trkpt>
      <trkpt lat="49.02154" lon="0.31238">
        <ele>193.6</ele>
        <time>2014-04-03T12:16:28.000Z</time>
      </trkpt>
      <trkpt lat="49.02155" lon="0.31253">
        <ele>192.9</ele>
        <time>2014-04-03T12:16:36.000Z</time>
      </trkpt>
      <trkpt lat="49.02155" lon="0.31267">
        <ele>192.6</ele>
        <time>2014-04-03T12:16:44.000Z</time>
      </trkpt>
      <trkpt lat="49.02156" lon="0.31283">
        <ele>192.5</ele>
        <time>2014-04-03T12:16:52.000Z</time>
      </trkpt>
      <trkpt lat="49.02156" lon="0.31298">
        <ele>192.7</ele>
        <time>2014-04-03T12:17:00.000Z</time>
      </trkpt>
      <trkpt lat="49.02157" lon="0.31313">
        <ele>192.5</ele>
        <time>2014-04-03T12:17:08.000Z</time>
      </trkpt>
      <trkpt lat="49.02158" lon="0.31342">
        <ele>192.6</ele>
        <time>2014-04-03T12:17:24.000Z</time>
      </trkpt>
      <trkpt lat="49.02159" lon="0.31357">
        <ele>193.4</ele>
        <time>2014-04-03T12:17:32.000Z</time>
      </trkpt>
      <trkpt lat="49.02159" lon="0.31371">
        <ele>193.4</ele>
        <time>2014-04-03T12:17:39.000Z</time>
      </trkpt>
      <trkpt lat="49.02159" lon="0.31387">
        <ele>193.3</ele>
        <time>2014-04-03T12:17:47.000Z</time>
      </trkpt>
      <trkpt lat="49.02159" lon="0.31402">
        <ele>192.7</ele>
        <time>2014-04-03T12:17:54.000Z</time>
      </trkpt>
      <trkpt lat="49.02158" lon="0.31416">
        <ele>192.1</ele>
        <time>2014-04-03T12:18:01.000Z</time>
      </trkpt>
      <trkpt lat="49.02158" lon="0.31431">
        <ele>192.1</ele>
        <time>2014-04-03T12:18:09.000Z</time>
      </trkpt>
      <trkpt lat="49.02158" lon="0.31445">
        <ele>192.1</ele>
        <time>2014-04-03T12:18:16.000Z</time>
      </trkpt>
      <trkpt lat="49.02154" lon="0.31473">
        <ele>191.6</ele>
        <time>2014-04-03T12:18:31.000Z</time>
      </trkpt>
      <trkpt lat="49.0215" lon="0.31486">
        <ele>191.5</ele>
        <time>2014-04-03T12:18:39.000Z</time>
      </trkpt>
      <trkpt lat="49.02147" lon="0.315">
        <ele>191.6</ele>
        <time>2014-04-03T12:18:47.000Z</time>
      </trkpt>
      <trkpt lat="49.02142" lon="0.31512">
        <ele>191.6</ele>
        <time>2014-04-03T12:18:55.000Z</time>
      </trkpt>
      <trkpt lat="49.02137" lon="0.31526">
        <ele>191.4</ele>
        <time>2014-04-03T12:19:04.000Z</time>
      </trkpt>
      <trkpt lat="49.02134" lon="0.31539">
        <ele>190</ele>
        <time>2014-04-03T12:19:12.000Z</time>
      </trkpt>
      <trkpt lat="49.02131" lon="0.31553">
        <ele>190.8</ele>
        <time>2014-04-03T12:19:21.000Z</time>
      </trkpt>
      <trkpt lat="49.0213" lon="0.31582">
        <ele>190.9</ele>
        <time>2014-04-03T12:19:38.000Z</time>
      </trkpt>
      <trkpt lat="49.02132" lon="0.31597">
        <ele>191.5</ele>
        <time>2014-04-03T12:19:46.000Z</time>
      </trkpt>
      <trkpt lat="49.02134" lon="0.31612">
        <ele>190.2</ele>
        <time>2014-04-03T12:19:54.000Z</time>
      </trkpt>
      <trkpt lat="49.02134" lon="0.31626">
        <ele>189.9</ele>
        <time>2014-04-03T12:20:02.000Z</time>
      </trkpt>
      <trkpt lat="49.02133" lon="0.31641">
        <ele>189.7</ele>
        <time>2014-04-03T12:20:10.000Z</time>
      </trkpt>
      <trkpt lat="49.02134" lon="0.31655">
        <ele>189</ele>
        <time>2014-04-03T12:20:18.000Z</time>
      </trkpt>
      <trkpt lat="49.02135" lon="0.31669">
        <ele>190</ele>
        <time>2014-04-03T12:20:26.000Z</time>
      </trkpt>
      <trkpt lat="49.02137" lon="0.31698">
        <ele>188.6</ele>
        <time>2014-04-03T12:20:41.000Z</time>
      </trkpt>
      <trkpt lat="49.02136" lon="0.31712">
        <ele>188.4</ele>
        <time>2014-04-03T12:20:49.000Z</time>
      </trkpt>
      <trkpt lat="49.02133" lon="0.31727">
        <ele>188.7</ele>
        <time>2014-04-03T12:20:57.000Z</time>
      </trkpt>
      <trkpt lat="49.02131" lon="0.31741">
        <ele>188.9</ele>
        <time>2014-04-03T12:21:05.000Z</time>
      </trkpt>
      <trkpt lat="49.02128" lon="0.31755">
        <ele>188.6</ele>
        <time>2014-04-03T12:21:13.000Z</time>
      </trkpt>
      <trkpt lat="49.02125" lon="0.31768">
        <ele>187</ele>
        <time>2014-04-03T12:21:20.000Z</time>
      </trkpt>
      <trkpt lat="49.02123" lon="0.31782">
        <ele>187.6</ele>
        <time>2014-04-03T12:21:28.000Z</time>
      </trkpt>
      <trkpt lat="49.02116" lon="0.3181">
        <ele>186.5</ele>
        <time>2014-04-03T12:21:45.000Z</time>
      </trkpt>
      <trkpt lat="49.02112" lon="0.31823">
        <ele>187.3</ele>
        <time>2014-04-03T12:21:54.000Z</time>
      </trkpt>
      <trkpt lat="49.02109" lon="0.31836">
        <ele>185.7</ele>
        <time>2014-04-03T12:22:02.000Z</time>
      </trkpt>
      <trkpt lat="49.02108" lon="0.31851">
        <ele>184.5</ele>
        <time>2014-04-03T12:22:14.000Z</time>
      </trkpt>
      <trkpt lat="49.02106" lon="0.31865">
        <ele>184.1</ele>
        <time>2014-04-03T12:22:23.000Z</time>
      </trkpt>
      <trkpt lat="49.02107" lon="0.3188">
        <ele>185.2</ele>
        <time>2014-04-03T12:22:31.000Z</time>
      </trkpt>
      <trkpt lat="49.02115" lon="0.31906">
        <ele>185</ele>
        <time>2014-04-03T12:22:46.000Z</time>
      </trkpt>
      <trkpt lat="49.02118" lon="0.31919">
        <ele>185</ele>
        <time>2014-04-03T12:22:54.000Z</time>
      </trkpt>
      <trkpt lat="49.02117" lon="0.31934">
        <ele>185</ele>
        <time>2014-04-03T12:23:02.000Z</time>
      </trkpt>
      <trkpt lat="49.02113" lon="0.31946">
        <ele>184.8</ele>
        <time>2014-04-03T12:23:08.000Z</time>
      </trkpt>
      <trkpt lat="49.02108" lon="0.31957">
        <ele>184.7</ele>
        <time>2014-04-03T12:23:14.000Z</time>
      </trkpt>
      <trkpt lat="49.02101" lon="0.31968">
        <ele>185.1</ele>
        <time>2014-04-03T12:23:21.000Z</time>
      </trkpt>
      <trkpt lat="49.02095" lon="0.31978">
        <ele>184.5</ele>
        <time>2014-04-03T12:23:29.000Z</time>
      </trkpt>
      <trkpt lat="49.02089" lon="0.31991">
        <ele>184.7</ele>
        <time>2014-04-03T12:23:37.000Z</time>
      </trkpt>
      <trkpt lat="49.02088" lon="0.32021">
        <ele>184.4</ele>
        <time>2014-04-03T12:23:52.000Z</time>
      </trkpt>
      <trkpt lat="49.02089" lon="0.32036">
        <ele>184.8</ele>
        <time>2014-04-03T12:23:59.000Z</time>
      </trkpt>
      <trkpt lat="49.0209" lon="0.32052">
        <ele>185.7</ele>
        <time>2014-04-03T12:24:06.000Z</time>
      </trkpt>
      <trkpt lat="49.02092" lon="0.32067">
        <ele>185.9</ele>
        <time>2014-04-03T12:24:13.000Z</time>
      </trkpt>
      <trkpt lat="49.02096" lon="0.3208">
        <ele>185</ele>
        <time>2014-04-03T12:24:20.000Z</time>
      </trkpt>
      <trkpt lat="49.02099" lon="0.32093">
        <ele>184.8</ele>
        <time>2014-04-03T12:24:29.000Z</time>
      </trkpt>
      <trkpt lat="49.02101" lon="0.32107">
        <ele>185.1</ele>
        <time>2014-04-03T12:24:37.000Z</time>
      </trkpt>
      <trkpt lat="49.02103" lon="0.32121">
        <ele>184.9</ele>
        <time>2014-04-03T12:24:44.000Z</time>
      </trkpt>
      <trkpt lat="49.02106" lon="0.32135">
        <ele>184.9</ele>
        <time>2014-04-03T12:24:51.000Z</time>
      </trkpt>
      <trkpt lat="49.02109" lon="0.32149">
        <ele>185.3</ele>
        <time>2014-04-03T12:24:58.000Z</time>
      </trkpt>
      <trkpt lat="49.02113" lon="0.32162">
        <ele>185.4</ele>
        <time>2014-04-03T12:25:05.000Z</time>
      </trkpt>
      <trkpt lat="49.02116" lon="0.32176">
        <ele>185.6</ele>
        <time>2014-04-03T12:25:13.000Z</time>
      </trkpt>
      <trkpt lat="49.0212" lon="0.3219">
        <ele>185.4</ele>
        <time>2014-04-03T12:25:21.000Z</time>
      </trkpt>
      <trkpt lat="49.02123" lon="0.32204">
        <ele>184.6</ele>
        <time>2014-04-03T12:25:29.000Z</time>
      </trkpt>
      <trkpt lat="49.02128" lon="0.32217">
        <ele>185.1</ele>
        <time>2014-04-03T12:25:37.000Z</time>
      </trkpt>
      <trkpt lat="49.02133" lon="0.3223">
        <ele>185.5</ele>
        <time>2014-04-03T12:25:44.000Z</time>
      </trkpt>
      <trkpt lat="49.02137" lon="0.32243">
        <ele>185.3</ele>
        <time>2014-04-03T12:25:52.000Z</time>
      </trkpt>
      <trkpt lat="49.0213" lon="0.32254">
        <ele>185.5</ele>
        <time>2014-04-03T12:26:00.000Z</time>
      </trkpt>
      <trkpt lat="49.02122" lon="0.32261">
        <ele>186.3</ele>
        <time>2014-04-03T12:26:07.000Z</time>
      </trkpt>
      <trkpt lat="49.02114" lon="0.3227">
        <ele>186.8</ele>
        <time>2014-04-03T12:26:15.000Z</time>
      </trkpt>
      <trkpt lat="49.02105" lon="0.32278">
        <ele>186.8</ele>
        <time>2014-04-03T12:26:23.000Z</time>
      </trkpt>
      <trkpt lat="49.02097" lon="0.32286">
        <ele>186.7</ele>
        <time>2014-04-03T12:26:31.000Z</time>
      </trkpt>
      <trkpt lat="49.02089" lon="0.32292">
        <ele>187.8</ele>
        <time>2014-04-03T12:26:38.000Z</time>
      </trkpt>
      <trkpt lat="49.02082" lon="0.32302">
        <ele>187.8</ele>
        <time>2014-04-03T12:26:46.000Z</time>
      </trkpt>
      <trkpt lat="49.02074" lon="0.3231">
        <ele>188</ele>
        <time>2014-04-03T12:26:54.000Z</time>
      </trkpt>
      <trkpt lat="49.02066" lon="0.32318">
        <ele>187.9</ele>
        <time>2014-04-03T12:27:02.000Z</time>
      </trkpt>
      <trkpt lat="49.02057" lon="0.32324">
        <ele>188.8</ele>
        <time>2014-04-03T12:27:10.000Z</time>
      </trkpt>
      <trkpt lat="49.0205" lon="0.32333">
        <ele>188.6</ele>
        <time>2014-04-03T12:27:18.000Z</time>
      </trkpt>
      <trkpt lat="49.02042" lon="0.32342">
        <ele>189.3</ele>
        <time>2014-04-03T12:27:26.000Z</time>
      </trkpt>
      <trkpt lat="49.02034" lon="0.32349">
        <ele>189</ele>
        <time>2014-04-03T12:27:33.000Z</time>
      </trkpt>
      <trkpt lat="49.02025" lon="0.32357">
        <ele>190.3</ele>
        <time>2014-04-03T12:27:41.000Z</time>
      </trkpt>
      <trkpt lat="49.02018" lon="0.32364">
        <ele>191</ele>
        <time>2014-04-03T12:27:49.000Z</time>
      </trkpt>
      <trkpt lat="49.02009" lon="0.32372">
        <ele>189.7</ele>
        <time>2014-04-03T12:27:58.000Z</time>
      </trkpt>
      <trkpt lat="49.01999" lon="0.32377">
        <ele>191.1</ele>
        <time>2014-04-03T12:28:08.000Z</time>
      </trkpt>
      <trkpt lat="49.01994" lon="0.32365">
        <ele>189.5</ele>
        <time>2014-04-03T12:29:51.000Z</time>
      </trkpt>
      <trkpt lat="49.01985" lon="0.32362">
        <ele>190.9</ele>
        <time>2014-04-03T12:32:58.000Z</time>
      </trkpt>
      <trkpt lat="49.01985" lon="0.32362">
        <ele>190.8</ele>
        <time>2014-04-03T12:32:59.000Z</time>
      </trkpt>
    </trkseg>
  </trk>
</gpx>